Provisional Data: West Branch Pine Creek near Galeton, PA


Please select a monitoring station.
Please select start date.
Please select start date.

Toggle Unit: C/F Toggle Unit: C/F
Sample Time Temperature (C) Temperature (F) Specific Conductivity (mS/cm) pH   Turbidity (NTU+) DO (mg/L)
8/1/2022 12:00:00 AM 20.1 68.18 0.066 7.15 2.13 7.94
8/1/2022 12:15:00 AM 20 68 0.066 7.14 2.14 7.97
8/1/2022 12:30:00 AM 19.91 67.838 0.066 7.15 2.16 7.99
8/1/2022 12:45:00 AM 19.8 67.64 0.067 7.14 2.11 8
8/1/2022 1:00:00 AM 19.7 67.46 0.067 7.14 2.24 8.01
8/1/2022 1:15:00 AM 19.6 67.28 0.067 7.14 2.16 8.03
8/1/2022 1:30:00 AM 19.5 67.1 0.067 7.15 2.13 8.05
8/1/2022 1:45:00 AM 19.4 66.92 0.067 7.14 2.22 8.08
8/1/2022 2:00:00 AM 19.32 66.776 0.067 7.15 2.17 8.11
8/1/2022 2:15:00 AM 19.24 66.632 0.067 7.14 2.14 8.12
8/1/2022 2:30:00 AM 19.18 66.524 0.067 7.14 2.11 8.12
8/1/2022 2:45:00 AM 19.11 66.398 0.067 7.12 2.14 8.12
8/1/2022 3:00:00 AM 19.06 66.308 0.067 7.13 2.11 8.15
8/1/2022 3:15:00 AM 19 66.2 0.068 7.13 2.11 8.17
8/1/2022 3:30:00 AM 18.95 66.11 0.068 7.13 2.16 8.18
8/1/2022 3:45:00 AM 18.89 66.002 0.068 7.13 2.12 8.2
8/1/2022 4:00:00 AM 18.85 65.93 0.068 7.15 2.23 8.21
8/1/2022 4:15:00 AM 18.8 65.84 0.068 7.14 2.15 8.22
8/1/2022 4:30:00 AM 18.75 65.75 0.068 7.14 2.06 8.26
8/1/2022 4:45:00 AM 18.7 65.66 0.068 7.13 2.11 8.26
8/1/2022 5:00:00 AM 18.64 65.552 0.068 7.12 2.15 8.23
8/1/2022 5:15:00 AM 18.6 65.48 0.068 7.13 2.19 8.26
8/1/2022 5:30:00 AM 18.56 65.408 0.068 7.14 2.15 8.29
8/1/2022 5:45:00 AM 18.52 65.336 0.068 7.15 2.13 8.29
8/1/2022 6:00:00 AM 18.48 65.264 0.068 7.15 2.18 8.31
8/1/2022 6:15:00 AM 18.44 65.192 0.068 7.14 2.14 8.31
8/1/2022 6:30:00 AM 18.4 65.12 0.068 7.13 2.15 8.33
8/1/2022 6:45:00 AM 18.37 65.066 0.068 7.14 2.16 8.36
8/1/2022 7:00:00 AM 18.33 64.994 0.067 7.13 2.2 8.36
8/1/2022 7:15:00 AM 18.32 64.976 0.068 7.14 2.31 8.4
8/1/2022 7:30:00 AM 18.31 64.958 0.067 7.15 2.8 8.47
8/1/2022 7:45:00 AM 18.3 64.94 0.067 7.14 3.63 8.47
8/1/2022 8:00:00 AM 18.32 64.976 0.067 7.17 2.22 8.57
8/1/2022 8:15:00 AM 18.33 64.994 0.067 7.19 2.21 8.58
8/1/2022 8:30:00 AM 18.36 65.048 0.067 7.19 2.19 8.65
8/1/2022 8:45:00 AM 18.44 65.192 0.066 7.19 2.13 8.71
8/1/2022 9:00:00 AM 18.48 65.264 0.066 7.21 2.1 8.74
8/1/2022 9:15:00 AM 18.53 65.354 0.066 7.22 2.08 8.8
8/1/2022 9:30:00 AM 18.61 65.498 0.066 7.23 2.1 8.84
8/1/2022 9:45:00 AM 18.71 65.67799 0.065 7.24 2.08 8.85
8/1/2022 10:00:00 AM 18.81 65.858 0.065 7.24 2.07 8.88
8/1/2022 10:15:00 AM 18.89 66.002 0.065 7.24 2.05 8.86
8/1/2022 10:30:00 AM 18.96 66.128 0.065 7.25 2.19 8.88
8/1/2022 10:45:00 AM 19.1 66.38 0.064 7.26 2.16 8.91
8/1/2022 11:00:00 AM 19.24 66.632 0.064 7.27 2.21 8.93
8/1/2022 11:15:00 AM 19.4 66.92 0.064 7.28 2.08 8.91
8/1/2022 11:30:00 AM 19.56 67.208 0.063 7.29 2.09 8.91
8/1/2022 11:45:00 AM 19.77 67.586 0.063 7.3 2.06 8.87
8/1/2022 12:00:00 PM 19.99 67.982 0.063 7.33 2.04 8.85
8/1/2022 12:15:00 PM 20.27 68.486 0.063 7.34 2.06 8.83
8/1/2022 12:30:00 PM 20.54 68.972 0.063 7.33 2.09 8.79
8/1/2022 12:45:00 PM 20.78 69.404 0.063 7.33 2.04 8.72
8/1/2022 1:00:00 PM 21 69.8 0.063 7.35 2.12 8.64
8/1/2022 1:15:00 PM 21.24 70.232 0.063 7.38 2.13 8.65
8/1/2022 1:30:00 PM 21.49 70.682 0.063 7.38 2.12 8.61
8/1/2022 1:45:00 PM 21.66 70.988 0.062 7.35 2.11 8.53
8/1/2022 2:00:00 PM 21.93 71.474 0.062 7.34 2.16 8.48
8/1/2022 2:15:00 PM 22.16 71.888 0.062 7.35 2.15 8.44
8/1/2022 2:30:00 PM 22.41 72.338 0.062 7.35 2.22 8.4
8/1/2022 2:45:00 PM 22.67 72.806 0.062 7.36 2.1 8.38
8/1/2022 3:00:00 PM 22.92 73.256 0.062 7.36 2.06 8.33
8/1/2022 3:15:00 PM 23.18 73.724 0.062 7.35 2.07 8.28
8/1/2022 3:30:00 PM 23.39 74.102 0.062 7.34 2.11 8.19
8/1/2022 3:45:00 PM 23.62 74.516 0.062 7.34 2.08 8.13
8/1/2022 4:00:00 PM 23.87 74.966 0.061 7.34 2.08 8.13
8/1/2022 4:15:00 PM 24.05 75.29 0.061 7.33 2.14 8.1
8/1/2022 4:30:00 PM 24.16 75.488 0.061 7.34 2.07 8.07
8/1/2022 4:45:00 PM 24.31 75.758 0.062 7.36 2.1 8.04
8/1/2022 5:00:00 PM 24.36 75.848 0.062 7.38 2.07 8.01
8/1/2022 5:15:00 PM 24.35 75.83 0.062 7.38 2.01 8
8/1/2022 5:30:00 PM 24.38 75.884 0.062 7.35 2.04 7.95
8/1/2022 5:45:00 PM 24.31 75.758 0.062 7.34 2.08 7.91
8/1/2022 6:00:00 PM 24.22 75.596 0.062 7.32 2.01 7.85
8/1/2022 6:15:00 PM 24.2 75.56 0.062 7.32 2.1 7.81
8/1/2022 6:30:00 PM 24.09 75.362 0.062 7.31 2.04 7.76
8/1/2022 6:45:00 PM 23.98 75.164 0.062 7.29 2.01 7.71
8/1/2022 7:00:00 PM 23.88 74.984 0.062 7.26 2.04 7.66
8/1/2022 7:15:00 PM 23.8 74.84 0.063 7.27 2.15 7.63
8/1/2022 7:30:00 PM 23.74 74.732 0.063 7.25 2.08 7.57
8/1/2022 7:45:00 PM 23.65 74.57 0.063 7.22 2.27 7.49
8/1/2022 8:00:00 PM 23.58 74.444 0.064 7.2 2.06 7.47
8/1/2022 8:15:00 PM 23.5 74.3 0.064 7.18 2.09 7.43
8/1/2022 8:30:00 PM 23.42 74.156 0.064 7.17 2.17 7.39
8/1/2022 8:45:00 PM 23.34 74.012 0.064 7.17 2.08 7.38
8/1/2022 9:00:00 PM 23.26 73.868 0.065 7.16 2.19 7.36
8/1/2022 9:15:00 PM 23.17 73.706 0.065 7.15 2.25 7.35
8/1/2022 9:30:00 PM 23.08 73.544 0.065 7.15 2.24 7.35
8/1/2022 9:45:00 PM 22.97 73.346 0.065 7.15 2.25 7.36
8/1/2022 10:00:00 PM 22.85 73.13 0.065 7.14 2.18 7.37
8/1/2022 10:15:00 PM 22.74 72.932 0.066 7.14 2.22 7.37
8/1/2022 10:30:00 PM 22.63 72.734 0.066 7.14 2.14 7.38
8/1/2022 10:45:00 PM 22.52 72.536 0.066 7.12 2.15 7.41
8/1/2022 11:00:00 PM 22.39 72.302 0.066 7.12 2.16 7.43
8/1/2022 11:15:00 PM 22.28 72.104 0.066 7.13 2.17 7.45
8/1/2022 11:30:00 PM 22.16 71.888 0.067 7.14 2.2 7.47
8/1/2022 11:45:00 PM 22.04 71.672 0.067 7.13 2.24 7.48
8/2/2022 12:00:00 AM 21.92 71.456 0.067 7.13 2.32 7.5
8/2/2022 12:15:00 AM 21.8 71.24 0.067 7.13 2.18 7.52
8/2/2022 12:30:00 AM 21.7 71.06 0.067 7.14 2.19 7.56
8/2/2022 12:45:00 AM 21.6 70.88 0.068 7.13 2.27 7.58
8/2/2022 1:00:00 AM 21.48 70.664 0.068 7.12 2.19 7.59
8/2/2022 1:15:00 AM 21.37 70.466 0.068 7.12 2.17 7.6
8/2/2022 1:30:00 AM 21.26 70.268 0.068 7.12 2.18 7.61
8/2/2022 1:45:00 AM 21.18 70.124 0.068 7.12 2.17 7.64
8/2/2022 2:00:00 AM 21.11 69.998 0.068 7.12 2.14 7.65
8/2/2022 2:15:00 AM 21.03 69.854 0.068 7.12 2.25 7.68
8/2/2022 2:30:00 AM 20.97 69.746 0.068 7.13 2.17 7.71
8/2/2022 2:45:00 AM 20.89 69.602 0.068 7.11 2.25 7.7
8/2/2022 3:00:00 AM 20.83 69.494 0.068 7.12 2.22 7.72
8/2/2022 3:15:00 AM 20.77 69.386 0.069 7.12 2.17 7.73
8/2/2022 3:30:00 AM 20.71 69.278 0.069 7.11 2.18 7.73
8/2/2022 3:45:00 AM 20.65 69.17 0.069 7.12 2.28 7.76
8/2/2022 4:00:00 AM 20.6 69.08 0.069 7.11 2.14 7.77
8/2/2022 4:15:00 AM 20.55 68.99 0.069 7.12 2.24 7.77
8/2/2022 4:30:00 AM 20.5 68.9 0.069 7.1 2.21 7.77
8/2/2022 4:45:00 AM 20.46 68.828 0.069 7.1 2.18 7.8
8/2/2022 5:00:00 AM 20.42 68.756 0.069 7.1 2.23 7.81
8/2/2022 5:15:00 AM 20.37 68.666 0.069 7.1 2.17 7.81
8/2/2022 5:30:00 AM 20.32 68.576 0.069 7.09 2.23 7.81
8/2/2022 5:45:00 AM 20.27 68.486 0.069 7.09 2.42 7.83
8/2/2022 6:00:00 AM 20.22 68.396 0.069 7.09 2.28 7.83
8/2/2022 6:15:00 AM 20.19 68.342 0.069 7.1 2.23 7.86
8/2/2022 6:30:00 AM 20.17 68.306 0.069 7.1 2.22 7.87
8/2/2022 6:45:00 AM 20.15 68.27 0.069 7.11 2.17 7.9
8/2/2022 7:00:00 AM 20.14 68.252 0.069 7.11 2.17 7.93
8/2/2022 7:15:00 AM 20.14 68.252 0.069 7.11 2.2 7.97
8/2/2022 7:30:00 AM 20.15 68.27 0.068 7.12 2.12 8.01
8/2/2022 7:45:00 AM 20.19 68.342 0.068 7.13 2.15 8.08
8/2/2022 8:00:00 AM 20.24 68.432 0.068 7.15 2.11 8.14
8/2/2022 8:15:00 AM 20.28 68.504 0.068 7.16 2.22 8.19
8/2/2022 8:30:00 AM 20.35 68.63 0.068 7.18 2.11 8.23
8/2/2022 8:45:00 AM 20.4 68.72 0.067 7.18 2.05 8.27
8/2/2022 9:00:00 AM 20.47 68.846 0.067 7.19 2.13 8.31
8/2/2022 9:15:00 AM 20.59 69.062 0.067 7.21 2.15 8.35
8/2/2022 9:30:00 AM 20.69 69.242 0.066 7.2 2.21 8.36
8/2/2022 9:45:00 AM 20.75 69.35 0.066 7.21 2.21 8.36
8/2/2022 10:00:00 AM 20.77 69.386 0.066 7.23 2.1 8.37
8/2/2022 10:15:00 AM 20.85 69.53 0.066 7.25 2.1 8.44
8/2/2022 10:30:00 AM 20.96 69.728 0.066 7.25 2.14 8.47
8/2/2022 10:45:00 AM 21.06 69.908 0.066 7.27 2.13 8.45
8/2/2022 11:00:00 AM 21.16 70.088 0.065 7.28 2.14 8.48
8/2/2022 11:15:00 AM 21.3 70.34 0.056 7.29 2.15 8.47
8/2/2022 11:30:00 AM 21.36 70.448 0.065 7.29 2.08 8.4
8/2/2022 11:45:00 AM 21.49 70.682 0.065 7.3 2.11 8.4
8/2/2022 12:00:00 PM 21.7 71.06 0.065 7.31 2.09 8.41
8/2/2022 12:15:00 PM 21.91 71.438 0.064 7.31 2.26 8.39
8/2/2022 12:30:00 PM 22.09 71.762 0.064 7.31 2.09 8.35
8/2/2022 12:45:00 PM 22.27 72.086 0.064 7.29 2.18 8.29
8/2/2022 1:00:00 PM 22.42 72.356 0.064 7.29 2.23 8.24
8/2/2022 1:15:00 PM 22.56 72.608 0.063 7.27 2.11 8.21
8/2/2022 1:30:00 PM 22.79 73.022 0.063 7.29 2.2 8.18
8/2/2022 1:45:00 PM 22.99 73.382 0.063 7.28 2.14 8.15
8/2/2022 2:00:00 PM 23.24 73.832 0.063 7.29 2.15 8.1
8/2/2022 2:15:00 PM 23.59 74.462 0.063 7.3 2.09 8.05
8/2/2022 2:30:00 PM 23.9 75.02 0.063 7.33 2.21 8.01
8/2/2022 2:45:00 PM 24.22 75.596 0.063 7.31 2.16 7.96
8/2/2022 3:00:00 PM 24.5 76.1 0.063 7.31 2.19 7.95
8/2/2022 3:15:00 PM 24.73 76.514 0.063 7.31 2.04 7.92
8/2/2022 3:30:00 PM 24.82 76.676 0.063 7.31 2.17 7.85
8/2/2022 3:45:00 PM 24.95 76.91 0.063 7.31 2.07 7.82
8/2/2022 4:00:00 PM 25.1 77.18 0.063 7.33 2.06 7.82
8/2/2022 4:15:00 PM 25.16 77.288 0.063 7.31 2.09 7.82
8/2/2022 4:30:00 PM 25.29 77.522 0.063 7.3 2.16 7.8
8/2/2022 4:45:00 PM 25.38 77.684 0.063 7.29 2.1 7.76
8/2/2022 5:00:00 PM 25.46 77.828 0.063 7.3 2.11 7.74
8/2/2022 5:15:00 PM 25.43 77.774 0.063 7.31 2.08 7.67
8/2/2022 5:30:00 PM 25.29 77.522 0.063 7.28 2.01 7.65
8/2/2022 5:45:00 PM 25.28 77.504 0.063 7.27 2.05 7.63
8/2/2022 6:00:00 PM 25.2 77.36 0.063 7.28 2.06 7.61
8/2/2022 6:15:00 PM 25.04 77.07201 0.064 7.26 2.02 7.54
8/2/2022 6:30:00 PM 24.91 76.838 0.064 7.26 2.06 7.48
8/2/2022 6:45:00 PM 24.72 76.496 0.064 7.24 2.1 7.4
8/2/2022 7:00:00 PM 24.56 76.208 0.064 7.2 2.07 7.35
8/2/2022 7:15:00 PM 24.41 75.938 0.064 7.2 2.13 7.35
8/2/2022 7:30:00 PM 24.29 75.722 0.065 7.19 2.15 7.33
8/2/2022 7:45:00 PM 24.16 75.488 0.065 7.18 2.11 7.32
8/2/2022 8:00:00 PM 24.03 75.254 0.065 7.18 2.11 7.32
8/2/2022 8:15:00 PM 23.89 75.002 0.065 7.17 2.07 7.31
8/2/2022 8:30:00 PM 23.76 74.768 0.066 7.17 2.18 7.3
8/2/2022 8:45:00 PM 23.64 74.552 0.066 7.17 2.24 7.29
8/2/2022 9:00:00 PM 23.52 74.336 0.066 7.16 2.51 7.29
8/2/2022 9:15:00 PM 23.39 74.102 0.066 7.15 2.34 7.29
8/2/2022 9:30:00 PM 23.27 73.886 0.066 7.16 2.4 7.32
8/2/2022 9:45:00 PM 23.16 73.688 0.067 7.17 2.26 7.36
8/2/2022 10:00:00 PM 23.02 73.436 0.067 7.17 2.31 7.39
8/2/2022 10:15:00 PM 22.87 73.166 0.067 7.17 2.24 7.4
8/2/2022 10:30:00 PM 22.7 72.86 0.067 7.16 2.31 7.43
8/2/2022 10:45:00 PM 22.53 72.554 0.067 7.16 2.37 7.46
8/2/2022 11:00:00 PM 22.35 72.23 0.068 7.16 2.21 7.49
8/2/2022 11:15:00 PM 22.17 71.906 0.068 7.16 2.24 7.51
8/2/2022 11:30:00 PM 21.99 71.582 0.068 7.15 2.24 7.53
8/2/2022 11:45:00 PM 21.81 71.258 0.068 7.14 2.17 7.57
8/3/2022 12:00:00 AM 21.64 70.952 0.068 7.14 2.19 7.6
8/3/2022 12:15:00 AM 21.47 70.646 0.068 7.14 2.21 7.64
8/3/2022 12:30:00 AM 21.31 70.358 0.069 7.15 2.18 7.67
8/3/2022 12:45:00 AM 21.14 70.052 0.069 7.13 2.18 7.71
8/3/2022 1:00:00 AM 20.99 69.782 0.069 7.13 2.22 7.72
8/3/2022 1:15:00 AM 20.83 69.494 0.069 7.11 2.25 7.73
8/3/2022 1:30:00 AM 20.67 69.206 0.069 7.1 2.23 7.77
8/3/2022 1:45:00 AM 20.53 68.954 0.069 7.11 2.19 7.81
8/3/2022 2:00:00 AM 20.38 68.684 0.069 7.11 2.24 7.84
8/3/2022 2:15:00 AM 20.24 68.432 0.069 7.1 2.36 7.87
8/3/2022 2:30:00 AM 20.09 68.162 0.069 7.1 2.26 7.9
8/3/2022 2:45:00 AM 19.95 67.91 0.069 7.11 2.2 7.93
8/3/2022 3:00:00 AM 19.82 67.676 0.069 7.1 2.14 7.95
8/3/2022 3:15:00 AM 19.67 67.406 0.069 7.11 2.22 7.97
8/3/2022 3:30:00 AM 19.54 67.172 0.069 7.1 2.4 8
8/3/2022 3:45:00 AM 19.41 66.938 0.069 7.1 2.26 8.04
8/3/2022 4:00:00 AM 19.28 66.704 0.069 7.11 2.2 8.06
8/3/2022 4:15:00 AM 19.14 66.452 0.069 7.1 2.22 8.08
8/3/2022 4:30:00 AM 19.01 66.218 0.069 7.1 2.11 8.1
8/3/2022 4:45:00 AM 18.88 65.984 0.069 7.1 2.17 8.15
8/3/2022 5:00:00 AM 18.75 65.75 0.069 7.12 2.27 8.16
8/3/2022 5:15:00 AM 18.63 65.534 0.069 7.13 2.24 8.18
8/3/2022 5:30:00 AM 18.5 65.3 0.069 7.1 2.23 8.23
8/3/2022 5:45:00 AM 18.38 65.084 0.069 7.13 2.24 8.26
8/3/2022 6:00:00 AM 18.25 64.85 0.069 7.11 2.24 8.28
8/3/2022 6:15:00 AM 18.15 64.67 0.069 7.11 2.22 8.31
8/3/2022 6:30:00 AM 18.04 64.472 0.069 7.11 2.24 8.35
8/3/2022 6:45:00 AM 17.94 64.292 0.069 7.11 2.22 8.39
8/3/2022 7:00:00 AM 17.86 64.148 0.069 7.12 2.13 8.44
8/3/2022 7:15:00 AM 17.79 64.022 0.069 7.17 2.17 8.5
8/3/2022 7:30:00 AM 17.74 63.932 0.069 7.16 2.17 8.54
8/3/2022 7:45:00 AM 17.71 63.878 0.069 7.15 2.21 8.58
8/3/2022 8:00:00 AM 17.68 63.824 0.069 7.16 2.16 8.63
8/3/2022 8:15:00 AM 17.66 63.788 0.068 7.18 2.24 8.65
8/3/2022 8:30:00 AM 17.65 63.77 0.068 7.19 2.13 8.68
8/3/2022 8:45:00 AM 17.68 63.824 0.068 7.19 2.14 8.72
8/3/2022 9:00:00 AM 17.75 63.95 0.068 7.19 2.16 8.74
8/3/2022 9:15:00 AM 17.86 64.148 0.068 7.19 2.16 8.75
8/3/2022 9:30:00 AM 17.98 64.364 0.067 7.18 2.18 8.76
8/3/2022 9:45:00 AM 18.09 64.562 0.067 7.18 2.26 8.74
8/3/2022 10:00:00 AM 18.21 64.778 0.067 7.18 2.17 8.71
8/3/2022 10:15:00 AM 18.34 65.012 0.067 7.18 2.22 8.7
8/3/2022 10:30:00 AM 18.46 65.228 0.067 7.18 2.22 8.74
8/3/2022 10:45:00 AM 18.59 65.462 0.066 7.18 2.15 8.7
8/3/2022 11:00:00 AM 18.72 65.696 0.066 7.18 2.18 8.69
8/3/2022 11:15:00 AM 18.89 66.002 0.066 7.22 2.12 8.73
8/3/2022 11:30:00 AM 19.07 66.326 0.066 7.25 2.12 8.72
8/3/2022 11:45:00 AM 19.24 66.632 0.066 7.25 2.13 8.7
8/3/2022 12:00:00 PM 19.43 66.974 0.066 7.27 2.09 8.69
8/3/2022 12:15:00 PM 19.67 67.406 0.066 7.28 2.17 8.67
8/3/2022 12:30:00 PM 19.91 67.838 0.066 7.27 2.13 8.61
8/3/2022 12:45:00 PM 20.19 68.342 0.065 7.26 2.17 8.56
8/3/2022 1:00:00 PM 20.53 68.954 0.065 7.26 2.16 8.51
8/3/2022 1:15:00 PM 20.88 69.584 0.065 7.25 2.33 8.44
8/3/2022 1:30:00 PM 21.3 70.34 0.065 7.26 2.18 8.38
8/3/2022 1:45:00 PM 21.69 71.042 0.064 7.27 2.19 8.35
8/3/2022 2:00:00 PM 22.1 71.78 0.064 7.28 2.15 8.3
8/3/2022 2:15:00 PM 22.45 72.41 0.064 7.27 2.12 8.24
8/3/2022 2:30:00 PM 22.81 73.058 0.064 7.27 2.14 8.18
8/3/2022 2:45:00 PM 23.14 73.652 0.064 7.25 2.16 8.11
8/3/2022 3:00:00 PM 23.47 74.246 0.064 7.25 2.17 8.08
8/3/2022 3:15:00 PM 23.81 74.858 0.064 7.25 2.17 8.03
8/3/2022 3:30:00 PM 24.15 75.47 0.064 7.27 2.15 8
8/3/2022 3:45:00 PM 24.47 76.046 0.064 7.26 2.1 7.95
8/3/2022 4:00:00 PM 24.66 76.388 0.064 7.28 2.06 7.92
8/3/2022 4:15:00 PM 24.78 76.604 0.064 7.28 2.1 7.84
8/3/2022 4:30:00 PM 24.95 76.91 0.064 7.3 2.03 7.8
8/3/2022 4:45:00 PM 25.12 77.216 0.064 7.29 2.09 7.79
8/3/2022 5:00:00 PM 25.16 77.288 0.064 7.27 2.17 7.74
8/3/2022 5:15:00 PM 25.18 77.324 0.064 7.25 2.08 7.68
8/3/2022 5:30:00 PM 25.14 77.252 0.064 7.23 2.41 7.63
8/3/2022 5:45:00 PM 25.06 77.108 0.064 7.21 2.08 7.59
8/3/2022 6:00:00 PM 25 77 0.064 7.2 2.07 7.55
8/3/2022 6:15:00 PM 24.86 76.748 0.064 7.18 2.17 7.48
8/3/2022 6:30:00 PM 24.68 76.424 0.065 7.17 2.09 7.41
8/3/2022 6:45:00 PM 24.51 76.118 0.065 7.15 2.19 7.32
8/3/2022 7:00:00 PM 24.43 75.974 0.065 7.14 2.14 7.27
8/3/2022 7:15:00 PM 24.38 75.884 0.065 7.14 2.15 7.28
8/3/2022 7:30:00 PM 24.35 75.83 0.065 7.14 2.12 7.26
8/3/2022 7:45:00 PM 24.31 75.758 0.065 7.13 2.13 7.25
8/3/2022 8:00:00 PM 24.24 75.632 0.066 7.12 2.11 7.23
8/3/2022 8:15:00 PM 24.15 75.47 0.066 7.11 2.11 7.19
8/3/2022 8:30:00 PM 24.05 75.29 0.066 7.11 14.43 7.16
8/3/2022 8:45:00 PM 23.93 75.074 0.066 7.09 9.53 7.13
8/3/2022 9:00:00 PM 23.83 74.894 0.066 7.09 4.42 7.12
8/3/2022 9:15:00 PM 23.74 74.732 0.066 7.08 2.07 7.11
8/3/2022 9:30:00 PM 23.64 74.552 0.067 7.08 1.92 7.12
8/3/2022 9:45:00 PM 23.54 74.372 0.067 7.08 2.19 7.12
8/3/2022 10:00:00 PM 23.45 74.21 0.067 7.08 1.92 7.14
8/3/2022 10:15:00 PM 23.35 74.03 0.067 7.07 1.93 7.16
8/3/2022 10:30:00 PM 23.26 73.868 0.067 7.08 1.93 7.17
8/3/2022 10:45:00 PM 23.17 73.706 0.067 7.08 2.01 7.2
8/3/2022 11:00:00 PM 23.07 73.526 0.067 7.09 1.89 7.23
8/3/2022 11:15:00 PM 22.96 73.328 0.067 7.09 1.93 7.24
8/3/2022 11:30:00 PM 22.85 73.13 0.068 7.08 1.96 7.27
8/3/2022 11:45:00 PM 22.73 72.914 0.068 7.08 1.93 7.29
8/4/2022 12:00:00 AM 22.63 72.734 0.068 7.09 1.87 7.31
8/4/2022 12:15:00 AM 22.51 72.518 0.068 7.09 1.91 7.33
8/4/2022 12:30:00 AM 22.4 72.32 0.068 7.07 1.94 7.33
8/4/2022 12:45:00 AM 22.29 72.122 0.069 7.08 2 7.37
8/4/2022 1:00:00 AM 22.18 71.924 0.069 7.08 1.97 7.39
8/4/2022 1:15:00 AM 22.07 71.726 0.069 7.08 1.89 7.4
8/4/2022 1:30:00 AM 21.97 71.546 0.069 7.08 1.96 7.43
8/4/2022 1:45:00 AM 21.87 71.366 0.069 7.08 1.9 7.45
8/4/2022 2:00:00 AM 21.77 71.186 0.069 7.09 1.94 7.47
8/4/2022 2:15:00 AM 21.66 70.988 0.069 7.09 1.94 7.5
8/4/2022 2:30:00 AM 21.57 70.826 0.069 7.09 1.96 7.51
8/4/2022 2:45:00 AM 21.47 70.646 0.07 7.09 2.34 7.53
8/4/2022 3:00:00 AM 21.38 70.484 0.07 7.1 1.95 7.56
8/4/2022 3:15:00 AM 21.3 70.34 0.07 7.09 1.97 7.58
8/4/2022 3:30:00 AM 21.21 70.17799 0.07 7.1 1.84 7.61
8/4/2022 3:45:00 AM 21.11 69.998 0.07 7.09 1.97 7.61
8/4/2022 4:00:00 AM 21.02 69.836 0.07 7.09 2 7.63
8/4/2022 4:15:00 AM 20.92 69.656 0.07 7.07 2.13 7.63
8/4/2022 4:30:00 AM 20.82 69.476 0.07 7.06 2.15 7.66
8/4/2022 4:45:00 AM 20.74 69.332 0.07 7.06 1.93 7.66
8/4/2022 5:00:00 AM 20.66 69.188 0.07 7.07 2.01 7.68
8/4/2022 5:15:00 AM 20.57 69.026 0.07 7.07 2 7.7
8/4/2022 5:30:00 AM 20.49 68.882 0.07 7.08 1.98 7.71
8/4/2022 5:45:00 AM 20.4 68.72 0.07 7.06 2.09 7.76
8/4/2022 6:00:00 AM 20.3 68.54 0.07 7.09 2.18 7.75
8/4/2022 6:15:00 AM 20.22 68.396 0.07 7.07 2.02 7.74
8/4/2022 6:30:00 AM 20.14 68.252 0.07 7.04 2.13 7.76
8/4/2022 6:45:00 AM 20.07 68.126 0.07 7.04 2.02 7.79
8/4/2022 7:00:00 AM 20.03 68.054 0.07 7.05 1.96 7.84
8/4/2022 7:15:00 AM 20 68 0.07 7.06 2.16 7.88
8/4/2022 7:30:00 AM 19.99 67.982 0.07 7.08 2.12 7.94
8/4/2022 7:45:00 AM 20 68 0.069 7.09 2.14 7.98
8/4/2022 8:00:00 AM 20.01 68.018 0.069 7.09 2.1 8.03
8/4/2022 8:15:00 AM 20.04 68.07201 0.069 7.08 2.05 8.05
8/4/2022 8:30:00 AM 20.07 68.126 0.069 7.09 1.96 8.08
8/4/2022 8:45:00 AM 20.13 68.234 0.069 7.09 2 8.11
8/4/2022 9:00:00 AM 20.22 68.396 0.069 7.1 2.05 8.14
8/4/2022 9:15:00 AM 20.35 68.63 0.068 7.11 1.92 8.18
8/4/2022 9:30:00 AM 20.52 68.936 0.068 7.13 1.94 8.2
8/4/2022 9:45:00 AM 20.7 69.26 0.068 7.15 2.11 8.24
8/4/2022 10:00:00 AM 20.87 69.566 0.068 7.16 2.01 8.29
8/4/2022 10:15:00 AM 21.03 69.854 0.068 7.19 2.08 8.36
8/4/2022 10:30:00 AM 21.18 70.124 0.067 7.2 2.12 8.37
8/4/2022 10:45:00 AM 21.32 70.376 0.067 7.2 1.99 8.35
8/4/2022 11:00:00 AM 21.44 70.592 0.067 7.21 2.09 8.34
8/4/2022 11:15:00 AM 21.62 70.916 0.067 7.21 1.97 8.33
8/4/2022 11:30:00 AM 21.78 71.204 0.067 7.22 1.95 8.31
8/4/2022 11:45:00 AM 21.97 71.546 0.066 7.23 2.04 8.31
8/4/2022 12:00:00 PM 22.18 71.924 0.066 7.23 1.99 8.28
8/4/2022 12:15:00 PM 22.45 72.41 0.066 7.26 1.96 8.29
8/4/2022 12:30:00 PM 22.7 72.86 0.066 7.26 2.06 8.21
8/4/2022 12:45:00 PM 22.86 73.148 0.066 7.26 2.01 8.14
8/4/2022 1:00:00 PM 22.96 73.328 0.065 7.24 2.01 8.08
8/4/2022 1:15:00 PM 22.77 72.986 0.061 7.2 4.54 8.01
8/4/2022 1:30:00 PM 22.73 72.914 0.061 7.24 4.46 7.96
8/4/2022 1:45:00 PM 22.64 72.752 0.061 7.24 2.93 7.93
8/4/2022 2:00:00 PM 22.56 72.608 0.062 7.23 2.45 7.95
8/4/2022 2:15:00 PM 22.56 72.608 0.062 7.25 2.42 8.02
8/4/2022 2:30:00 PM 22.58 72.644 0.062 7.24 2.38 8.06
8/4/2022 2:45:00 PM 22.68 72.824 0.062 7.25 2.41 8.09
8/4/2022 3:00:00 PM 22.86 73.148 0.061 7.27 2.42 8.17
8/4/2022 3:15:00 PM 23.04 73.472 0.061 7.27 2.5 8.18
8/4/2022 3:30:00 PM 23.17 73.706 0.06 7.27 3.34 8.16
8/4/2022 3:45:00 PM 23.24 73.832 0.06 7.28 5.34 8.12
8/4/2022 4:00:00 PM 23.3 73.94 0.06 7.27 6.54 8.11
8/4/2022 4:15:00 PM 23.44 74.192 0.06 7.28 6.49 8.17
8/4/2022 4:30:00 PM 23.52 74.336 0.06 7.29 5.83 8.14
8/4/2022 4:45:00 PM 23.49 74.282 0.06 7.27 5.74 8.08
8/4/2022 5:00:00 PM 23.48 74.264 0.06 7.27 7.03 8.06
8/4/2022 5:15:00 PM 23.5 74.3 0.06 7.25 7.78 8.05
8/4/2022 5:30:00 PM 23.59 74.462 0.06 7.27 8.01 8.09
8/4/2022 5:45:00 PM 23.59 74.462 0.06 7.26 7.38 8.06
8/4/2022 6:00:00 PM 23.56 74.408 0.06 7.26 6.27 8.01
8/4/2022 6:15:00 PM 23.55 74.39 0.06 7.25 5.55 7.98
8/4/2022 6:30:00 PM 23.52 74.336 0.06 7.24 4.63 7.95
8/4/2022 6:45:00 PM 23.5 74.3 0.06 7.22 3.98 7.9
8/4/2022 7:00:00 PM 23.47 74.246 0.06 7.22 3.48 7.87
8/4/2022 7:15:00 PM 23.42 74.156 0.06 7.22 3.21 7.82
8/4/2022 7:30:00 PM 23.36 74.048 0.061 7.21 2.88 7.75
8/4/2022 7:45:00 PM 23.29 73.922 0.061 7.17 2.77 7.7
8/4/2022 8:00:00 PM 23.24 73.832 0.061 7.16 2.71 7.64
8/4/2022 8:15:00 PM 23.18 73.724 0.061 7.14 2.61 7.6
8/4/2022 8:30:00 PM 23.12 73.616 0.062 7.15 2.82 7.54
8/4/2022 8:45:00 PM 23.06 73.508 0.062 7.13 2.8 7.5
8/4/2022 9:00:00 PM 23 73.4 0.062 7.13 2.79 7.47
8/4/2022 9:15:00 PM 22.94 73.292 0.063 7.12 2.7 7.47
8/4/2022 9:30:00 PM 22.87 73.166 0.063 7.11 2.65 7.47
8/4/2022 9:45:00 PM 22.81 73.058 0.063 7.11 2.52 7.48
8/4/2022 10:00:00 PM 22.75 72.95 0.063 7.13 2.54 7.48
8/4/2022 10:15:00 PM 22.68 72.824 0.064 7.11 2.53 7.49
8/4/2022 10:30:00 PM 22.6 72.68 0.064 7.12 2.41 7.49
8/4/2022 10:45:00 PM 22.51 72.518 0.064 7.1 2.4 7.5
8/4/2022 11:00:00 PM 22.42 72.356 0.064 7.1 2.42 7.51
8/4/2022 11:15:00 PM 22.35 72.23 0.064 7.1 2.36 7.52
8/4/2022 11:30:00 PM 22.28 72.104 0.065 7.1 2.3 7.54
8/4/2022 11:45:00 PM 22.2 71.96 0.065 7.1 2.47 7.53
8/5/2022 12:00:00 AM 22.14 71.852 0.065 7.1 2.25 7.56
8/5/2022 12:15:00 AM 22.07 71.726 0.065 7.11 2.25 7.58
8/5/2022 12:30:00 AM 22 71.6 0.066 7.1 2.36 7.6
8/5/2022 12:45:00 AM 21.93 71.474 0.066 7.11 2.27 7.61
8/5/2022 1:00:00 AM 21.84 71.312 0.066 7.1 2.28 7.63
8/5/2022 1:15:00 AM 21.77 71.186 0.066 7.1 2.22 7.64
8/5/2022 1:30:00 AM 21.69 71.042 0.067 7.11 2.24 7.66
8/5/2022 1:45:00 AM 21.61 70.898 0.067 7.11 2.28 7.66
8/5/2022 2:00:00 AM 21.54 70.772 0.067 7.11 2.15 7.68
8/5/2022 2:15:00 AM 21.47 70.646 0.067 7.11 2.33 7.69
8/5/2022 2:30:00 AM 21.39 70.502 0.067 7.1 2.26 7.7
8/5/2022 2:45:00 AM 21.31 70.358 0.067 7.08 2.26 7.69
8/5/2022 3:00:00 AM 21.23 70.214 0.067 7.09 2.29 7.71
8/5/2022 3:15:00 AM 21.17 70.106 0.067 7.08 2.28 7.71
8/5/2022 3:30:00 AM 21.11 69.998 0.067 7.07 2.25 7.72
8/5/2022 3:45:00 AM 21.06 69.908 0.068 7.09 2.26 7.74
8/5/2022 4:00:00 AM 21.02 69.836 0.068 7.1 2.51 7.77
8/5/2022 4:15:00 AM 20.97 69.746 0.068 7.09 2.27 7.76
8/5/2022 4:30:00 AM 20.92 69.656 0.068 7.09 2.29 7.8
8/5/2022 4:45:00 AM 20.88 69.584 0.068 7.09 2.25 7.82
8/5/2022 5:00:00 AM 20.83 69.494 0.068 7.11 2.77 7.83
8/5/2022 5:15:00 AM 20.77 69.386 0.068 7.1 13.86 7.83
8/5/2022 5:30:00 AM 20.72 69.296 0.068 7.08 2.25 7.85
8/5/2022 5:45:00 AM 20.67 69.206 0.068 7.08 2.4 7.84
8/5/2022 6:00:00 AM 20.62 69.116 0.068 7.1 2.63 7.85
8/5/2022 6:15:00 AM 20.58 69.044 0.068 7.1 2.28 7.87
8/5/2022 6:30:00 AM 20.54 68.972 0.068 7.1 2.33 7.89
8/5/2022 6:45:00 AM 20.51 68.918 0.068 7.11 2.25 7.92
8/5/2022 7:00:00 AM 20.47 68.846 0.068 7.1 2.25 7.94
8/5/2022 7:15:00 AM 20.45 68.81 0.068 7.1 2.26 7.97
8/5/2022 7:30:00 AM 20.44 68.792 0.068 7.12 2.27 8.03
8/5/2022 7:45:00 AM 20.45 68.81 0.068 7.12 2.23 8.12
8/5/2022 8:00:00 AM 20.47 68.846 0.068 7.15 2.21 8.17
8/5/2022 8:15:00 AM 20.5 68.9 0.068 7.15 2.24 8.23
8/5/2022 8:30:00 AM 20.54 68.972 0.067 7.16 2.18 8.29
8/5/2022 8:45:00 AM 20.59 69.062 0.067 7.16 2.25 8.35
8/5/2022 9:00:00 AM 20.66 69.188 0.067 7.17 2.19 8.4
8/5/2022 9:15:00 AM 20.73 69.314 0.067 7.18 2.16 8.42
8/5/2022 9:30:00 AM 20.79 69.422 0.067 7.19 2.19 8.43
8/5/2022 9:45:00 AM 20.85 69.53 0.066 7.18 2.17 8.44
8/5/2022 10:00:00 AM 20.91 69.638 0.066 7.18 2.19 8.45
8/5/2022 10:15:00 AM 20.97 69.746 0.066 7.19 2.16 8.46
8/5/2022 10:30:00 AM 21.04 69.872 0.066 7.21 2.14 8.47
8/5/2022 10:45:00 AM 21.14 70.052 0.066 7.22 2.13 8.52
8/5/2022 11:00:00 AM 21.25 70.25 0.065 7.22 2.14 8.52
8/5/2022 11:15:00 AM 21.34 70.412 0.065 7.22 2.14 8.52
8/5/2022 11:30:00 AM 21.47 70.646 0.065 7.23 2.26 8.55
8/5/2022 11:45:00 AM 21.66 70.988 0.065 7.25 2.14 8.55
8/5/2022 12:00:00 PM 21.81 71.258 0.065 7.25 2.15 8.48
8/5/2022 12:15:00 PM 21.93 71.474 0.064 7.24 2.14 8.46
8/5/2022 12:30:00 PM 22.11 71.798 0.064 7.26 2.15 8.44
8/5/2022 12:45:00 PM 22.29 72.122 0.064 7.26 2.21 8.4
8/5/2022 1:00:00 PM 22.49 72.482 0.064 7.27 2.19 8.36
8/5/2022 1:15:00 PM 22.77 72.986 0.018 7.27 2.12 8.33
8/5/2022 1:30:00 PM 23.13 73.634 0.064 7.27 2.15 8.25
8/5/2022 1:45:00 PM 23.53 74.354 0.064 7.28 2.15 8.17
8/5/2022 2:00:00 PM 23.89 75.002 0.064 7.27 2.12 8.1
8/5/2022 2:15:00 PM 24.3 75.74 0.063 7.28 2.21 8.04
8/5/2022 2:30:00 PM 24.73 76.514 0.063 7.29 2.18 8.01
8/5/2022 2:45:00 PM 25.04 77.07201 0.063 7.27 2.15 7.93
8/5/2022 3:00:00 PM 25.35 77.63 0.063 7.27 2.12 7.89
8/5/2022 3:15:00 PM 25.65 78.17 0.063 7.29 2.16 7.86
8/5/2022 3:30:00 PM 25.91 78.638 0.063 7.3 2.15 7.82
8/5/2022 3:45:00 PM 25.99 78.782 0.063 7.29 2.02 7.76
8/5/2022 4:00:00 PM 25.89 78.602 0.063 7.27 2.11 7.72
8/5/2022 4:15:00 PM 25.83 78.494 0.063 7.28 2.09 7.72
8/5/2022 4:30:00 PM 25.89 78.602 0.063 7.28 2.07 7.71
8/5/2022 4:45:00 PM 25.67 78.206 0.064 7.26 2.09 7.56
8/5/2022 5:00:00 PM 25.42 77.756 0.064 7.23 2.35 7.44
8/5/2022 5:15:00 PM 24.9 76.82 0.057 7.2 3.62 7.5
8/5/2022 5:30:00 PM 24.82 76.676 0.057 7.23 3.91 7.52
8/5/2022 5:45:00 PM 24.77 76.586 0.058 7.17 4.38 7.38
8/5/2022 6:00:00 PM 24.67 76.406 0.058 7.18 4.09 7.38
8/5/2022 6:15:00 PM 24.54 76.172 0.059 7.15 4.18 7.35
8/5/2022 6:30:00 PM 24.43 75.974 0.059 7.13 5.6 7.34
8/5/2022 6:45:00 PM 24.42 75.956 0.059 7.14 5.08 7.35
8/5/2022 7:00:00 PM 24.42 75.956 0.059 7.16 7.35 7.39
8/5/2022 7:15:00 PM 24.39 75.902 0.059 7.17 17.93 7.43
8/5/2022 7:30:00 PM 24.37 75.866 0.059 7.2 24.99 7.47
8/5/2022 7:45:00 PM 24.26 75.668 0.059 7.2 25.41 7.5
8/5/2022 8:00:00 PM 24.13 75.434 0.06 7.21 31 7.52
8/5/2022 8:15:00 PM 23.99 75.182 0.06 7.21 20.72 7.57
8/5/2022 8:30:00 PM 23.85 74.93 0.059 7.21 11.7 7.57
8/5/2022 8:45:00 PM 23.7 74.66 0.059 7.19 8.98 7.57
8/5/2022 9:00:00 PM 23.57 74.426 0.06 7.19 6.84 7.59
8/5/2022 9:15:00 PM 23.43 74.174 0.057 7.18 6.72 7.6
8/5/2022 9:30:00 PM 23.3 73.94 0.06 7.17 5.28 7.62
8/5/2022 9:45:00 PM 23.17 73.706 0.059 7.17 5.07 7.64
8/5/2022 10:00:00 PM 23.04 73.472 0.058 7.17 4.94 7.66
8/5/2022 10:15:00 PM 22.89 73.202 0.057 7.16 5.19 7.69
8/5/2022 10:30:00 PM 22.75 72.95 0.058 7.15 4.86 7.7
8/5/2022 10:45:00 PM 22.62 72.716 0.058 7.14 4.44 7.72
8/5/2022 11:00:00 PM 22.49 72.482 0.058 7.14 4.61 7.74
8/5/2022 11:15:00 PM 22.38 72.284 0.059 7.13 4.7 7.75
8/5/2022 11:30:00 PM 22.28 72.104 0.059 7.13 4.73 7.77
8/5/2022 11:45:00 PM 22.18 71.924 0.059 7.13 4.62 7.8
8/6/2022 12:00:00 AM 22.09 71.762 0.059 7.11 4.67 7.81
8/6/2022 12:15:00 AM 21.98 71.564 0.059 7.1 4.68 7.81
8/6/2022 12:30:00 AM 21.89 71.402 0.06 7.11 4.66 7.83
8/6/2022 12:45:00 AM 21.82 71.276 0.06 7.11 4.49 7.86
8/6/2022 1:00:00 AM 21.75 71.15 0.06 7.1 4.27 7.88
8/6/2022 1:15:00 AM 21.69 71.042 0.06 7.1 4.41 7.9
8/6/2022 1:30:00 AM 21.64 70.952 0.061 7.12 4.19 7.92
8/6/2022 1:45:00 AM 21.58 70.844 0.061 7.13 4 7.94
8/6/2022 2:00:00 AM 21.54 70.772 0.061 7.14 3.99 7.95
8/6/2022 2:15:00 AM 21.5 70.7 0.062 7.12 3.78 7.97
8/6/2022 2:30:00 AM 21.46 70.628 0.062 7.13 3.8 7.98
8/6/2022 2:45:00 AM 21.43 70.574 0.062 7.12 3.72 7.99
8/6/2022 3:00:00 AM 21.4 70.52 0.063 7.13 3.49 7.99
8/6/2022 3:15:00 AM 21.38 70.484 0.063 7.15 3.48 8
8/6/2022 3:30:00 AM 21.35 70.43 0.063 7.14 3.47 8.02
8/6/2022 3:45:00 AM 21.33 70.394 0.064 7.16 3.53 8.03
8/6/2022 4:00:00 AM 21.31 70.358 0.065 7.16 3.42 8.05
8/6/2022 4:15:00 AM 21.28 70.304 0.065 7.18 3.48 8.05
8/6/2022 4:30:00 AM 21.25 70.25 0.065 7.16 3.4 8.06
8/6/2022 4:45:00 AM 21.21 70.17799 0.066 7.18 3.33 8.06
8/6/2022 5:00:00 AM 21.19 70.142 0.066 7.16 3.33 8.06
8/6/2022 5:15:00 AM 21.16 70.088 0.066 7.17 3.29 8.06
8/6/2022 5:30:00 AM 21.13 70.034 0.066 7.16 3.34 8.07
8/6/2022 5:45:00 AM 21.1 69.98 0.066 7.17 3.37 8.07
8/6/2022 6:00:00 AM 21.08 69.944 0.066 7.18 3.37 8.07
8/6/2022 6:15:00 AM 21.05 69.89 0.066 7.17 3.28 8.08
8/6/2022 6:30:00 AM 21.03 69.854 0.066 7.18 3.17 8.08
8/6/2022 6:45:00 AM 21.01 69.818 0.066 7.19 3.13 8.1
8/6/2022 7:00:00 AM 21 69.8 0.066 7.2 3.12 8.14
8/6/2022 7:15:00 AM 21 69.8 0.066 7.2 5.77 8.16
8/6/2022 7:30:00 AM 21 69.8 0.065 7.22 3.23 8.21
8/6/2022 7:45:00 AM 21 69.8 0.065 7.22 3.12 8.26
8/6/2022 8:00:00 AM 21.02 69.836 0.065 7.24 2.97 8.32
8/6/2022 8:15:00 AM 21.06 69.908 0.065 7.25 2.92 8.37
8/6/2022 8:30:00 AM 21.08 69.944 0.065 7.25 2.87 8.38
8/6/2022 8:45:00 AM 21.11 69.998 0.065 7.25 2.85 8.41
8/6/2022 9:00:00 AM 21.19 70.142 0.065 7.29 2.85 8.45
8/6/2022 9:15:00 AM 21.23 70.214 0.065 7.29 2.8 8.44
8/6/2022 9:30:00 AM 21.28 70.304 0.065 7.28 2.96 8.42
8/6/2022 9:45:00 AM 21.34 70.412 0.065 7.28 2.73 8.41
8/6/2022 10:00:00 AM 21.42 70.556 0.065 7.28 2.7 8.39
8/6/2022 10:15:00 AM 21.51 70.718 0.065 7.29 2.67 8.39
8/6/2022 10:30:00 AM 21.61 70.898 0.065 7.3 2.64 8.4
8/6/2022 10:45:00 AM 21.75 71.15 0.065 7.31 2.59 8.4
8/6/2022 11:00:00 AM 21.85 71.33 0.064 7.3 25.51 8.38
8/6/2022 11:15:00 AM 21.99 71.582 0.064 7.31 2.5 8.38
8/6/2022 11:30:00 AM 22.21 71.978 0.064 7.32 2.47 8.4
8/6/2022 11:45:00 AM 22.45 72.41 0.064 7.35 2.48 8.47
8/6/2022 12:00:00 PM 22.65 72.77 0.064 7.37 2.48 8.49
8/6/2022 12:15:00 PM 22.8 73.04 0.064 7.35 2.45 8.42
8/6/2022 12:30:00 PM 22.95 73.31 0.064 7.34 2.37 8.38
8/6/2022 12:45:00 PM 23.24 73.832 0.063 7.36 2.4 8.38
8/6/2022 1:00:00 PM 23.62 74.516 0.063 7.38 2.43 8.4
8/6/2022 1:15:00 PM 23.94 75.092 0.063 7.39 2.42 8.36
8/6/2022 1:30:00 PM 24.18 75.524 0.063 7.41 2.49 8.31
8/6/2022 1:45:00 PM 24.27 75.686 0.063 7.41 2.41 8.28
8/6/2022 2:00:00 PM 24.43 75.974 0.063 7.44 2.37 8.3
8/6/2022 2:15:00 PM 24.57 76.226 0.063 7.44 2.37 8.29
8/6/2022 2:30:00 PM 24.76 76.568 0.063 7.46 2.34 8.27
8/6/2022 2:45:00 PM 24.89 76.802 0.063 7.45 2.33 8.21
8/6/2022 3:00:00 PM 25 77 0.063 7.43 2.31 8.14
8/6/2022 3:15:00 PM 25.13 77.234 0.063 7.42 2.35 8.1
8/6/2022 3:30:00 PM 25.3 77.54 0.063 7.41 2.33 8.06
8/6/2022 3:45:00 PM 25.47 77.846 0.063 7.43 2.25 8.01
8/6/2022 4:00:00 PM 25.52 77.936 0.063 7.43 2.24 8
8/6/2022 4:15:00 PM 25.63 78.134 0.063 7.42 2.3 8
8/6/2022 4:30:00 PM 25.67 78.206 0.063 7.4 2.25 7.91
8/6/2022 4:45:00 PM 25.7 78.26 0.063 7.41 2.22 7.92
8/6/2022 5:00:00 PM 25.77 78.386 0.063 7.4 2.24 7.89
8/6/2022 5:15:00 PM 25.74 78.332 0.064 7.39 2.25 7.85
8/6/2022 5:30:00 PM 25.68 78.224 0.064 7.38 2.23 7.79
8/6/2022 5:45:00 PM 25.71 78.278 0.064 7.39 2.3 7.77
8/6/2022 6:00:00 PM 25.68 78.224 0.064 7.37 2.95 7.71
8/6/2022 6:15:00 PM 25.6 78.08 0.064 7.33 2.32 7.64
8/6/2022 6:30:00 PM 25.56 78.008 0.064 7.31 2.3 7.6
8/6/2022 6:45:00 PM 25.46 77.828 0.064 7.3 2.45 7.52
8/6/2022 7:00:00 PM 25.4 77.72 0.065 7.29 2.35 7.52
8/6/2022 7:15:00 PM 25.31 77.558 0.065 7.26 2.27 7.49
8/6/2022 7:30:00 PM 25.24 77.432 0.065 7.26 2.27 7.47
8/6/2022 7:45:00 PM 25.14 77.252 0.065 7.23 2.32 7.42
8/6/2022 8:00:00 PM 25.08 77.144 0.065 7.22 2.39 7.38
8/6/2022 8:15:00 PM 25 77 0.066 7.21 2.39 7.36
8/6/2022 8:30:00 PM 24.9 76.82 0.066 7.19 2.36 7.33
8/6/2022 8:45:00 PM 24.81 76.658 0.066 7.19 2.49 7.3
8/6/2022 9:00:00 PM 24.73 76.514 0.066 7.18 2.56 7.29
8/6/2022 9:15:00 PM 24.67 76.406 0.067 7.18 2.52 7.3
8/6/2022 9:30:00 PM 24.6 76.28 0.067 7.16 2.63 7.31
8/6/2022 9:45:00 PM 24.51 76.118 0.067 7.19 2.57 7.33
8/6/2022 10:00:00 PM 24.41 75.938 0.065 7.19 2.55 7.34
8/6/2022 10:15:00 PM 24.32 75.776 0.067 7.18 2.48 7.35
8/6/2022 10:30:00 PM 24.21 75.578 0.068 7.17 2.42 7.36
8/6/2022 10:45:00 PM 24.11 75.398 0.068 7.14 2.42 7.36
8/6/2022 11:00:00 PM 24.01 75.218 0.068 7.14 2.39 7.38
8/6/2022 11:15:00 PM 23.92 75.056 0.068 7.14 2.45 7.38
8/6/2022 11:30:00 PM 23.83 74.894 0.067 7.14 2.46 7.4
8/6/2022 11:45:00 PM 23.73 74.714 0.068 7.14 2.52 7.41
8/7/2022 12:00:00 AM 23.64 74.552 0.068 7.13 3.15 7.42
8/7/2022 12:15:00 AM 23.56 74.408 0.069 7.14 2.64 7.44
8/7/2022 12:30:00 AM 23.49 74.282 0.069 7.15 2.4 7.46
8/7/2022 12:45:00 AM 23.42 74.156 0.069 7.15 2.37 7.48
8/7/2022 1:00:00 AM 23.33 73.994 0.069 7.14 2.39 7.48
8/7/2022 1:15:00 AM 23.26 73.868 0.069 7.15 2.38 7.5
8/7/2022 1:30:00 AM 23.19 73.742 0.069 7.15 2.44 7.51
8/7/2022 1:45:00 AM 23.11 73.598 0.069 7.14 2.36 7.53
8/7/2022 2:00:00 AM 23.04 73.472 0.069 7.15 2.45 7.54
8/7/2022 2:15:00 AM 22.97 73.346 0.069 7.14 2.41 7.54
8/7/2022 2:30:00 AM 22.9 73.22 0.069 7.13 2.43 7.53
8/7/2022 2:45:00 AM 22.84 73.112 0.069 7.14 2.63 7.55
8/7/2022 3:00:00 AM 22.78 73.004 0.069 7.13 3.03 7.56
8/7/2022 3:15:00 AM 22.72 72.896 0.069 7.14 2.44 7.58
8/7/2022 3:30:00 AM 22.65 72.77 0.069 7.15 2.37 7.59
8/7/2022 3:45:00 AM 22.59 72.662 0.069 7.13 2.46 7.6
8/7/2022 4:00:00 AM 22.53 72.554 0.069 7.12 3.96 7.62
8/7/2022 4:15:00 AM 22.47 72.446 0.069 7.14 2.42 7.61
8/7/2022 4:30:00 AM 22.41 72.338 0.069 7.14 2.41 7.61
8/7/2022 4:45:00 AM 22.36 72.248 0.069 7.13 2.36 7.65
8/7/2022 5:00:00 AM 22.31 72.158 0.069 7.12 2.33 7.65
8/7/2022 5:15:00 AM 22.27 72.086 0.069 7.11 3.05 7.66
8/7/2022 5:30:00 AM 22.22 71.996 0.069 7.12 2.47 7.66
8/7/2022 5:45:00 AM 22.17 71.906 0.069 7.12 2.51 7.68
8/7/2022 6:00:00 AM 22.13 71.834 0.069 7.12 2.49 7.68
8/7/2022 6:15:00 AM 22.08 71.744 0.069 7.1 2.5 7.7
8/7/2022 6:30:00 AM 22.05 71.69 0.069 7.1 2.46 7.7
8/7/2022 6:45:00 AM 22.01 71.618 0.069 7.12 2.47 7.72
8/7/2022 7:00:00 AM 21.99 71.582 0.069 7.1 2.48 7.75
8/7/2022 7:15:00 AM 21.97 71.546 0.069 7.12 2.44 7.78
8/7/2022 7:30:00 AM 21.95 71.51 0.069 7.12 2.4 7.81
8/7/2022 7:45:00 AM 21.93 71.474 0.069 7.13 2.35 7.87
8/7/2022 8:00:00 AM 21.94 71.492 0.068 7.14 2.45 7.95
8/7/2022 8:15:00 AM 21.95 71.51 0.068 7.15 2.43 7.98
8/7/2022 8:30:00 AM 21.96 71.528 0.068 7.16 2.37 8.04
8/7/2022 8:45:00 AM 21.99 71.582 0.068 7.16 2.38 8.07
8/7/2022 9:00:00 AM 22.02 71.636 0.068 7.16 2.34 8.08
8/7/2022 9:15:00 AM 22.03 71.654 0.068 7.19 2.33 8.1
8/7/2022 9:30:00 AM 22.07 71.726 0.067 7.2 2.31 8.15
8/7/2022 9:45:00 AM 22.17 71.906 0.067 7.22 2.33 8.24
8/7/2022 10:00:00 AM 22.34 72.212 0.067 7.24 2.35 8.29
8/7/2022 10:15:00 AM 22.35 72.23 0.067 7.25 2.42 8.29
8/7/2022 10:30:00 AM 22.47 72.446 0.066 7.28 2.35 8.36
8/7/2022 10:45:00 AM 22.65 72.77 0.066 7.28 2.32 8.37
8/7/2022 11:00:00 AM 22.82 73.076 0.066 7.31 3.02 8.38
8/7/2022 11:15:00 AM 22.95 73.31 0.066 7.33 3.83 8.37
8/7/2022 11:30:00 AM 23.08 73.544 0.066 7.34 2.28 8.39
8/7/2022 11:45:00 AM 23.23 73.814 0.065 7.36 2.35 8.4
8/7/2022 12:00:00 PM 23.35 74.03 0.065 7.36 2.3 8.35
8/7/2022 12:15:00 PM 23.46 74.228 0.065 7.36 2.25 8.29
8/7/2022 12:30:00 PM 23.71 74.67799 0.065 7.38 2.33 8.27
8/7/2022 12:45:00 PM 24.06 75.308 0.065 7.38 2.4 8.27
8/7/2022 1:00:00 PM 24.46 76.028 0.064 7.4 2.37 8.23
8/7/2022 1:15:00 PM 24.74 76.532 0.064 7.4 2.33 8.16
8/7/2022 1:30:00 PM 24.88 76.784 0.064 7.38 2.34 8.1
8/7/2022 1:45:00 PM 25.03 77.054 0.064 7.4 2.3 8.12
8/7/2022 2:00:00 PM 25.18 77.324 0.064 7.41 2.31 8.14
8/7/2022 2:15:00 PM 25.45 77.81 0.064 7.41 2.35 8.11
8/7/2022 2:30:00 PM 25.75 78.35 0.064 7.4 2.31 8.01
8/7/2022 2:45:00 PM 25.98 78.764 0.064 7.39 2.26 7.92
8/7/2022 3:00:00 PM 26.24 79.232 0.064 7.37 2.29 7.9
8/7/2022 3:15:00 PM 26.51 79.718 0.064 7.38 2.29 7.86
8/7/2022 3:30:00 PM 26.78 80.204 0.064 7.41 2.28 7.88
8/7/2022 3:45:00 PM 26.93 80.474 0.064 7.41 2.44 7.84
8/7/2022 4:00:00 PM 26.93 80.474 0.064 7.39 2.23 7.7
8/7/2022 4:15:00 PM 27.03 80.654 0.064 7.4 2.18 7.71
8/7/2022 4:30:00 PM 27.14 80.852 0.064 7.4 2.28 7.72
8/7/2022 4:45:00 PM 27.1 80.78 0.064 7.4 2.23 7.68
8/7/2022 5:00:00 PM 27.12 80.816 0.064 7.39 2.18 7.65
8/7/2022 5:15:00 PM 27.14 80.852 0.064 7.39 2.19 7.63
8/7/2022 5:30:00 PM 27.11 80.798 0.064 7.38 2.22 7.58
8/7/2022 5:45:00 PM 27.02 80.636 0.064 7.37 2.16 7.54
8/7/2022 6:00:00 PM 26.91 80.438 0.064 7.35 2.17 7.47
8/7/2022 6:15:00 PM 26.83 80.294 0.065 7.32 2.22 7.42
8/7/2022 6:30:00 PM 26.76 80.168 0.065 7.3 2.21 7.37
8/7/2022 6:45:00 PM 26.71 80.078 0.065 7.28 2.26 7.34
8/7/2022 7:00:00 PM 26.67 80.006 0.065 7.27 2.26 7.32
8/7/2022 7:15:00 PM 26.63 79.934 0.065 7.25 2.29 7.31
8/7/2022 7:30:00 PM 26.57 79.826 0.065 7.24 2.22 7.27
8/7/2022 7:45:00 PM 26.51 79.718 0.066 7.23 2.32 7.23
8/7/2022 8:00:00 PM 26.44 79.592 0.066 7.22 2.28 7.19
8/7/2022 8:15:00 PM 26.35 79.43 0.066 7.21 2.29 7.14
8/7/2022 8:30:00 PM 26.24 79.232 0.067 7.2 2.48 7.09
8/7/2022 8:45:00 PM 26.11 78.998 0.067 7.19 2.42 7.06
8/7/2022 9:00:00 PM 25.99 78.782 0.067 7.18 2.41 7.05
8/7/2022 9:15:00 PM 25.86 78.548 0.068 7.17 2.5 7.03
8/7/2022 9:30:00 PM 25.73 78.314 0.068 7.17 2.48 7.05
8/7/2022 9:45:00 PM 25.61 78.098 0.068 7.16 2.44 7.06
8/7/2022 10:00:00 PM 25.49 77.882 0.068 7.16 2.43 7.07
8/7/2022 10:15:00 PM 25.38 77.684 0.069 7.15 2.6 7.08
8/7/2022 10:30:00 PM 25.26 77.468 0.069 7.15 2.41 7.1
8/7/2022 10:45:00 PM 25.15 77.27 0.069 7.15 2.42 7.12
8/7/2022 11:00:00 PM 25.03 77.054 0.069 7.15 2.47 7.13
8/7/2022 11:15:00 PM 24.91 76.838 0.069 7.15 2.4 7.15
8/7/2022 11:30:00 PM 24.79 76.622 0.069 7.15 2.47 7.17
8/7/2022 11:45:00 PM 24.68 76.424 0.07 7.15 2.38 7.19
8/8/2022 12:00:00 AM 24.56 76.208 0.07 7.15 2.38 7.21
8/8/2022 12:15:00 AM 24.44 75.992 0.07 7.15 2.39 7.23
8/8/2022 12:30:00 AM 24.3 75.74 0.07 7.14 2.41 7.24
8/8/2022 12:45:00 AM 24.19 75.542 0.07 7.14 2.36 7.26
8/8/2022 1:00:00 AM 24.07 75.326 0.07 7.14 2.55 7.28
8/8/2022 1:15:00 AM 23.96 75.128 0.071 7.14 2.42 7.3
8/8/2022 1:30:00 AM 23.85 74.93 0.071 7.14 2.49 7.33
8/8/2022 1:45:00 AM 23.75 74.75 0.071 7.15 2.5 7.36
8/8/2022 2:00:00 AM 23.64 74.552 0.071 7.13 2.45 7.37
8/8/2022 2:15:00 AM 23.53 74.354 0.071 7.13 2.43 7.38
8/8/2022 2:30:00 AM 23.43 74.174 0.071 7.12 2.39 7.39
8/8/2022 2:45:00 AM 23.33 73.994 0.071 7.11 2.48 7.41
8/8/2022 3:00:00 AM 23.23 73.814 0.071 7.13 2.45 7.43
8/8/2022 3:15:00 AM 23.14 73.652 0.071 7.11 2.42 7.44
8/8/2022 3:30:00 AM 23.05 73.49 0.071 7.1 2.38 7.45
8/8/2022 3:45:00 AM 22.95 73.31 0.071 7.1 2.38 7.47
8/8/2022 4:00:00 AM 22.87 73.166 0.071 7.1 2.42 7.48
8/8/2022 4:15:00 AM 22.79 73.022 0.071 7.11 2.45 7.49
8/8/2022 4:30:00 AM 22.7 72.86 0.071 7.1 2.41 7.51
8/8/2022 4:45:00 AM 22.62 72.716 0.071 7.1 2.43 7.52
8/8/2022 5:00:00 AM 22.55 72.59 0.071 7.1 2.44 7.54
8/8/2022 5:15:00 AM 22.47 72.446 0.071 7.11 2.47 7.56
8/8/2022 5:30:00 AM 22.39 72.302 0.071 7.08 2.71 7.57
8/8/2022 5:45:00 AM 22.33 72.194 0.071 7.09 2.46 7.57
8/8/2022 6:00:00 AM 22.27 72.086 0.071 7.09 2.41 7.58
8/8/2022 6:15:00 AM 22.22 71.996 0.071 7.11 2.53 7.6
8/8/2022 6:30:00 AM 22.19 71.942 0.07 7.09 2.52 7.61
8/8/2022 6:45:00 AM 22.15 71.87 0.07 7.11 2.49 7.63
8/8/2022 7:00:00 AM 22.14 71.852 0.07 7.12 2.47 7.66
8/8/2022 7:15:00 AM 22.11 71.798 0.07 7.12 2.37 7.69
8/8/2022 7:30:00 AM 22.09 71.762 0.07 7.13 2.36 7.73
8/8/2022 7:45:00 AM 22.08 71.744 0.07 7.12 2.41 7.76
8/8/2022 8:00:00 AM 22.07 71.726 0.07 7.12 2.42 7.78
8/8/2022 8:15:00 AM 22.06 71.708 0.07 7.13 2.38 7.8
8/8/2022 8:30:00 AM 22.05 71.69 0.07 7.12 2.36 7.81
8/8/2022 8:45:00 AM 22.05 71.69 0.069 7.12 2.35 7.85
8/8/2022 9:00:00 AM 22.07 71.726 0.069 7.13 2.34 7.88
8/8/2022 9:15:00 AM 22.1 71.78 0.069 7.14 2.31 7.92
8/8/2022 9:30:00 AM 22.12 71.816 0.069 7.15 2.35 7.94
8/8/2022 9:45:00 AM 22.16 71.888 0.069 7.17 2.33 7.98
8/8/2022 10:00:00 AM 22.22 71.996 0.069 7.17 2.3 8.04
8/8/2022 10:15:00 AM 22.29 72.122 0.068 7.21 2.35 8.09
8/8/2022 10:30:00 AM 22.39 72.302 0.068 7.22 2.48 8.15
8/8/2022 10:45:00 AM 22.5 72.5 0.068 7.23 2.29 8.2
8/8/2022 11:00:00 AM 22.63 72.734 0.067 7.25 2.3 8.23
8/8/2022 11:15:00 AM 22.77 72.986 0.067 7.26 2.29 8.23
8/8/2022 11:30:00 AM 22.96 73.328 0.067 7.28 2.32 8.27
8/8/2022 11:45:00 AM 23.15 73.67 0.067 7.31 2.32 8.27
8/8/2022 12:00:00 PM 23.32 73.976 0.067 7.32 2.3 8.27
8/8/2022 12:15:00 PM 23.51 74.318 0.067 7.32 2.31 8.21
8/8/2022 12:30:00 PM 23.7 74.66 0.066 7.33 2.39 8.18
8/8/2022 12:45:00 PM 23.94 75.092 0.066 7.35 2.3 8.24
8/8/2022 1:00:00 PM 24.24 75.632 0.066 7.38 2.31 8.26
8/8/2022 1:15:00 PM 24.38 75.884 0.066 7.37 2.34 8.2
8/8/2022 1:30:00 PM 24.41 75.938 0.065 7.35 2.28 8.15
8/8/2022 1:45:00 PM 24.4 75.92 0.065 7.35 2.33 8.15
8/8/2022 2:00:00 PM 24.38 75.884 0.065 7.3 3.01 8.11
8/8/2022 2:15:00 PM 24.4 75.92 0.065 7.29 2.73 8.06
8/8/2022 2:30:00 PM 24.46 76.028 0.065 7.33 2.36 8.04
8/8/2022 2:45:00 PM 24.46 76.028 0.065 7.33 2.33 7.97
8/8/2022 3:00:00 PM 24.42 75.956 0.065 7.31 2.27 7.9
8/8/2022 3:15:00 PM 24.38 75.884 0.065 7.3 2.58 7.79
8/8/2022 3:30:00 PM 24.41 75.938 0.064 7.31 2.39 7.84
8/8/2022 3:45:00 PM 24.49 76.082 0.064 7.31 2.34 7.91
8/8/2022 4:00:00 PM 24.58 76.244 0.064 7.32 2.33 7.98
8/8/2022 4:15:00 PM 24.72 76.496 0.064 7.34 2.28 8.01
8/8/2022 4:30:00 PM 24.88 76.784 0.064 7.36 2.42 8.03
8/8/2022 4:45:00 PM 24.98 76.964 0.064 7.35 2.33 7.99
8/8/2022 5:00:00 PM 25.09 77.162 0.064 7.36 2.36 7.97
8/8/2022 5:15:00 PM 25.28 77.504 0.064 7.35 2.32 7.92
8/8/2022 5:30:00 PM 25.38 77.684 0.064 7.37 2.26 7.91
8/8/2022 5:45:00 PM 25.33 77.594 0.064 7.35 2.36 7.82
8/8/2022 6:00:00 PM 25.25 77.45 0.064 7.32 2.37 7.75
8/8/2022 6:15:00 PM 25.21 77.378 0.064 7.33 2.31 7.73
8/8/2022 6:30:00 PM 25.14 77.252 0.065 7.3 2.25 7.64
8/8/2022 6:45:00 PM 25.07 77.126 0.065 7.28 2.29 7.56
8/8/2022 7:00:00 PM 25.01 77.018 0.065 7.28 2.29 7.53
8/8/2022 7:15:00 PM 24.95 76.91 0.065 7.28 2.35 7.52
8/8/2022 7:30:00 PM 24.86 76.748 0.066 7.25 2.29 7.47
8/8/2022 7:45:00 PM 24.79 76.622 0.066 7.24 2.37 7.42
8/8/2022 8:00:00 PM 24.72 76.496 0.066 7.22 2.41 7.37
8/8/2022 8:15:00 PM 24.66 76.388 0.066 7.21 2.28 7.32
8/8/2022 8:30:00 PM 24.61 76.298 0.067 7.2 2.44 7.27
8/8/2022 8:45:00 PM 24.54 76.172 0.067 7.18 2.51 7.23
8/8/2022 9:00:00 PM 24.47 76.046 0.067 7.16 2.54 7.2
8/8/2022 9:15:00 PM 24.42 75.956 0.067 7.16 2.43 7.18
8/8/2022 9:30:00 PM 24.37 75.866 0.067 7.15 2.47 7.17
8/8/2022 9:45:00 PM 24.33 75.794 0.068 7.15 2.61 7.17
8/8/2022 10:00:00 PM 24.27 75.686 0.068 7.14 2.57 7.17
8/8/2022 10:15:00 PM 24.21 75.578 0.068 7.14 2.44 7.16
8/8/2022 10:30:00 PM 24.15 75.47 0.068 7.13 2.48 7.18
8/8/2022 10:45:00 PM 24.08 75.344 0.068 7.12 2.53 7.18
8/8/2022 11:00:00 PM 24.01 75.218 0.068 7.13 2.45 7.2
8/8/2022 11:15:00 PM 23.93 75.074 0.069 7.13 2.66 7.2
8/8/2022 11:30:00 PM 23.86 74.948 0.069 7.13 2.59 7.22
8/8/2022 11:45:00 PM 23.78 74.804 0.069 7.13 2.65 7.24
8/9/2022 12:00:00 AM 23.7 74.66 0.069 7.12 2.47 7.25
8/9/2022 12:15:00 AM 23.64 74.552 0.069 7.13 2.44 7.28
8/9/2022 12:30:00 AM 23.57 74.426 0.07 7.14 2.52 7.3
8/9/2022 12:45:00 AM 23.5 74.3 0.07 7.13 2.56 7.31
8/9/2022 1:00:00 AM 23.44 74.192 0.07 7.14 2.49 7.32
8/9/2022 1:15:00 AM 23.39 74.102 0.07 7.13 2.58 7.33
8/9/2022 1:30:00 AM 23.34 74.012 0.07 7.13 2.43 7.34
8/9/2022 1:45:00 AM 23.3 73.94 0.071 7.14 2.45 7.35
8/9/2022 2:00:00 AM 23.24 73.832 0.071 7.13 2.42 7.36
8/9/2022 2:15:00 AM 23.19 73.742 0.071 7.13 2.5 7.38
8/9/2022 2:30:00 AM 23.14 73.652 0.071 7.13 2.48 7.38
8/9/2022 2:45:00 AM 23.09 73.562 0.071 7.13 2.48 7.38
8/9/2022 3:00:00 AM 23.04 73.472 0.071 7.13 2.39 7.4
8/9/2022 3:15:00 AM 23 73.4 0.071 7.13 2.44 7.41
8/9/2022 3:30:00 AM 22.96 73.328 0.071 7.13 2.48 7.42
8/9/2022 3:45:00 AM 22.91 73.238 0.071 7.13 2.46 7.42
8/9/2022 4:00:00 AM 22.87 73.166 0.071 7.13 2.36 7.44
8/9/2022 4:15:00 AM 22.83 73.094 0.071 7.13 2.41 7.45
8/9/2022 4:30:00 AM 22.8 73.04 0.071 7.13 2.37 7.47
8/9/2022 4:45:00 AM 22.77 72.986 0.071 7.13 2.49 7.46
8/9/2022 5:00:00 AM 22.74 72.932 0.071 7.13 2.47 7.46
8/9/2022 5:15:00 AM 22.7 72.86 0.071 7.12 2.47 7.46
8/9/2022 5:30:00 AM 22.68 72.824 0.071 7.12 2.45 7.46
8/9/2022 5:45:00 AM 22.64 72.752 0.071 7.12 2.45 7.45
8/9/2022 6:00:00 AM 22.62 72.716 0.071 7.11 2.46 7.45
8/9/2022 6:15:00 AM 22.59 72.662 0.071 7.11 2.51 7.45
8/9/2022 6:30:00 AM 22.57 72.626 0.071 7.1 2.45 7.47
8/9/2022 6:45:00 AM 22.55 72.59 0.071 7.11 2.39 7.47
8/9/2022 7:00:00 AM 22.54 72.57201 0.071 7.11 2.45 7.5
8/9/2022 7:15:00 AM 22.53 72.554 0.071 7.12 2.42 7.53
8/9/2022 7:30:00 AM 22.52 72.536 0.071 7.12 2.44 7.55
8/9/2022 7:45:00 AM 22.51 72.518 0.071 7.13 2.4 7.56
8/9/2022 8:00:00 AM 22.51 72.518 0.071 7.13 2.36 7.6
8/9/2022 8:15:00 AM 22.52 72.536 0.071 7.16 2.34 7.67
8/9/2022 8:30:00 AM 22.55 72.59 0.07 7.16 2.35 7.75
8/9/2022 8:45:00 AM 22.57 72.626 0.07 7.17 2.35 7.8
8/9/2022 9:00:00 AM 22.6 72.68 0.07 7.19 2.38 7.86
8/9/2022 9:15:00 AM 22.6 72.68 0.07 7.19 2.37 7.84
8/9/2022 9:30:00 AM 22.6 72.68 0.07 7.2 2.34 7.87
8/9/2022 9:45:00 AM 22.6 72.68 0.07 7.23 2.35 7.9
8/9/2022 10:00:00 AM 22.58 72.644 0.07 7.23 2.31 7.91
8/9/2022 10:15:00 AM 22.54 72.57201 0.07 7.22 2.43 7.88
8/9/2022 10:30:00 AM 22.48 72.464 0.069 7.2 2.35 7.86
8/9/2022 10:45:00 AM 22.47 72.446 0.069 7.21 2.32 7.93
8/9/2022 11:00:00 AM 22.48 72.464 0.069 7.21 2.28 8.02
8/9/2022 11:15:00 AM 22.55 72.59 0.068 7.24 2.3 8.14
8/9/2022 11:30:00 AM 22.65 72.77 0.068 7.27 2.29 8.25
8/9/2022 11:45:00 AM 22.75 72.95 0.068 7.31 2.4 8.3
8/9/2022 12:00:00 PM 22.87 73.166 0.068 7.31 2.33 8.33
8/9/2022 12:15:00 PM 22.98 73.364 0.067 7.31 2.33 8.33
8/9/2022 12:30:00 PM 23.05 73.49 0.067 7.32 2.3 8.3
8/9/2022 12:45:00 PM 23.12 73.616 0.067 7.32 2.28 8.3
8/9/2022 1:00:00 PM 23.23 73.814 0.067 7.32 2.26 8.32
8/9/2022 1:15:00 PM 23.38 74.084 0.066 7.35 2.33 8.37
8/9/2022 1:30:00 PM 23.56 74.408 0.066 7.38 2.33 8.4
8/9/2022 1:45:00 PM 23.72 74.696 0.066 7.4 2.29 8.4
8/9/2022 2:00:00 PM 23.88 74.984 0.066 7.42 2.33 8.38
8/9/2022 2:15:00 PM 24.07 75.326 0.066 7.43 2.29 8.36
8/9/2022 2:30:00 PM 24.19 75.542 0.065 7.44 2.29 8.34
8/9/2022 2:45:00 PM 24.35 75.83 0.065 7.44 2.28 8.28
8/9/2022 3:00:00 PM 24.48 76.064 0.065 7.45 2.28 8.28
8/9/2022 3:15:00 PM 24.65 76.37 0.065 7.44 2.32 8.24
8/9/2022 3:30:00 PM 24.88 76.784 0.065 7.44 2.29 8.17
8/9/2022 3:45:00 PM 25.03 77.054 0.065 7.44 2.26 8.12
8/9/2022 4:00:00 PM 25.2 77.36 0.064 7.45 2.28 8.09
8/9/2022 4:15:00 PM 25.29 77.522 0.064 7.44 2.3 8.02
8/9/2022 4:30:00 PM 25.35 77.63 0.064 7.42 2.25 7.94
8/9/2022 4:45:00 PM 25.35 77.63 0.065 7.41 2.38 7.88
8/9/2022 5:00:00 PM 25.23 77.414 0.065 7.39 2.23 7.83
8/9/2022 5:15:00 PM 25.27 77.486 0.065 7.38 2.22 7.83
8/9/2022 5:30:00 PM 25.25 77.45 0.065 7.38 2.23 7.81
8/9/2022 5:45:00 PM 25.15 77.27 0.065 7.36 2.27 7.76
8/9/2022 6:00:00 PM 25.04 77.07201 0.065 7.34 2.28 7.71
8/9/2022 6:15:00 PM 24.97 76.946 0.065 7.33 2.23 7.69
8/9/2022 6:30:00 PM 24.93 76.874 0.065 7.31 2.25 7.69
8/9/2022 6:45:00 PM 24.87 76.766 0.065 7.29 2.29 7.6
8/9/2022 7:00:00 PM 24.8 76.64 0.065 7.27 2.36 7.53
8/9/2022 7:15:00 PM 24.72 76.496 0.065 7.25 2.3 7.48
8/9/2022 7:30:00 PM 24.63 76.334 0.066 7.24 2.24 7.44
8/9/2022 7:45:00 PM 24.54 76.172 0.066 7.23 2.26 7.41
8/9/2022 8:00:00 PM 24.44 75.992 0.066 7.22 2.34 7.38
8/9/2022 8:15:00 PM 24.33 75.794 0.067 7.21 2.29 7.35
8/9/2022 8:30:00 PM 24.22 75.596 0.067 7.21 2.33 7.33
8/9/2022 8:45:00 PM 24.11 75.398 0.067 7.2 2.43 7.32
8/9/2022 9:00:00 PM 24.01 75.218 0.067 7.18 2.35 7.29
8/9/2022 9:15:00 PM 23.91 75.038 0.068 7.18 2.4 7.29
8/9/2022 9:30:00 PM 23.82 74.876 0.068 7.18 2.55 7.29
8/9/2022 9:45:00 PM 23.71 74.67799 0.068 7.17 2.35 7.29
8/9/2022 10:00:00 PM 23.59 74.462 0.068 7.16 2.37 7.31
8/9/2022 10:15:00 PM 23.49 74.282 0.068 7.16 2.16 7.33
8/9/2022 10:30:00 PM 23.37 74.066 0.069 7.16 2.32 7.33
8/9/2022 10:45:00 PM 23.27 73.886 0.069 7.16 2.3 7.36
8/9/2022 11:00:00 PM 23.15 73.67 0.069 7.17 2.29 7.38
8/9/2022 11:15:00 PM 23.03 73.454 0.069 7.15 2.36 7.39
8/9/2022 11:30:00 PM 22.91 73.238 0.069 7.14 2.46 7.41
8/9/2022 11:45:00 PM 22.8 73.04 0.07 7.14 2.28 7.44
8/10/2022 12:00:00 AM 22.69 72.842 0.07 7.14 2.48 7.45
8/10/2022 12:15:00 AM 22.59 72.662 0.07 7.14 2.28 7.47
8/10/2022 12:30:00 AM 22.48 72.464 0.07 7.12 2.26 7.48
8/10/2022 12:45:00 AM 22.37 72.266 0.07 7.13 2.28 7.52
8/10/2022 1:00:00 AM 22.26 72.068 0.071 7.12 2.25 7.53
8/10/2022 1:15:00 AM 22.15 71.87 0.071 7.14 2.23 7.56
8/10/2022 1:30:00 AM 22.04 71.672 0.071 7.13 2.27 7.59
8/10/2022 1:45:00 AM 21.94 71.492 0.071 7.12 2.26 7.61
8/10/2022 2:00:00 AM 21.82 71.276 0.071 7.14 2.26 7.63
8/10/2022 2:15:00 AM 21.72 71.096 0.071 7.12 2.25 7.65
8/10/2022 2:30:00 AM 21.62 70.916 0.071 7.12 2.2 7.67
8/10/2022 2:45:00 AM 21.53 70.754 0.071 7.12 2.19 7.7
8/10/2022 3:00:00 AM 21.44 70.592 0.071 7.14 2.27 7.7
8/10/2022 3:15:00 AM 21.35 70.43 0.071 7.13 2.8 7.71
8/10/2022 3:30:00 AM 21.27 70.286 0.071 7.12 2.22 7.74
8/10/2022 3:45:00 AM 21.19 70.142 0.071 7.11 2.18 7.75
8/10/2022 4:00:00 AM 21.11 69.998 0.071 7.13 2.33 7.77
8/10/2022 4:15:00 AM 21.04 69.872 0.071 7.12 2.35 7.76
8/10/2022 4:30:00 AM 20.95 69.71 0.071 7.13 2.21 7.79
8/10/2022 4:45:00 AM 20.87 69.566 0.071 7.14 2.22 7.8
8/10/2022 5:00:00 AM 20.79 69.422 0.071 7.14 2.25 7.82
8/10/2022 5:15:00 AM 20.7 69.26 0.071 7.11 2.25 7.84
8/10/2022 5:30:00 AM 20.6 69.08 0.071 7.11 2.32 7.86
8/10/2022 5:45:00 AM 20.49 68.882 0.071 7.13 2.3 7.88
8/10/2022 6:00:00 AM 20.39 68.702 0.071 7.12 2.26 7.9
8/10/2022 6:15:00 AM 20.28 68.504 0.071 7.14 2.31 7.91
8/10/2022 6:30:00 AM 20.19 68.342 0.071 7.11 2.27 7.93
8/10/2022 6:45:00 AM 20.11 68.198 0.071 7.11 2.22 7.97
8/10/2022 7:00:00 AM 20.05 68.09 0.071 7.14 2.22 8.01
8/10/2022 7:15:00 AM 20 68 0.071 7.14 2.32 8.06
8/10/2022 7:30:00 AM 19.96 67.92799 0.071 7.14 2.19 8.13
8/10/2022 7:45:00 AM 19.92 67.856 0.071 7.15 2.24 8.18
8/10/2022 8:00:00 AM 19.91 67.838 0.07 7.17 2.24 8.27
8/10/2022 8:15:00 AM 19.89 67.802 0.07 7.18 2.2 8.32
8/10/2022 8:30:00 AM 19.87 67.766 0.07 7.19 2.19 8.35
8/10/2022 8:45:00 AM 19.88 67.784 0.07 7.19 2.17 8.36
8/10/2022 9:00:00 AM 19.96 67.92799 0.069 7.2 2.16 8.42
8/10/2022 9:15:00 AM 20.02 68.036 0.069 7.21 4.04 8.48
8/10/2022 9:30:00 AM 20.06 68.108 0.069 7.22 2.3 8.54
8/10/2022 9:45:00 AM 20.09 68.162 0.069 7.22 2.18 8.58
8/10/2022 10:00:00 AM 20.14 68.252 0.068 7.22 2.24 8.57
8/10/2022 10:15:00 AM 20.22 68.396 0.068 7.23 2.15 8.6
8/10/2022 10:30:00 AM 20.38 68.684 0.068 7.25 2.25 8.62
8/10/2022 10:45:00 AM 20.43 68.774 0.068 7.28 2.17 8.66
8/10/2022 11:00:00 AM 20.53 68.954 0.068 7.31 2.16 8.72
8/10/2022 11:15:00 AM 20.58 69.044 0.068 7.32 2.23 8.71
8/10/2022 11:30:00 AM 20.64 69.152 0.067 7.34 2.12 8.75
8/10/2022 11:45:00 AM 20.75 69.35 0.067 7.34 2.19 8.75
8/10/2022 12:00:00 PM 20.86 69.548 0.067 7.34 2.19 8.77
8/10/2022 12:15:00 PM 20.95 69.71 0.066 7.34 2.17 8.72
8/10/2022 12:30:00 PM 21.15 70.07 0.066 7.35 2.25 8.75
8/10/2022 12:45:00 PM 21.37 70.466 0.066 7.36 2.21 8.69
8/10/2022 1:00:00 PM 21.64 70.952 0.066 7.4 2.13 8.66
8/10/2022 1:15:00 PM 21.86 71.348 0.066 7.36 2.21 8.53
8/10/2022 1:30:00 PM 22.1 71.78 0.066 7.37 2.14 8.48
8/10/2022 1:45:00 PM 22.39 72.302 0.066 7.4 2.25 8.5
8/10/2022 2:00:00 PM 22.61 72.698 0.065 7.4 2.29 8.52
8/10/2022 2:15:00 PM 22.8 73.04 0.065 7.37 4.92 8.48
8/10/2022 2:30:00 PM 22.99 73.382 0.065 7.4 2.44 8.47
8/10/2022 2:45:00 PM 23.15 73.67 0.065 7.4 5.44 8.45
8/10/2022 3:00:00 PM 23.32 73.976 0.065 7.41 2.32 8.41
8/10/2022 3:15:00 PM 23.42 74.156 0.065 7.4 2.27 8.34
8/10/2022 3:30:00 PM 23.67 74.606 0.065 7.38 2.26 8.25
8/10/2022 3:45:00 PM 23.97 75.146 0.065 7.39 2.31 8.18
8/10/2022 4:00:00 PM 24.18 75.524 0.065 7.38 2.19 8.12
8/10/2022 4:15:00 PM 24.23 75.614 0.065 7.38 2.24 8.03
8/10/2022 4:30:00 PM 24.37 75.866 0.065 7.38 2.15 8
8/10/2022 4:45:00 PM 24.51 76.118 0.065 7.38 2.19 8.03
8/10/2022 5:00:00 PM 24.52 76.136 0.065 7.37 2.12 8.01
8/10/2022 5:15:00 PM 24.49 76.082 0.065 7.38 2.13 8.01
8/10/2022 5:30:00 PM 24.45 76.01 0.065 7.36 2.11 7.97
8/10/2022 5:45:00 PM 24.42 75.956 0.065 7.35 2.11 7.96
8/10/2022 6:00:00 PM 24.43 75.974 0.065 7.34 2.17 7.91
8/10/2022 6:15:00 PM 24.43 75.974 0.065 7.34 2.16 7.86
8/10/2022 6:30:00 PM 24.39 75.902 0.065 7.33 2.14 7.81
8/10/2022 6:45:00 PM 24.31 75.758 0.065 7.31 2.23 7.72
8/10/2022 7:00:00 PM 24.22 75.596 0.065 7.29 2.13 7.64
8/10/2022 7:15:00 PM 24.14 75.452 0.065 7.27 2.17 7.59
8/10/2022 7:30:00 PM 24.06 75.308 0.066 7.25 2.15 7.54
8/10/2022 7:45:00 PM 23.94 75.092 0.066 7.23 3.3 7.48
8/10/2022 8:00:00 PM 23.82 74.876 0.066 7.23 2.24 7.45
8/10/2022 8:15:00 PM 23.68 74.624 0.067 7.21 2.15 7.41
8/10/2022 8:30:00 PM 23.55 74.39 0.067 7.2 2.16 7.38
8/10/2022 8:45:00 PM 23.45 74.21 0.067 7.19 2.21 7.36
8/10/2022 9:00:00 PM 23.33 73.994 0.067 7.18 2.38 7.34
8/10/2022 9:15:00 PM 23.22 73.796 0.068 7.17 2.24 7.33
8/10/2022 9:30:00 PM 23.11 73.598 0.068 7.16 2.22 7.32
8/10/2022 9:45:00 PM 23.01 73.418 0.068 7.15 2.28 7.32
8/10/2022 10:00:00 PM 22.91 73.238 0.068 7.14 2.21 7.33
8/10/2022 10:15:00 PM 22.8 73.04 0.068 7.14 2.45 7.33
8/10/2022 10:30:00 PM 22.7 72.86 0.068 7.13 2.33 7.33
8/10/2022 10:45:00 PM 22.59 72.662 0.069 7.13 2.31 7.33
8/10/2022 11:00:00 PM 22.47 72.446 0.069 7.12 2.24 7.35
8/10/2022 11:15:00 PM 22.35 72.23 0.069 7.12 2.2 7.38
8/10/2022 11:30:00 PM 22.24 72.032 0.069 7.12 2.32 7.39
8/10/2022 11:45:00 PM 22.12 71.816 0.069 7.11 2.34 7.4
8/11/2022 12:00:00 AM 21.99 71.582 0.069 7.12 2.32 7.44
8/11/2022 12:15:00 AM 21.88 71.384 0.07 7.12 2.31 7.45
8/11/2022 12:30:00 AM 21.74 71.132 0.07 7.11 2.19 7.47
8/11/2022 12:45:00 AM 21.63 70.934 0.07 7.11 2.27 7.49
8/11/2022 1:00:00 AM 21.5 70.7 0.07 7.11 2.34 7.53
8/11/2022 1:15:00 AM 21.38 70.484 0.07 7.11 2.26 7.54
8/11/2022 1:30:00 AM 21.25 70.25 0.071 7.11 2.2 7.58
8/11/2022 1:45:00 AM 21.12 70.016 0.071 7.11 2.34 7.61
8/11/2022 2:00:00 AM 20.99 69.782 0.071 7.09 2.28 7.61
8/11/2022 2:15:00 AM 20.86 69.548 0.071 7.08 2.19 7.64
8/11/2022 2:30:00 AM 20.72 69.296 0.071 7.08 2.25 7.67
8/11/2022 2:45:00 AM 20.58 69.044 0.071 7.07 2.21 7.67
8/11/2022 3:00:00 AM 20.45 68.81 0.071 7.1 2.21 7.7
8/11/2022 3:15:00 AM 20.33 68.594 0.071 7.08 2.29 7.73
8/11/2022 3:30:00 AM 20.2 68.36 0.071 7.09 2.3 7.74
8/11/2022 3:45:00 AM 20.08 68.144 0.071 7.09 2.23 7.75
8/11/2022 4:00:00 AM 19.95 67.91 0.071 7.06 2.16 7.78
8/11/2022 4:15:00 AM 19.85 67.73 0.071 7.08 2.23 7.8
8/11/2022 4:30:00 AM 19.75 67.55 0.072 7.06 2.22 7.83
8/11/2022 4:45:00 AM 19.67 67.406 0.072 7.09 2.5 7.83
8/11/2022 5:00:00 AM 19.59 67.262 0.071 7.07 2.2 7.85
8/11/2022 5:15:00 AM 19.53 67.154 0.071 7.08 2.2 7.87
8/11/2022 5:30:00 AM 19.45 67.01 0.072 7.11 2.15 7.9
8/11/2022 5:45:00 AM 19.37 66.866 0.071 7.08 2.15 7.89
8/11/2022 6:00:00 AM 19.28 66.704 0.071 7.08 2.31 7.92
8/11/2022 6:15:00 AM 19.21 66.578 0.071 7.08 2.23 7.95
8/11/2022 6:30:00 AM 19.13 66.434 0.071 7.09 2.19 7.99
8/11/2022 6:45:00 AM 19.06 66.308 0.072 7.1 2.23 8.03
8/11/2022 7:00:00 AM 18.98 66.164 0.071 7.11 2.25 8.06
8/11/2022 7:15:00 AM 18.91 66.038 0.071 7.13 2.26 8.14
8/11/2022 7:30:00 AM 18.83 65.894 0.071 7.14 2.17 8.16
8/11/2022 7:45:00 AM 18.77 65.786 0.071 7.15 2.27 8.25
8/11/2022 8:00:00 AM 18.75 65.75 0.071 7.14 2.26 8.3
8/11/2022 8:15:00 AM 18.72 65.696 0.071 7.16 2.33 8.35
8/11/2022 8:30:00 AM 18.74 65.732 0.071 7.18 2.3 8.46
8/11/2022 8:45:00 AM 18.79 65.82201 0.07 7.19 2.16 8.55
8/11/2022 9:00:00 AM 18.85 65.93 0.07 7.21 2.18 8.58
8/11/2022 9:15:00 AM 18.88 65.984 0.07 7.21 2.24 8.61
8/11/2022 9:30:00 AM 18.92 66.056 0.07 7.21 2.16 8.63
8/11/2022 9:45:00 AM 19.03 66.254 0.069 7.22 2.37 8.69
8/11/2022 10:00:00 AM 19.17 66.506 0.069 7.23 2.18 8.7
8/11/2022 10:15:00 AM 19.34 66.812 0.068 7.23 2.26 8.72
8/11/2022 10:30:00 AM 19.52 67.136 0.068 7.23 2.38 8.72
8/11/2022 10:45:00 AM 19.7 67.46 0.068 7.24 2.18 8.69
8/11/2022 11:00:00 AM 19.87 67.766 0.068 7.25 2.46 8.69
8/11/2022 11:15:00 AM 20.04 68.07201 0.068 7.27 2.21 8.69
8/11/2022 11:30:00 AM 20.21 68.378 0.068 7.28 2.39 8.68
8/11/2022 11:45:00 AM 20.36 68.648 0.068 7.28 2.27 8.65
8/11/2022 12:00:00 PM 20.5 68.9 0.067 7.29 2.25 8.64
8/11/2022 12:15:00 PM 20.64 69.152 0.067 7.29 2.13 8.59
8/11/2022 12:30:00 PM 20.76 69.368 0.067 7.29 2.18 8.55
8/11/2022 12:45:00 PM 20.96 69.728 0.067 7.29 2.18 8.56
8/11/2022 1:00:00 PM 21.17 70.106 0.067 7.3 2.25 8.52
8/11/2022 1:15:00 PM 21.4 70.52 0.067 7.3 2.24 8.5
8/11/2022 1:30:00 PM 21.64 70.952 0.066 7.31 2.2 8.45
8/11/2022 1:45:00 PM 21.87 71.366 0.066 7.31 2.18 8.38
8/11/2022 2:00:00 PM 22.08 71.744 0.066 7.29 2.25 8.31
8/11/2022 2:15:00 PM 22.35 72.23 0.066 7.31 2.21 8.27
8/11/2022 2:30:00 PM 22.58 72.644 0.066 7.31 2.51 8.24
8/11/2022 2:45:00 PM 22.85 73.13 0.066 7.33 2.17 8.18
8/11/2022 3:00:00 PM 23.05 73.49 0.066 7.3 2.16 8.14
8/11/2022 3:15:00 PM 23.22 73.796 0.066 7.28 2.29 8.06
8/11/2022 3:30:00 PM 23.43 74.174 0.066 7.28 2.23 8.03
8/11/2022 3:45:00 PM 23.64 74.552 0.066 7.27 2.35 8.01
8/11/2022 4:00:00 PM 23.89 75.002 0.066 7.29 2.24 7.99
8/11/2022 4:15:00 PM 23.96 75.128 0.065 7.26 2.24 7.91
8/11/2022 4:30:00 PM 24.06 75.308 0.066 7.26 2.29 7.88
8/11/2022 4:45:00 PM 24.14 75.452 0.066 7.27 2.15 7.88
8/11/2022 5:00:00 PM 24.21 75.578 0.063 7.28 2.21 7.87
8/11/2022 5:15:00 PM 24.15 75.47 0.066 7.27 2.11 7.85
8/11/2022 5:30:00 PM 24.12 75.416 0.066 7.28 2.27 7.84
8/11/2022 5:45:00 PM 24.01 75.218 0.066 7.27 2.13 7.79
8/11/2022 6:00:00 PM 23.74 74.732 0.066 7.23 2.15 7.69
8/11/2022 6:15:00 PM 23.63 74.534 0.066 7.21 2.11 7.69
8/11/2022 6:30:00 PM 23.5 74.3 0.066 7.19 2.1 7.62
8/11/2022 6:45:00 PM 23.35 74.03 0.066 7.18 2.25 7.54
8/11/2022 7:00:00 PM 23.22 73.796 0.067 7.17 2.15 7.52
8/11/2022 7:15:00 PM 23.12 73.616 0.067 7.17 2.09 7.5
8/11/2022 7:30:00 PM 23 73.4 0.067 7.17 2.17 7.48
8/11/2022 7:45:00 PM 22.89 73.202 0.067 7.16 2.13 7.47
8/11/2022 8:00:00 PM 22.75 72.95 0.068 7.15 2.61 7.46
8/11/2022 8:15:00 PM 22.62 72.716 0.068 7.15 2.15 7.44
8/11/2022 8:30:00 PM 22.48 72.464 0.068 7.13 2.63 7.41
8/11/2022 8:45:00 PM 22.33 72.194 0.068 7.13 2.14 7.4
8/11/2022 9:00:00 PM 22.19 71.942 0.068 7.12 2.14 7.41
8/11/2022 9:15:00 PM 22.06 71.708 0.068 7.12 2.2 7.39
8/11/2022 9:30:00 PM 21.93 71.474 0.069 7.11 2.14 7.4
8/11/2022 9:45:00 PM 21.81 71.258 0.069 7.1 2.16 7.4
8/11/2022 10:00:00 PM 21.69 71.042 0.069 7.09 2.16 7.41
8/11/2022 10:15:00 PM 21.57 70.826 0.069 7.09 2.23 7.42
8/11/2022 10:30:00 PM 21.45 70.61 0.069 7.09 2.37 7.45
8/11/2022 10:45:00 PM 21.32 70.376 0.069 7.09 2.23 7.46
8/11/2022 11:00:00 PM 21.21 70.17799 0.069 7.07 2.27 7.47
8/11/2022 11:15:00 PM 21.1 69.98 0.069 7.07 2.17 7.49
8/11/2022 11:30:00 PM 20.99 69.782 0.069 7.06 2.22 7.5
8/11/2022 11:45:00 PM 20.88 69.584 0.07 7.07 2.19 7.53
8/12/2022 12:00:00 AM 20.77 69.386 0.07 7.06 2.23 7.56
8/12/2022 12:15:00 AM 20.65 69.17 0.07 7.05 2.13 7.59
8/12/2022 12:30:00 AM 20.52 68.936 0.07 7.05 2.24 7.6
8/12/2022 12:45:00 AM 20.4 68.72 0.07 7.07 2.37 7.63
8/12/2022 1:00:00 AM 20.26 68.468 0.07 7.07 2.24 7.67
8/12/2022 1:15:00 AM 20.12 68.216 0.07 7.07 2.26 7.69
8/12/2022 1:30:00 AM 20 68 0.07 7.05 2.26 7.74
8/12/2022 1:45:00 AM 19.85 67.73 0.071 7.05 2.17 7.77
8/12/2022 2:00:00 AM 19.73 67.514 0.071 7.06 2.23 7.8
8/12/2022 2:15:00 AM 19.59 67.262 0.071 7.05 2.19 7.81
8/12/2022 2:30:00 AM 19.45 67.01 0.07 7.06 2.16 7.84
8/12/2022 2:45:00 AM 19.32 66.776 0.071 7.05 2.68 7.88
8/12/2022 3:00:00 AM 19.18 66.524 0.071 7.05 2.21 7.91
8/12/2022 3:15:00 AM 19.05 66.29 0.071 7.07 2.14 7.94
8/12/2022 3:30:00 AM 18.92 66.056 0.071 7.06 2.2 7.99
8/12/2022 3:45:00 AM 18.81 65.858 0.07 7.08 2.39 8.02
8/12/2022 4:00:00 AM 18.69 65.642 0.071 7.1 2.23 8.05
8/12/2022 4:15:00 AM 18.56 65.408 0.071 7.09 2.18 8.08
8/12/2022 4:30:00 AM 18.44 65.192 0.071 7.08 2.2 8.11
8/12/2022 4:45:00 AM 18.32 64.976 0.071 7.12 2.17 8.14
8/12/2022 5:00:00 AM 18.2 64.76 0.072 7.11 2.17 8.19
8/12/2022 5:15:00 AM 18.08 64.544 0.072 7.1 2.19 8.22
8/12/2022 5:30:00 AM 17.96 64.328 0.072 7.1 2.26 8.23
8/12/2022 5:45:00 AM 17.85 64.13 0.072 7.09 2.3 8.25
8/12/2022 6:00:00 AM 17.73 63.914 0.072 7.15 2.23 8.3
8/12/2022 6:15:00 AM 17.63 63.734 0.072 7.14 2.27 8.32
8/12/2022 6:30:00 AM 17.52 63.536 0.072 7.11 2.21 8.35
8/12/2022 6:45:00 AM 17.42 63.356 0.072 7.13 2.48 8.4
8/12/2022 7:00:00 AM 17.33 63.194 0.072 7.16 2.1 8.44
8/12/2022 7:15:00 AM 17.26 63.068 0.071 7.13 2.44 8.48
8/12/2022 7:30:00 AM 17.2 62.96 0.071 7.15 2.31 8.52
8/12/2022 7:45:00 AM 17.16 62.888 0.071 7.14 2.25 8.54
8/12/2022 8:00:00 AM 17.15 62.87 0.071 7.13 2.19 8.59
8/12/2022 8:15:00 AM 17.15 62.87 0.071 7.14 2.12 8.63
8/12/2022 8:30:00 AM 17.17 62.906 0.071 7.15 2.1 8.66
8/12/2022 8:45:00 AM 17.19 62.942 0.071 7.17 2.14 8.68
8/12/2022 9:00:00 AM 17.27 63.086 0.07 7.16 2.2 8.71
8/12/2022 9:15:00 AM 17.38 63.284 0.07 7.16 2.28 8.71
8/12/2022 9:30:00 AM 17.47 63.446 0.07 7.15 2.24 8.7
8/12/2022 9:45:00 AM 17.56 63.608 0.069 7.15 2.14 8.7
8/12/2022 10:00:00 AM 17.62 63.716 0.069 7.16 2.19 8.71
8/12/2022 10:15:00 AM 17.66 63.788 0.069 7.16 2.08 8.72
8/12/2022 10:30:00 AM 17.73 63.914 0.069 7.15 2.04 8.72
8/12/2022 10:45:00 AM 17.84 64.112 0.069 7.16 2.17 8.76
8/12/2022 11:00:00 AM 17.91 64.238 0.069 7.16 2.13 8.75
8/12/2022 11:15:00 AM 17.99 64.382 0.069 7.17 2.09 8.76
8/12/2022 11:30:00 AM 18.08 64.544 0.069 7.18 2.18 8.78
8/12/2022 11:45:00 AM 18.22 64.796 0.068 7.17 2.13 8.76
8/12/2022 12:00:00 PM 18.4 65.12 0.069 7.19 2.14 8.73
8/12/2022 12:15:00 PM 18.57 65.426 0.069 7.2 2.1 8.73
8/12/2022 12:30:00 PM 18.75 65.75 0.069 7.22 2.04 8.74
8/12/2022 12:45:00 PM 18.99 66.182 0.069 7.25 2.03 8.72
8/12/2022 1:00:00 PM 19.25 66.65 0.069 7.26 2 8.72
8/12/2022 1:15:00 PM 19.51 67.118 0.069 7.26 2.02 8.66
8/12/2022 1:30:00 PM 19.79 67.622 0.068 7.25 2.07 8.62
8/12/2022 1:45:00 PM 20.14 68.252 0.068 7.27 2.12 8.58
8/12/2022 2:00:00 PM 20.42 68.756 0.068 7.26 2.28 8.54
8/12/2022 2:15:00 PM 20.78 69.404 0.068 7.28 2.03 8.5
8/12/2022 2:30:00 PM 21.13 70.034 0.067 7.25 2.09 8.42
8/12/2022 2:45:00 PM 21.39 70.502 0.067 7.23 2.11 8.39
8/12/2022 3:00:00 PM 21.69 71.042 0.067 7.24 2.09 8.35
8/12/2022 3:15:00 PM 21.97 71.546 0.067 7.23 2.12 8.3
8/12/2022 3:30:00 PM 22.16 71.888 0.066 7.21 2.24 8.26
8/12/2022 3:45:00 PM 22.34 72.212 0.066 7.21 3.04 8.24
8/12/2022 4:00:00 PM 22.55 72.59 0.066 7.22 2.13 8.22
8/12/2022 4:15:00 PM 22.51 72.518 0.066 7.22 2.11 8.15
8/12/2022 4:30:00 PM 22.63 72.734 0.067 7.24 1.99 8.12
8/12/2022 4:45:00 PM 22.74 72.932 0.067 7.25 2.02 8.11
8/12/2022 5:00:00 PM 22.79 73.022 0.067 7.24 2.03 8.1
8/12/2022 5:15:00 PM 22.76 72.968 0.067 7.26 2.22 8.11
8/12/2022 5:30:00 PM 22.7 72.86 0.067 7.25 2.39 8.04
8/12/2022 5:45:00 PM 22.56 72.608 0.067 7.24 2.06 8
8/12/2022 6:00:00 PM 22.43 72.374 0.067 7.23 2.03 7.97
8/12/2022 6:15:00 PM 22.29 72.122 0.067 7.21 2.13 7.93
8/12/2022 6:30:00 PM 22.12 71.816 0.067 7.2 2.05 7.87
8/12/2022 6:45:00 PM 21.94 71.492 0.068 7.19 1.98 7.8
8/12/2022 7:00:00 PM 21.78 71.204 0.068 7.17 2.12 7.77
8/12/2022 7:15:00 PM 21.62 70.916 0.068 7.15 2.06 7.74
8/12/2022 7:30:00 PM 21.46 70.628 0.068 7.13 2.07 7.72
8/12/2022 7:45:00 PM 21.31 70.358 0.068 7.12 2.2 7.7
8/12/2022 8:00:00 PM 21.16 70.088 0.068 7.13 2.13 7.71
8/12/2022 8:15:00 PM 21.01 69.818 0.069 7.13 2.35 7.71
8/12/2022 8:30:00 PM 20.87 69.566 0.069 7.13 2.14 7.71
8/12/2022 8:45:00 PM 20.73 69.314 0.068 7.12 2.34 7.71
8/12/2022 9:00:00 PM 20.57 69.026 0.069 7.11 2.13 7.71
8/12/2022 9:15:00 PM 20.44 68.792 0.069 7.12 2.26 7.72
8/12/2022 9:30:00 PM 20.3 68.54 0.069 7.11 2.1 7.73
8/12/2022 9:45:00 PM 20.17 68.306 0.069 7.1 2.62 7.74
8/12/2022 10:00:00 PM 20.04 68.07201 0.069 7.09 2.08 7.73
8/12/2022 10:15:00 PM 19.9 67.82 0.069 7.06 2.12 7.73
8/12/2022 10:30:00 PM 19.78 67.604 0.069 7.05 2.08 7.75
8/12/2022 10:45:00 PM 19.65 67.37 0.069 7.06 2.25 7.77
8/12/2022 11:00:00 PM 19.53 67.154 0.068 7.04 2.41 7.8
8/12/2022 11:15:00 PM 19.41 66.938 0.068 7.06 2.53 7.81
8/12/2022 11:30:00 PM 19.28 66.704 0.07 7.05 2.23 7.84
8/12/2022 11:45:00 PM 19.15 66.47 0.07 7.06 2.22 7.86
8/13/2022 12:00:00 AM 19.02 66.236 0.07 7.05 2.16 7.9
8/13/2022 12:15:00 AM 18.88 65.984 0.07 7.04 2.19 7.9
8/13/2022 12:30:00 AM 18.75 65.75 0.07 7.06 2.14 7.95
8/13/2022 12:45:00 AM 18.62 65.516 0.07 7.05 2.17 7.98
8/13/2022 1:00:00 AM 18.47 65.246 0.07 7.05 2.26 8.04
8/13/2022 1:15:00 AM 18.31 64.958 0.07 7.06 2.09 8.06
8/13/2022 1:30:00 AM 18.17 64.706 0.07 7.05 2.11 8.1
8/13/2022 1:45:00 AM 18.03 64.454 0.07 7.08 2.05 8.15
8/13/2022 2:00:00 AM 17.89 64.202 0.071 7.1 2.29 8.19
8/13/2022 2:15:00 AM 17.74 63.932 0.071 7.07 2.25 8.22
8/13/2022 2:30:00 AM 17.6 63.68 0.071 7.09 2.09 8.24
8/13/2022 2:45:00 AM 17.47 63.446 0.071 7.08 2.1 8.31
8/13/2022 3:00:00 AM 17.33 63.194 0.071 7.08 2.16 8.32
8/13/2022 3:15:00 AM 17.2 62.96 0.071 7.09 2.15 8.36
8/13/2022 3:30:00 AM 17.06 62.708 0.071 7.1 2.17 8.41
8/13/2022 3:45:00 AM 16.92 62.456 0.071 7.09 2.16 8.42
8/13/2022 4:00:00 AM 16.78 62.204 0.071 7.12 2.18 8.45
8/13/2022 4:15:00 AM 16.65 61.97 0.071 7.12 2.17 8.49
8/13/2022 4:30:00 AM 16.52 61.736 0.071 7.08 2.03 8.5
8/13/2022 4:45:00 AM 16.4 61.52 0.071 7.11 2.12 8.57
8/13/2022 5:00:00 AM 16.26 61.268 0.071 7.12 2.16 8.6
8/13/2022 5:15:00 AM 16.14 61.052 0.071 7.11 2.17 8.64
8/13/2022 5:30:00 AM 16.03 60.854 0.071 7.1 2.25 8.66
8/13/2022 5:45:00 AM 15.89 60.602 0.071 7.13 2.14 8.71
8/13/2022 6:00:00 AM 15.78 60.404 0.071 7.14 2.06 8.76
8/13/2022 6:15:00 AM 15.67 60.206 0.071 7.13 2.17 8.76
8/13/2022 6:30:00 AM 15.56 60.008 0.071 7.14 2.25 8.8
8/13/2022 6:45:00 AM 15.44 59.792 0.071 7.15 2.17 8.86
8/13/2022 7:00:00 AM 15.35 59.63 0.071 7.16 2.18 8.89
8/13/2022 7:15:00 AM 15.28 59.504 0.071 7.15 2.15 8.94
8/13/2022 7:30:00 AM 15.22 59.396 0.071 7.18 2.29 9
8/13/2022 7:45:00 AM 15.2 59.36 0.071 7.18 2.18 9.05
8/13/2022 8:00:00 AM 15.17 59.306 0.071 7.19 2.03 9.08
8/13/2022 8:15:00 AM 15.17 59.306 0.07 7.2 2.17 9.1
8/13/2022 8:30:00 AM 15.17 59.306 0.07 7.2 2.14 9.12
8/13/2022 8:45:00 AM 15.19 59.342 0.07 7.19 2.26 9.14
8/13/2022 9:00:00 AM 15.25 59.45 0.07 7.21 2.1 9.16
8/13/2022 9:15:00 AM 15.37 59.666 0.069 7.2 2.33 9.15
8/13/2022 9:30:00 AM 15.49 59.882 0.069 7.19 2.11 9.13
8/13/2022 9:45:00 AM 15.62 60.116 0.069 7.2 2.05 9.15
8/13/2022 10:00:00 AM 15.75 60.35 0.069 7.22 2.12 9.15
8/13/2022 10:15:00 AM 15.89 60.602 0.068 7.21 2.05 9.12
8/13/2022 10:30:00 AM 16.05 60.89 0.068 7.2 2.03 9.09
8/13/2022 10:45:00 AM 16.22 61.196 0.068 7.2 2.04 9.07
8/13/2022 11:00:00 AM 16.34 61.412 0.068 7.19 1.98 9.05
8/13/2022 11:15:00 AM 16.44 61.592 0.068 7.2 2.07 9.04
8/13/2022 11:30:00 AM 16.61 61.898 0.022 7.18 2.12 9.02
8/13/2022 11:45:00 AM 16.73 62.114 0.069 7.2 1.99 9.05
8/13/2022 12:00:00 PM 16.87 62.366 0.069 7.23 1.97 9.03
8/13/2022 12:15:00 PM 17.02 62.636 0.068 7.19 2.12 9
8/13/2022 12:30:00 PM 17.22 62.996 0.065 7.21 2.64 8.97
8/13/2022 12:45:00 PM 17.43 63.374 0.064 7.2 2.9 8.9
8/13/2022 1:00:00 PM 17.68 63.824 0.068 7.24 2.79 8.91
8/13/2022 1:15:00 PM 17.99 64.382 0.068 7.24 3.19 8.87
8/13/2022 1:30:00 PM 18.32 64.976 0.063 7.26 1.97 8.84
8/13/2022 1:45:00 PM 18.67 65.606 0.032 7.27 2.04 8.8
8/13/2022 2:00:00 PM 19.01 66.218 0.066 7.27 2.21 8.75
8/13/2022 2:15:00 PM 19.42 66.956 0.066 7.25 2.01 8.67
8/13/2022 2:30:00 PM 19.77 67.586 0.065 7.21 3.54 8.57
8/13/2022 2:45:00 PM 20.14 68.252 0.067 7.24 2 8.52
8/13/2022 3:00:00 PM 20.55 68.99 0.067 7.26 2.03 8.5
8/13/2022 3:15:00 PM 20.79 69.422 0.066 7.22 2.25 8.43
8/13/2022 3:30:00 PM 20.97 69.746 0.044 7.19 2.04 8.38
8/13/2022 3:45:00 PM 21.25 70.25 0.066 7.24 2.05 8.4
8/13/2022 4:00:00 PM 21.55 70.79 0.066 7.24 2.13 8.37
8/13/2022 4:15:00 PM 21.56 70.808 0.066 7.23 2.14 8.3
8/13/2022 4:30:00 PM 21.65 70.97 0.066 7.23 2.07 8.25
8/13/2022 4:45:00 PM 21.78 71.204 0.066 7.25 2.08 8.26
8/13/2022 5:00:00 PM 21.89 71.402 0.066 7.24 2.03 8.21
8/13/2022 5:15:00 PM 21.93 71.474 0.065 7.25 2.15 8.18
8/13/2022 5:30:00 PM 21.89 71.402 0.066 7.24 2.22 8.18
8/13/2022 5:45:00 PM 21.89 71.402 0.067 7.24 2.06 8.16
8/13/2022 6:00:00 PM 21.8 71.24 0.067 7.22 2.16 8.14
8/13/2022 6:15:00 PM 21.71 71.078 0.067 7.23 2.11 8.09
8/13/2022 6:30:00 PM 21.49 70.682 0.067 7.2 2.14 7.98
8/13/2022 6:45:00 PM 21.33 70.394 0.067 7.19 2.02 7.91
8/13/2022 7:00:00 PM 21.21 70.17799 0.068 7.17 2.13 7.86
8/13/2022 7:15:00 PM 21.12 70.016 0.068 7.16 2.12 7.83
8/13/2022 7:30:00 PM 21.03 69.854 0.068 7.16 2.04 7.82
8/13/2022 7:45:00 PM 20.92 69.656 0.068 7.15 2.19 7.78
8/13/2022 8:00:00 PM 20.8 69.44 0.068 7.14 2.03 7.76
8/13/2022 8:15:00 PM 20.68 69.224 0.068 7.13 2.23 7.73
8/13/2022 8:30:00 PM 20.53 68.954 0.069 7.15 2.31 7.71
8/13/2022 8:45:00 PM 20.39 68.702 0.069 7.13 2.3 7.7
8/13/2022 9:00:00 PM 20.25 68.45 0.069 7.11 2.24 7.7
8/13/2022 9:15:00 PM 20.11 68.198 0.069 7.1 2.15 7.68
8/13/2022 9:30:00 PM 19.98 67.964 0.069 7.1 2.31 7.69
8/13/2022 9:45:00 PM 19.85 67.73 0.069 7.1 2.21 7.68
8/13/2022 10:00:00 PM 19.72 67.496 0.04 7.11 2.2 7.7
8/13/2022 10:15:00 PM 19.6 67.28 0.069 7.09 2.37 7.7
8/13/2022 10:30:00 PM 19.49 67.082 0.07 7.08 2.26 7.73
8/13/2022 10:45:00 PM 19.37 66.866 0.07 7.09 2.24 7.76
8/13/2022 11:00:00 PM 19.26 66.668 0.069 7.12 2.2 7.77
8/13/2022 11:15:00 PM 19.16 66.488 0.07 7.09 2.19 7.79
8/13/2022 11:30:00 PM 19.04 66.272 0.07 7.1 2.51 7.82
8/13/2022 11:45:00 PM 18.94 66.092 0.07 7.1 2.31 7.83
8/14/2022 12:00:00 AM 18.84 65.912 0.07 7.09 2.28 7.85
8/14/2022 12:15:00 AM 18.73 65.714 0.067 7.1 2.18 7.86
8/14/2022 12:30:00 AM 18.62 65.516 0.07 7.09 2.23 7.9
8/14/2022 12:45:00 AM 18.52 65.336 0.07 7.09 2.25 7.9
8/14/2022 1:00:00 AM 18.39 65.102 0.07 7.1 2.27 7.92
8/14/2022 1:15:00 AM 18.28 64.904 0.07 7.1 2.22 7.96
8/14/2022 1:30:00 AM 18.17 64.706 0.07 7.09 2.27 7.98
8/14/2022 1:45:00 AM 18.06 64.508 0.07 7.1 2.18 7.99
8/14/2022 2:00:00 AM 17.94 64.292 0.07 7.12 2.36 8.02
8/14/2022 2:15:00 AM 17.84 64.112 0.07 7.11 2.34 8.07
8/14/2022 2:30:00 AM 17.74 63.932 0.071 7.09 2.28 8.08
8/14/2022 2:45:00 AM 17.62 63.716 0.071 7.1 2.27 8.12
8/14/2022 3:00:00 AM 17.52 63.536 0.071 7.09 2.55 8.15
8/14/2022 3:15:00 AM 17.41 63.338 0.071 7.11 2.8 8.19
8/14/2022 3:30:00 AM 17.3 63.14 0.071 7.13 2.29 8.2
8/14/2022 3:45:00 AM 17.2 62.96 0.071 7.12 2.29 8.21
8/14/2022 4:00:00 AM 17.11 62.798 0.071 7.14 2.26 8.29
8/14/2022 4:15:00 AM 17.03 62.654 0.071 7.18 2.18 8.27
8/14/2022 4:30:00 AM 16.94 62.492 0.071 7.18 2.28 8.3
8/14/2022 4:45:00 AM 16.86 62.348 0.071 7.15 2.55 8.34
8/14/2022 5:00:00 AM 16.78 62.204 0.071 7.14 2.13 8.34
8/14/2022 5:15:00 AM 16.69 62.042 0.071 7.15 2.16 8.38
8/14/2022 5:30:00 AM 16.58 61.844 0.071 7.17 2.33 8.39
8/14/2022 5:45:00 AM 16.49 61.682 0.071 7.16 2.28 8.4
8/14/2022 6:00:00 AM 16.4 61.52 0.071 7.16 2.23 8.44
8/14/2022 6:15:00 AM 16.3 61.34 0.071 7.18 2.25 8.45
8/14/2022 6:30:00 AM 16.2 61.16 0.071 7.22 2.19 8.47
8/14/2022 6:45:00 AM 16.12 61.016 0.071 7.24 2.19 8.52
8/14/2022 7:00:00 AM 16.07 60.926 0.071 7.22 2.23 8.56
8/14/2022 7:15:00 AM 16.04 60.872 0.071 7.24 2.15 8.6
8/14/2022 7:30:00 AM 16.03 60.854 0.071 7.21 2.21 8.68
8/14/2022 7:45:00 AM 16.06 60.908 0.071 7.3 2.13 8.74
8/14/2022 8:00:00 AM 16.09 60.962 0.07 7.28 2.18 8.76
8/14/2022 8:15:00 AM 16.1 60.98 0.07 7.21 2.31 8.79
8/14/2022 8:30:00 AM 16.13 61.034 0.07 7.19 2.09 8.82
8/14/2022 8:45:00 AM 16.17 61.106 0.07 7.17 2.22 8.83
8/14/2022 9:00:00 AM 16.25 61.25 0.069 7.2 2.3 8.83
8/14/2022 9:15:00 AM 16.35 61.43 0.069 7.25 2.25 8.83
8/14/2022 9:30:00 AM 16.47 61.646 0.069 7.28 2.16 8.83
8/14/2022 9:45:00 AM 16.58 61.844 0.069 7.14 2.24 8.85
8/14/2022 10:00:00 AM 16.74 62.132 0.07 7.27 2.64 9.1
8/14/2022 10:15:00 AM 16.78 62.204 0.071 7.31 2.4 9.15
8/14/2022 10:30:00 AM 16.87 62.366 0.07 7.32 2.18 9.14
8/14/2022 10:45:00 AM 16.98 62.564 0.07 7.28 2.28 9.08
8/14/2022 11:00:00 AM 17.03 62.654 0.07 7.25 2.25 8.97
8/14/2022 11:15:00 AM 17.15 62.87 0.07 7.25 2.24 8.96
8/14/2022 11:30:00 AM 17.25 63.05 0.069 7.24 2.21 8.92
8/14/2022 11:45:00 AM 17.39 63.302 0.069 7.23 2.67 8.91
8/14/2022 12:00:00 PM 17.49 63.482 0.069 7.21 2.16 8.88
8/14/2022 12:15:00 PM 17.67 63.806 0.069 7.19 2.3 8.86
8/14/2022 12:30:00 PM 17.86 64.148 0.069 7.22 2.21 8.85
8/14/2022 12:45:00 PM 18.08 64.544 0.069 7.26 2.31 8.86
8/14/2022 1:00:00 PM 18.33 64.994 0.069 7.26 2.31 8.83
8/14/2022 1:15:00 PM 18.59 65.462 0.068 7.25 2.33 8.78
8/14/2022 1:30:00 PM 18.86 65.948 0.068 7.21 2.37 8.67
8/14/2022 1:45:00 PM 19.16 66.488 0.067 7.22 2.33 8.65
8/14/2022 2:00:00 PM 19.47 67.046 0.067 7.2 2.75 8.63
8/14/2022 2:15:00 PM 19.75 67.55 0.066 7.22 2.59 8.56
8/14/2022 2:30:00 PM 20.02 68.036 0.066 7.23 2.22 8.53
8/14/2022 2:45:00 PM 20.32 68.576 0.066 7.24 3 8.56
8/14/2022 3:00:00 PM 20.62 69.116 0.066 7.27 3.2 8.51
8/14/2022 3:15:00 PM 20.81 69.458 0.066 7.29 2.56 8.56
8/14/2022 3:30:00 PM 20.95 69.71 0.067 7.3 2.45 8.5
8/14/2022 3:45:00 PM 21.01 69.818 0.067 7.3 2.45 8.48
8/14/2022 4:00:00 PM 21.03 69.854 0.067 7.3 4.63 8.42
8/14/2022 4:15:00 PM 21.05 69.89 0.066 7.29 2.32 8.43
8/14/2022 4:30:00 PM 21.09 69.962 0.066 7.3 2.25 8.46
8/14/2022 4:45:00 PM 21.15 70.07 0.066 7.29 2.28 8.45
8/14/2022 5:00:00 PM 21.19 70.142 0.066 7.29 2.41 8.41
8/14/2022 5:15:00 PM 21.16 70.088 0.066 7.26 2.21 8.36
8/14/2022 5:30:00 PM 21.16 70.088 0.066 7.26 2.36 8.32
8/14/2022 5:45:00 PM 21.14 70.052 0.066 7.24 2.18 8.27
8/14/2022 6:00:00 PM 21.15 70.07 0.066 7.24 2.49 8.23
8/14/2022 6:15:00 PM 21.14 70.052 0.066 7.23 2.28 8.17
8/14/2022 6:30:00 PM 21.14 70.052 0.066 7.22 2.22 8.13
8/14/2022 6:45:00 PM 21.11 69.998 0.066 7.22 2.21 8.05
8/14/2022 7:00:00 PM 21.07 69.926 0.067 7.2 2.34 8
8/14/2022 7:15:00 PM 21.05 69.89 0.067 7.2 2.16 7.92
8/14/2022 7:30:00 PM 21.03 69.854 0.067 7.2 2.21 7.89
8/14/2022 7:45:00 PM 20.99 69.782 0.067 7.19 2.38 7.84
8/14/2022 8:00:00 PM 20.93 69.674 0.068 7.18 2.15 7.78
8/14/2022 8:15:00 PM 20.86 69.548 0.068 7.17 2.23 7.72
8/14/2022 8:30:00 PM 20.76 69.368 0.068 7.19 2.24 7.7
8/14/2022 8:45:00 PM 20.64 69.152 0.069 7.17 2.3 7.67
8/14/2022 9:00:00 PM 20.52 68.936 0.069 7.21 2.3 7.66
8/14/2022 9:15:00 PM 20.41 68.738 0.069 7.16 2.55 7.66
8/14/2022 9:30:00 PM 20.31 68.558 0.069 7.15 2.42 7.65
8/14/2022 9:45:00 PM 20.23 68.414 0.069 7.17 2.35 7.67
8/14/2022 10:00:00 PM 20.15 68.27 0.07 7.16 2.3 7.67
8/14/2022 10:15:00 PM 20.07 68.126 0.07 7.13 2.32 7.67
8/14/2022 10:30:00 PM 19.96 67.92799 0.07 7.13 2.42 7.68
8/14/2022 10:45:00 PM 19.87 67.766 0.07 7.13 2.47 7.69
8/14/2022 11:00:00 PM 19.8 67.64 0.07 7.11 2.42 7.69
8/14/2022 11:15:00 PM 19.71 67.478 0.07 7.15 2.33 7.7
8/14/2022 11:30:00 PM 19.65 67.37 0.07 7.12 2.54 7.7
8/14/2022 11:45:00 PM 19.59 67.262 0.07 7.11 2.33 7.72
8/15/2022 12:00:00 AM 19.53 67.154 0.07 7.1 2.51 7.71
8/15/2022 12:15:00 AM 19.47 67.046 0.07 7.17 2.38 7.75
8/15/2022 12:30:00 AM 19.41 66.938 0.07 7.13 2.33 7.75
8/15/2022 12:45:00 AM 19.35 66.83 0.07 7.1 2.43 7.76
8/15/2022 1:00:00 AM 19.29 66.722 0.07 7.09 2.43 7.76
8/15/2022 1:15:00 AM 19.24 66.632 0.07 7.08 2.48 7.78
8/15/2022 1:30:00 AM 19.19 66.542 0.071 7.09 2.28 7.79
8/15/2022 1:45:00 AM 19.13 66.434 0.071 7.08 2.33 7.79
8/15/2022 2:00:00 AM 19.07 66.326 0.071 7.1 2.32 7.81
8/15/2022 2:15:00 AM 19.02 66.236 0.071 7.11 2.66 7.81
8/15/2022 2:30:00 AM 18.96 66.128 0.071 7.1 2.4 7.82
8/15/2022 2:45:00 AM 18.91 66.038 0.071 7.08 2.31 7.82
8/15/2022 3:00:00 AM 18.86 65.948 0.071 7.09 2.26 7.83
8/15/2022 3:15:00 AM 18.81 65.858 0.072 7.1 2.41 7.85
8/15/2022 3:30:00 AM 18.75 65.75 0.072 7.08 2.29 7.86
8/15/2022 3:45:00 AM 18.7 65.66 0.072 7.09 2.26 7.85
8/15/2022 4:00:00 AM 18.65 65.57 0.072 7.08 2.29 7.87
8/15/2022 4:15:00 AM 18.59 65.462 0.072 7.07 2.34 7.88
8/15/2022 4:30:00 AM 18.55 65.39 0.072 7.07 2.29 7.91
8/15/2022 4:45:00 AM 18.5 65.3 0.072 7.08 2.43 7.92
8/15/2022 5:00:00 AM 18.45 65.21 0.072 7.07 2.5 7.94
8/15/2022 5:15:00 AM 18.41 65.138 0.072 7.1 2.46 7.96
8/15/2022 5:30:00 AM 18.37 65.066 0.072 7.09 2.36 7.98
8/15/2022 5:45:00 AM 18.31 64.958 0.072 7.12 2.48 8
8/15/2022 6:00:00 AM 18.26 64.868 0.072 7.18 2.35 7.99
8/15/2022 6:15:00 AM 18.21 64.778 0.072 7.17 2.32 7.99
8/15/2022 6:30:00 AM 18.16 64.688 0.072 7.14 2.29 8
8/15/2022 6:45:00 AM 18.11 64.598 0.072 7.15 2.33 8.02
8/15/2022 7:00:00 AM 18.07 64.526 0.072 7.17 2.27 8.04
8/15/2022 7:15:00 AM 18.04 64.472 0.072 7.15 2.2 8.08
8/15/2022 7:30:00 AM 18.01 64.418 0.072 7.11 2.27 8.1
8/15/2022 7:45:00 AM 18 64.4 0.072 7.14 2.37 8.15
8/15/2022 8:00:00 AM 18.01 64.418 0.072 7.15 2.32 8.23
8/15/2022 8:15:00 AM 18.03 64.454 0.071 7.15 2.36 8.29
8/15/2022 8:30:00 AM 18.06 64.508 0.071 7.16 2.29 8.35
8/15/2022 8:45:00 AM 18.09 64.562 0.071 7.25 2.17 8.39
8/15/2022 9:00:00 AM 18.13 64.634 0.07 7.27 2.18 8.43
8/15/2022 9:15:00 AM 18.18 64.724 0.07 7.21 2.29 8.48
8/15/2022 9:30:00 AM 18.22 64.796 0.07 7.22 2.2 8.49
8/15/2022 9:45:00 AM 18.28 64.904 0.07 7.18 2.22 8.51
8/15/2022 10:00:00 AM 18.38 65.084 0.069 7.17 2.39 8.56
8/15/2022 10:15:00 AM 18.52 65.336 0.069 7.2 2.28 8.63
8/15/2022 10:30:00 AM 18.64 65.552 0.069 7.2 2.34 8.66
8/15/2022 10:45:00 AM 18.74 65.732 0.068 7.22 2.36 8.7
8/15/2022 11:00:00 AM 18.82 65.876 0.068 7.22 2.33 8.73
8/15/2022 11:15:00 AM 18.85 65.93 0.068 7.16 2.35 8.7
8/15/2022 11:30:00 AM 18.93 66.074 0.067 7.16 2.28 8.75
8/15/2022 11:45:00 AM 19.05 66.29 0.067 7.15 2.2 8.72
8/15/2022 12:00:00 PM 19.15 66.47 0.067 7.17 2.27 8.77
8/15/2022 12:15:00 PM 19.35 66.83 0.067 7.19 2.26 8.81
8/15/2022 12:30:00 PM 19.51 67.118 0.067 7.21 2.28 8.81
8/15/2022 12:45:00 PM 19.74 67.532 0.067 7.23 2.24 8.83
8/15/2022 1:00:00 PM 19.93 67.874 0.067 7.26 2.25 8.8
8/15/2022 1:15:00 PM 20.2 68.36 0.067 7.27 2.26 8.75
8/15/2022 1:30:00 PM 20.39 68.702 0.067 7.23 2.36 8.66
8/15/2022 1:45:00 PM 20.54 68.972 0.067 7.26 2.3 8.59
8/15/2022 2:00:00 PM 20.72 69.296 0.067 7.26 2.58 8.5
8/15/2022 2:15:00 PM 21.04 69.872 0.067 7.24 2.65 8.45
8/15/2022 2:30:00 PM 21.35 70.43 0.067 7.26 2.88 8.45
8/15/2022 2:45:00 PM 21.65 70.97 0.067 7.29 2.28 8.4
8/15/2022 3:00:00 PM 21.81 71.258 0.066 7.27 2.44 8.34
8/15/2022 3:15:00 PM 21.93 71.474 0.066 7.26 2.33 8.34
8/15/2022 3:30:00 PM 22.05 71.69 0.066 7.28 2.53 8.31
8/15/2022 3:45:00 PM 22.04 71.672 0.066 7.27 2.42 8.32
8/15/2022 4:00:00 PM 22.05 71.69 0.066 7.26 2.2 8.27
8/15/2022 4:15:00 PM 21.94 71.492 0.066 7.25 2.26 8.27
8/15/2022 4:30:00 PM 21.83 71.294 0.066 7.25 2.31 8.28
8/15/2022 4:45:00 PM 21.85 71.33 0.066 7.27 2.22 8.31
8/15/2022 5:00:00 PM 21.81 71.258 0.066 7.28 2.24 8.29
8/15/2022 5:15:00 PM 21.77 71.186 0.066 7.3 2.18 8.25
8/15/2022 5:30:00 PM 21.68 71.024 0.067 7.31 2.29 8.22
8/15/2022 5:45:00 PM 21.6 70.88 0.067 7.3 2.34 8.19
8/15/2022 6:00:00 PM 21.53 70.754 0.067 7.31 2.2 8.16
8/15/2022 6:15:00 PM 21.48 70.664 0.067 7.31 2.21 8.12
8/15/2022 6:30:00 PM 21.44 70.592 0.067 7.34 2.32 8.07
8/15/2022 6:45:00 PM 21.37 70.466 0.067 7.33 2.24 8.01
8/15/2022 7:00:00 PM 21.3 70.34 0.067 7.28 2.21 7.98
8/15/2022 7:15:00 PM 21.23 70.214 0.067 7.28 2.28 7.93
8/15/2022 7:30:00 PM 21.16 70.088 0.068 7.23 2.21 7.87
8/15/2022 7:45:00 PM 21.09 69.962 0.068 7.22 2.4 7.81
8/15/2022 8:00:00 PM 21.01 69.818 0.068 7.2 2.53 7.76
8/15/2022 8:15:00 PM 20.93 69.674 0.068 7.17 2.73 7.71
8/15/2022 8:30:00 PM 20.84 69.512 0.069 7.18 2.42 7.67
8/15/2022 8:45:00 PM 20.76 69.368 0.069 7.19 2.51 7.64
8/15/2022 9:00:00 PM 20.68 69.224 0.069 7.18 2.44 7.62
8/15/2022 9:15:00 PM 20.6 69.08 0.069 7.13 2.33 7.62
8/15/2022 9:30:00 PM 20.53 68.954 0.07 7.14 2.43 7.59
8/15/2022 9:45:00 PM 20.46 68.828 0.07 7.15 2.39 7.61
8/15/2022 10:00:00 PM 20.38 68.684 0.07 7.21 2.43 7.6
8/15/2022 10:15:00 PM 20.3 68.54 0.07 7.19 2.35 7.59
8/15/2022 10:30:00 PM 20.2 68.36 0.07 7.16 2.67 7.6
8/15/2022 10:45:00 PM 20.11 68.198 0.07 7.12 2.41 7.59
8/15/2022 11:00:00 PM 20.03 68.054 0.07 7.1 2.48 7.61
8/15/2022 11:15:00 PM 19.96 67.92799 0.071 7.11 2.61 7.62
8/15/2022 11:30:00 PM 19.89 67.802 0.071 7.13 2.29 7.64
8/15/2022 11:45:00 PM 19.81 67.658 0.071 7.15 2.5 7.68
8/16/2022 12:00:00 AM 19.72 67.496 0.071 7.12 2.32 7.67
8/16/2022 12:15:00 AM 19.65 67.37 0.071 7.09 2.46 7.67
8/16/2022 12:30:00 AM 19.58 67.244 0.071 7.12 2.35 7.68
8/16/2022 12:45:00 AM 19.52 67.136 0.071 7.17 2.41 7.68
8/16/2022 1:00:00 AM 19.45 67.01 0.071 7.14 2.36 7.71
8/16/2022 1:15:00 AM 19.38 66.884 0.071 7.12 2.54 7.72
8/16/2022 1:30:00 AM 19.31 66.758 0.071 7.1 2.29 7.73
8/16/2022 1:45:00 AM 19.24 66.632 0.072 7.1 2.25 7.73
8/16/2022 2:00:00 AM 19.17 66.506 0.072 7.12 2.45 7.78
8/16/2022 2:15:00 AM 19.09 66.362 0.072 7.13 2.42 7.78
8/16/2022 2:30:00 AM 19.03 66.254 0.072 7.13 2.74 7.81
8/16/2022 2:45:00 AM 18.97 66.146 0.072 7.16 2.43 7.82
8/16/2022 3:00:00 AM 18.91 66.038 0.072 7.18 2.68 7.84
8/16/2022 3:15:00 AM 18.84 65.912 0.072 7.18 2.42 7.84
8/16/2022 3:30:00 AM 18.78 65.804 0.072 7.19 2.54 7.87
8/16/2022 3:45:00 AM 18.72 65.696 0.072 7.22 2.4 7.87
8/16/2022 4:00:00 AM 18.65 65.57 0.072 7.24 2.26 7.89
8/16/2022 4:15:00 AM 18.6 65.48 0.072 7.26 2.29 7.89
8/16/2022 4:30:00 AM 18.55 65.39 0.072 7.3 2.35 7.9
8/16/2022 4:45:00 AM 18.5 65.3 0.072 7.31 2.28 7.91
8/16/2022 5:00:00 AM 18.45 65.21 0.072 7.35 2.49 7.93
8/16/2022 5:15:00 AM 18.4 65.12 0.072 7.36 2.42 7.95
8/16/2022 5:30:00 AM 18.36 65.048 0.072 7.38 2.32 7.94
8/16/2022 5:45:00 AM 18.31 64.958 0.072 7.38 2.36 7.95
8/16/2022 6:00:00 AM 18.26 64.868 0.072 7.38 2.46 7.97
8/16/2022 6:15:00 AM 18.22 64.796 0.072 7.39 2.55 7.97
8/16/2022 6:30:00 AM 18.18 64.724 0.072 7.34 2.41 7.99
8/16/2022 6:45:00 AM 18.14 64.652 0.072 7.34 2.34 8
8/16/2022 7:00:00 AM 18.09 64.562 0.072 7.29 2.4 8.01
8/16/2022 7:15:00 AM 18.05 64.49 0.072 7.24 2.64 7.99
8/16/2022 7:30:00 AM 18.02 64.436 0.072 7.21 2.55 7.99
8/16/2022 7:45:00 AM 17.99 64.382 0.072 7.21 2.72 8.05
8/16/2022 8:00:00 AM 17.97 64.346 0.072 7.19 2.73 8.08
8/16/2022 8:15:00 AM 17.96 64.328 0.072 7.22 2.61 8.16
8/16/2022 8:30:00 AM 17.96 64.328 0.072 7.24 2.43 8.22
8/16/2022 8:45:00 AM 17.96 64.328 0.071 7.26 2.52 8.29
8/16/2022 9:00:00 AM 17.98 64.364 0.071 7.28 2.61 8.32
8/16/2022 9:15:00 AM 18.01 64.418 0.071 7.31 2.55 8.4
8/16/2022 9:30:00 AM 18.04 64.472 0.071 7.32 2.45 8.46
8/16/2022 9:45:00 AM 18.09 64.562 0.07 7.33 2.34 8.51
8/16/2022 10:00:00 AM 18.15 64.67 0.07 7.34 2.26 8.58
8/16/2022 10:15:00 AM 18.21 64.778 0.07 7.35 2.29 8.63
8/16/2022 10:30:00 AM 18.33 64.994 0.07 7.33 2.33 8.7
8/16/2022 10:45:00 AM 18.44 65.192 0.069 7.31 2.53 8.73
8/16/2022 11:00:00 AM 18.57 65.426 0.069 7.29 2.39 8.76
8/16/2022 11:15:00 AM 18.7 65.66 0.069 7.25 2.31 8.79
8/16/2022 11:30:00 AM 18.84 65.912 0.068 7.19 2.32 8.8
8/16/2022 11:45:00 AM 18.99 66.182 0.068 7.2 2.29 8.81
8/16/2022 12:00:00 PM 19.13 66.434 0.068 7.2 2.28 8.78
8/16/2022 12:15:00 PM 19.26 66.668 0.067 7.2 2.37 8.79
8/16/2022 12:30:00 PM 19.38 66.884 0.067 7.21 2.26 8.75
8/16/2022 12:45:00 PM 19.48 67.064 0.067 7.2 2.32 8.72
8/16/2022 1:00:00 PM 19.53 67.154 0.067 7.21 2.38 8.7
8/16/2022 1:15:00 PM 19.62 67.316 0.067 7.22 2.29 8.69
8/16/2022 1:30:00 PM 19.72 67.496 0.067 7.22 2.38 8.71
8/16/2022 1:45:00 PM 19.85 67.73 0.067 7.23 2.27 8.71
8/16/2022 2:00:00 PM 19.99 67.982 0.067 7.25 2.43 8.7
8/16/2022 2:15:00 PM 20.14 68.252 0.067 7.26 2.31 8.72
8/16/2022 2:30:00 PM 20.28 68.504 0.067 7.24 2.28 8.64
8/16/2022 2:45:00 PM 20.52 68.936 0.067 7.24 2.28 8.57
8/16/2022 3:00:00 PM 20.82 69.476 0.067 7.26 2.48 8.52
8/16/2022 3:15:00 PM 21.02 69.836 0.067 7.25 2.29 8.45
8/16/2022 3:30:00 PM 21.26 70.268 0.066 7.25 2.75 8.43
8/16/2022 3:45:00 PM 21.5 70.7 0.066 7.24 2.56 8.4
8/16/2022 4:00:00 PM 21.61 70.898 0.066 7.25 2.4 8.3
8/16/2022 4:15:00 PM 21.61 70.898 0.066 7.26 2.65 8.27
8/16/2022 4:30:00 PM 21.53 70.754 0.066 7.23 2.55 8.23
8/16/2022 4:45:00 PM 21.47 70.646 0.066 7.22 2.51 8.22
8/16/2022 5:00:00 PM 21.37 70.466 0.066 7.2 2.48 8.16
8/16/2022 5:15:00 PM 21.16 70.088 0.066 7.2 3.68 8.06
8/16/2022 5:30:00 PM 21.04 69.872 0.066 7.19 2.79 8
8/16/2022 5:45:00 PM 20.97 69.746 0.067 7.19 3.11 7.91
8/16/2022 6:00:00 PM 20.9 69.62 0.067 7.18 2.76 7.83
8/16/2022 6:15:00 PM 20.82 69.476 0.068 7.19 2.87 7.87
8/16/2022 6:30:00 PM 20.72 69.296 0.068 7.17 2.49 7.84
8/16/2022 6:45:00 PM 20.62 69.116 0.068 7.15 2.36 7.81
8/16/2022 7:00:00 PM 20.53 68.954 0.068 7.14 2.46 7.82
8/16/2022 7:15:00 PM 20.46 68.828 0.068 7.14 2.87 7.81
8/16/2022 7:30:00 PM 20.37 68.666 0.068 7.14 3.13 7.77
8/16/2022 7:45:00 PM 20.28 68.504 0.068 7.12 2.63 7.74
8/16/2022 8:00:00 PM 20.2 68.36 0.068 7.1 2.66 7.72
8/16/2022 8:15:00 PM 20.13 68.234 0.069 7.11 2.5 7.73
8/16/2022 8:30:00 PM 20.06 68.108 0.069 7.1 2.61 7.7
8/16/2022 8:45:00 PM 19.98 67.964 0.069 7.09 2.59 7.7
8/16/2022 9:00:00 PM 19.9 67.82 0.069 7.08 2.98 7.7
8/16/2022 9:15:00 PM 19.84 67.712 0.069 7.08 2.55 7.71
8/16/2022 9:30:00 PM 19.77 67.586 0.07 7.08 2.39 7.7
8/16/2022 9:45:00 PM 19.7 67.46 0.07 7.08 2.38 7.71
8/16/2022 10:00:00 PM 19.63 67.334 0.07 7.07 2.5 7.71
8/16/2022 10:15:00 PM 19.57 67.226 0.07 7.08 2.55 7.73
8/16/2022 10:30:00 PM 19.52 67.136 0.07 7.08 2.53 7.74
8/16/2022 10:45:00 PM 19.45 67.01 0.07 7.07 2.5 7.75
8/16/2022 11:00:00 PM 19.4 66.92 0.07 7.07 2.37 7.77
8/16/2022 11:15:00 PM 19.35 66.83 0.071 7.08 2.37 7.78
8/16/2022 11:30:00 PM 19.28 66.704 0.071 7.08 2.49 7.8
8/16/2022 11:45:00 PM 19.22 66.596 0.071 7.08 2.45 7.83
8/17/2022 12:00:00 AM 19.15 66.47 0.071 7.07 2.39 7.83
8/17/2022 12:15:00 AM 19.1 66.38 0.071 7.09 2.36 7.87
8/17/2022 12:30:00 AM 19.04 66.272 0.071 7.09 2.37 7.87
8/17/2022 12:45:00 AM 18.97 66.146 0.071 7.09 2.34 7.87
8/17/2022 1:00:00 AM 18.91 66.038 0.072 7.09 2.41 7.9
8/17/2022 1:15:00 AM 18.85 65.93 0.072 7.09 2.73 7.91
8/17/2022 1:30:00 AM 18.79 65.82201 0.072 7.08 2.54 7.94
8/17/2022 1:45:00 AM 18.73 65.714 0.072 7.09 2.49 7.97
8/17/2022 2:00:00 AM 18.67 65.606 0.072 7.09 2.36 7.98
8/17/2022 2:15:00 AM 18.62 65.516 0.072 7.09 2.41 7.99
8/17/2022 2:30:00 AM 18.56 65.408 0.072 7.08 2.49 7.99
8/17/2022 2:45:00 AM 18.5 65.3 0.072 7.07 2.52 7.99
8/17/2022 3:00:00 AM 18.43 65.174 0.072 7.07 2.5 8.03
8/17/2022 3:15:00 AM 18.36 65.048 0.072 7.08 2.49 8.05
8/17/2022 3:30:00 AM 18.3 64.94 0.072 7.07 2.43 8.05
8/17/2022 3:45:00 AM 18.25 64.85 0.072 7.05 2.36 8.05
8/17/2022 4:00:00 AM 18.2 64.76 0.072 7.05 2.55 8.06
8/17/2022 4:15:00 AM 18.14 64.652 0.072 7.08 2.49 8.08
8/17/2022 4:30:00 AM 18.09 64.562 0.072 7.08 2.5 8.12
8/17/2022 4:45:00 AM 18.03 64.454 0.072 7.08 2.42 8.13
8/17/2022 5:00:00 AM 17.97 64.346 0.072 7.08 2.47 8.12
8/17/2022 5:15:00 AM 17.91 64.238 0.072 7.07 2.48 8.16
8/17/2022 5:30:00 AM 17.86 64.148 0.072 7.08 2.55 8.18
8/17/2022 5:45:00 AM 17.8 64.04 0.072 7.08 2.49 8.21
8/17/2022 6:00:00 AM 17.75 63.95 0.072 7.08 2.42 8.23
8/17/2022 6:15:00 AM 17.69 63.842 0.072 7.11 2.46 8.26
8/17/2022 6:30:00 AM 17.62 63.716 0.072 7.11 2.41 8.29
8/17/2022 6:45:00 AM 17.59 63.662 0.072 7.11 2.44 8.31
8/17/2022 7:00:00 AM 17.55 63.59 0.072 7.12 2.56 8.36
8/17/2022 7:15:00 AM 17.53 63.554 0.072 7.12 2.57 8.4
8/17/2022 7:30:00 AM 17.52 63.536 0.072 7.15 2.55 8.47
8/17/2022 7:45:00 AM 17.51 63.518 0.071 7.16 2.32 8.52
8/17/2022 8:00:00 AM 17.52 63.536 0.071 7.17 2.34 8.58
8/17/2022 8:15:00 AM 17.55 63.59 0.071 7.17 2.39 8.65
8/17/2022 8:30:00 AM 17.58 63.644 0.071 7.17 2.44 8.69
8/17/2022 8:45:00 AM 17.62 63.716 0.07 7.18 2.38 8.73
8/17/2022 9:00:00 AM 17.67 63.806 0.07 7.19 2.29 8.79
8/17/2022 9:15:00 AM 17.73 63.914 0.07 7.2 2.29 8.82
8/17/2022 9:30:00 AM 17.78 64.004 0.07 7.21 2.32 8.83
8/17/2022 9:45:00 AM 17.84 64.112 0.07 7.22 2.4 8.88
8/17/2022 10:00:00 AM 17.91 64.238 0.069 7.22 2.52 8.89
8/17/2022 10:15:00 AM 17.98 64.364 0.069 7.24 2.34 8.92
8/17/2022 10:30:00 AM 18.08 64.544 0.069 7.25 2.3 8.95
8/17/2022 10:45:00 AM 18.16 64.688 0.069 7.25 2.38 8.95
8/17/2022 11:00:00 AM 18.25 64.85 0.069 7.26 2.42 8.98
8/17/2022 11:15:00 AM 18.38 65.084 0.069 7.28 2.36 9.03
8/17/2022 11:30:00 AM 18.51 65.318 0.068 7.3 2.45 9.03
8/17/2022 11:45:00 AM 18.63 65.534 0.068 7.32 2.41 9.05
8/17/2022 12:00:00 PM 18.76 65.768 0.068 7.35 2.58 9.07
8/17/2022 12:15:00 PM 18.87 65.966 0.068 7.36 2.43 9.04
8/17/2022 12:30:00 PM 18.98 66.164 0.068 7.38 2.65 9.04
8/17/2022 12:45:00 PM 19.09 66.362 0.068 7.4 2.3 9.04
8/17/2022 1:00:00 PM 19.21 66.578 0.068 7.41 2.3 9.05
8/17/2022 1:15:00 PM 19.38 66.884 0.068 7.43 2.25 9.06
8/17/2022 1:30:00 PM 19.58 67.244 0.067 7.43 2.21 9.04
8/17/2022 1:45:00 PM 19.76 67.568 0.067 7.44 2.19 8.96
8/17/2022 2:00:00 PM 19.93 67.874 0.067 7.44 2.2 8.86
8/17/2022 2:15:00 PM 20.09 68.162 0.067 7.42 2.87 8.77
8/17/2022 2:30:00 PM 20.12 68.216 0.067 7.42 2.29 8.67
8/17/2022 2:45:00 PM 20.05 68.09 0.067 7.41 2.45 8.61
8/17/2022 3:00:00 PM 19.96 67.92799 0.068 7.4 2.19 8.54
8/17/2022 3:15:00 PM 19.87 67.766 0.068 7.4 2.36 8.48
8/17/2022 3:30:00 PM 19.77 67.586 0.067 7.38 2.48 8.43
8/17/2022 3:45:00 PM 19.71 67.478 0.067 7.37 2.35 8.39
8/17/2022 4:00:00 PM 19.64 67.352 0.067 7.35 2.26 8.38
8/17/2022 4:15:00 PM 19.57 67.226 0.067 7.34 2.32 8.38
8/17/2022 4:30:00 PM 19.52 67.136 0.066 7.33 2.33 8.38
8/17/2022 4:45:00 PM 19.49 67.082 0.066 7.31 2.54 8.37
8/17/2022 5:00:00 PM 19.49 67.082 0.066 7.33 2.41 8.39
8/17/2022 5:15:00 PM 19.5 67.1 0.066 7.34 2.27 8.42
8/17/2022 5:30:00 PM 19.49 67.082 0.066 7.34 2.43 8.45
8/17/2022 5:45:00 PM 19.47 67.046 0.066 7.32 2.35 8.44
8/17/2022 6:00:00 PM 19.47 67.046 0.066 7.32 2.21 8.44
8/17/2022 6:15:00 PM 19.46 67.028 0.066 7.31 2.31 8.46
8/17/2022 6:30:00 PM 19.44 66.992 0.066 7.31 2.37 8.45
8/17/2022 6:45:00 PM 19.39 66.902 0.066 7.31 2.32 8.44
8/17/2022 7:00:00 PM 19.35 66.83 0.067 7.31 2.6 8.44
8/17/2022 7:15:00 PM 19.3 66.74 0.067 7.31 2.41 8.43
8/17/2022 7:30:00 PM 19.25 66.65 0.067 7.31 2.41 8.42
8/17/2022 7:45:00 PM 19.19 66.542 0.067 7.3 2.62 8.4
8/17/2022 8:00:00 PM 19.12 66.416 0.067 7.3 2.5 8.37
8/17/2022 8:15:00 PM 19.05 66.29 0.068 7.3 2.58 8.35
8/17/2022 8:30:00 PM 18.99 66.182 0.068 7.29 2.76 8.34
8/17/2022 8:45:00 PM 18.92 66.056 0.068 7.28 2.51 8.32
8/17/2022 9:00:00 PM 18.87 65.966 0.068 7.27 2.48 8.31
8/17/2022 9:15:00 PM 18.8 65.84 0.068 7.26 2.47 8.3
8/17/2022 9:30:00 PM 18.74 65.732 0.068 7.25 2.42 8.29
8/17/2022 9:45:00 PM 18.67 65.606 0.068 7.25 2.42 8.3
8/17/2022 10:00:00 PM 18.61 65.498 0.069 7.25 2.38 8.3
8/17/2022 10:15:00 PM 18.54 65.372 0.069 7.25 2.41 8.31
8/17/2022 10:30:00 PM 18.47 65.246 0.069 7.24 2.32 8.32
8/17/2022 10:45:00 PM 18.41 65.138 0.069 7.24 2.41 8.32
8/17/2022 11:00:00 PM 18.37 65.066 0.069 7.24 2.38 8.32
8/17/2022 11:15:00 PM 18.33 64.994 0.069 7.25 2.4 8.33
8/17/2022 11:30:00 PM 18.29 64.922 0.069 7.25 2.46 8.36
8/17/2022 11:45:00 PM 18.24 64.832 0.07 7.26 2.36 8.38
8/18/2022 12:00:00 AM 18.2 64.76 0.07 7.27 2.44 8.42
8/18/2022 12:15:00 AM 18.14 64.652 0.07 7.28 2.64 8.46
8/18/2022 12:30:00 AM 18.08 64.544 0.07 7.29 2.61 8.48
8/18/2022 12:45:00 AM 18.01 64.418 0.07 7.29 2.46 8.51
8/18/2022 1:00:00 AM 17.94 64.292 0.07 7.3 2.59 8.54
8/18/2022 1:15:00 AM 17.87 64.166 0.07 7.29 2.54 8.56
8/18/2022 1:30:00 AM 17.81 64.058 0.07 7.29 2.52 8.58
8/18/2022 1:45:00 AM 17.74 63.932 0.07 7.28 2.48 8.59
8/18/2022 2:00:00 AM 17.67 63.806 0.07 7.29 2.42 8.61
8/18/2022 2:15:00 AM 17.61 63.698 0.07 7.28 2.48 8.62
8/18/2022 2:30:00 AM 17.55 63.59 0.07 7.27 2.55 8.64
8/18/2022 2:45:00 AM 17.49 63.482 0.07 7.29 2.5 8.64
8/18/2022 3:00:00 AM 17.43 63.374 0.07 7.28 2.48 8.65
8/18/2022 3:15:00 AM 17.36 63.248 0.07 7.28 2.36 8.66
8/18/2022 3:30:00 AM 17.3 63.14 0.07 7.26 2.51 8.68
8/18/2022 3:45:00 AM 17.23 63.014 0.07 7.26 2.38 8.7
8/18/2022 4:00:00 AM 17.18 62.924 0.07 7.25 2.46 8.69
8/18/2022 4:15:00 AM 17.12 62.816 0.07 7.25 2.42 8.71
8/18/2022 4:30:00 AM 17.05 62.69 0.07 7.25 2.36 8.72
8/18/2022 4:45:00 AM 16.99 62.582 0.069 7.25 2.46 8.73
8/18/2022 5:00:00 AM 16.93 62.474 0.069 7.24 2.4 8.74
8/18/2022 5:15:00 AM 16.87 62.366 0.069 7.25 2.41 8.76
8/18/2022 5:30:00 AM 16.79 62.222 0.069 7.24 2.4 8.78
8/18/2022 5:45:00 AM 16.73 62.114 0.069 7.23 2.44 8.78
8/18/2022 6:00:00 AM 16.66 61.988 0.069 7.24 2.38 8.79
8/18/2022 6:15:00 AM 16.6 61.88 0.069 7.24 2.49 8.81
8/18/2022 6:30:00 AM 16.54 61.772 0.069 7.23 2.39 8.82
8/18/2022 6:45:00 AM 16.48 61.664 0.069 7.23 2.34 8.83
8/18/2022 7:00:00 AM 16.43 61.574 0.068 7.23 2.48 8.86
8/18/2022 7:15:00 AM 16.38 61.484 0.068 7.21 5.53 8.83
8/18/2022 7:30:00 AM 16.33 61.394 0.068 7.23 2.57 8.9
8/18/2022 7:45:00 AM 16.31 61.358 0.068 7.24 2.49 8.97
8/18/2022 8:00:00 AM 16.29 61.322 0.068 7.26 2.41 9.03
8/18/2022 8:15:00 AM 16.29 61.322 0.068 7.28 2.31 9.1
8/18/2022 8:30:00 AM 16.32 61.376 0.067 7.31 2.32 9.19
8/18/2022 8:45:00 AM 16.35 61.43 0.067 7.32 2.33 9.23
8/18/2022 9:00:00 AM 16.38 61.484 0.067 7.32 2.32 9.23
8/18/2022 9:15:00 AM 16.42 61.556 0.067 7.31 2.32 9.21
8/18/2022 9:30:00 AM 16.47 61.646 0.067 7.33 2.3 9.22
8/18/2022 9:45:00 AM 16.5 61.7 0.066 7.33 2.33 9.2
8/18/2022 10:00:00 AM 16.56 61.808 0.066 7.32 2.26 9.2
8/18/2022 10:15:00 AM 16.65 61.97 0.066 7.32 2.35 9.19
8/18/2022 10:30:00 AM 16.77 62.186 0.066 7.33 2.31 9.19
8/18/2022 10:45:00 AM 16.9 62.42 0.066 7.35 2.37 9.18
8/18/2022 11:00:00 AM 17.04 62.672 0.066 7.35 2.24 9.18
8/18/2022 11:15:00 AM 17.22 62.996 0.065 7.35 2.31 9.18
8/18/2022 11:30:00 AM 17.4 63.32 0.065 7.35 2.29 9.17
8/18/2022 11:45:00 AM 17.57 63.626 0.065 7.34 2.31 9.13
8/18/2022 12:00:00 PM 17.74 63.932 0.065 7.35 2.28 9.1
8/18/2022 12:15:00 PM 18 64.4 0.064 7.38 2.27 9.11
8/18/2022 12:30:00 PM 18.22 64.796 0.064 7.39 2.25 9.07
8/18/2022 12:45:00 PM 18.49 65.282 0.064 7.4 2.24 9.03
8/18/2022 1:00:00 PM 18.73 65.714 0.064 7.41 2.27 8.98
8/18/2022 1:15:00 PM 19.02 66.236 0.064 7.41 2.25 8.9
8/18/2022 1:30:00 PM 19.36 66.848 0.064 7.4 2.31 8.85
8/18/2022 1:45:00 PM 19.71 67.478 0.063 7.4 2.27 8.81
8/18/2022 2:00:00 PM 20.06 68.108 0.063 7.41 2.21 8.77
8/18/2022 2:15:00 PM 20.45 68.81 0.063 7.44 2.28 8.75
8/18/2022 2:30:00 PM 20.87 69.566 0.063 7.44 2.26 8.72
8/18/2022 2:45:00 PM 21.08 69.944 0.063 7.43 2.33 8.61
8/18/2022 3:00:00 PM 21.18 70.124 0.063 7.41 2.32 8.57
8/18/2022 3:15:00 PM 21.23 70.214 0.063 7.4 2.35 8.51
8/18/2022 3:30:00 PM 21.27 70.286 0.063 7.4 2.34 8.53
8/18/2022 3:45:00 PM 21.38 70.484 0.063 7.39 2.3 8.52
8/18/2022 4:00:00 PM 21.41 70.538 0.063 7.39 2.31 8.48
8/18/2022 4:15:00 PM 21.44 70.592 0.063 7.4 2.99 8.45
8/18/2022 4:30:00 PM 21.66 70.988 0.063 7.41 2.54 8.4
8/18/2022 4:45:00 PM 21.81 71.258 0.063 7.4 2.45 8.35
8/18/2022 5:00:00 PM 21.68 71.024 0.064 7.39 2.29 8.22
8/18/2022 5:15:00 PM 21.56 70.808 0.064 7.39 2.4 8.15
8/18/2022 5:30:00 PM 21.51 70.718 0.064 7.39 2.31 8.14
8/18/2022 5:45:00 PM 21.48 70.664 0.064 7.37 2.23 8.16
8/18/2022 6:00:00 PM 21.46 70.628 0.064 7.35 2.27 8.14
8/18/2022 6:15:00 PM 21.44 70.592 0.064 7.34 2.32 8.14
8/18/2022 6:30:00 PM 21.4 70.52 0.064 7.32 2.28 8.11
8/18/2022 6:45:00 PM 21.35 70.43 0.064 7.31 2.52 8.08
8/18/2022 7:00:00 PM 21.29 70.32201 0.064 7.29 2.32 8.06
8/18/2022 7:15:00 PM 21.21 70.17799 0.064 7.29 2.3 8.04
8/18/2022 7:30:00 PM 21.13 70.034 0.065 7.29 2.41 8.01
8/18/2022 7:45:00 PM 21.05 69.89 0.065 7.28 2.31 7.97
8/18/2022 8:00:00 PM 20.97 69.746 0.065 7.27 2.3 7.95
8/18/2022 8:15:00 PM 20.88 69.584 0.065 7.27 2.39 7.92
8/18/2022 8:30:00 PM 20.78 69.404 0.066 7.26 2.38 7.9
8/18/2022 8:45:00 PM 20.69 69.242 0.063 7.25 3.47 7.88
8/18/2022 9:00:00 PM 20.6 69.08 0.066 7.24 2.58 7.87
8/18/2022 9:15:00 PM 20.5 68.9 0.066 7.23 2.47 7.86
8/18/2022 9:30:00 PM 20.41 68.738 0.066 7.22 2.38 7.87
8/18/2022 9:45:00 PM 20.34 68.612 0.067 7.22 2.45 7.86
8/18/2022 10:00:00 PM 20.26 68.468 0.067 7.22 2.42 7.88
8/18/2022 10:15:00 PM 20.16 68.288 0.067 7.21 2.56 7.9
8/18/2022 10:30:00 PM 20.06 68.108 0.067 7.21 2.43 7.92
8/18/2022 10:45:00 PM 19.96 67.92799 0.067 7.2 2.41 7.94
8/18/2022 11:00:00 PM 19.85 67.73 0.067 7.19 2.43 7.95
8/18/2022 11:15:00 PM 19.74 67.532 0.067 7.19 2.37 7.97
8/18/2022 11:30:00 PM 19.64 67.352 0.068 7.2 2.36 8
8/18/2022 11:45:00 PM 19.54 67.172 0.068 7.19 2.56 8.02
8/19/2022 12:00:00 AM 19.43 66.974 0.068 7.2 2.54 8.03
8/19/2022 12:15:00 AM 19.33 66.794 0.068 7.2 2.47 8.07
8/19/2022 12:30:00 AM 19.22 66.596 0.068 7.2 2.55 8.08
8/19/2022 12:45:00 AM 19.11 66.398 0.068 7.19 2.4 8.12
8/19/2022 1:00:00 AM 18.99 66.182 0.068 7.2 2.45 8.15
8/19/2022 1:15:00 AM 18.89 66.002 0.069 7.2 2.44 8.17
8/19/2022 1:30:00 AM 18.78 65.804 0.069 7.2 2.44 8.19
8/19/2022 1:45:00 AM 18.67 65.606 0.069 7.2 2.47 8.23
8/19/2022 2:00:00 AM 18.57 65.426 0.069 7.19 2.49 8.23
8/19/2022 2:15:00 AM 18.47 65.246 0.069 7.19 2.48 8.27
8/19/2022 2:30:00 AM 18.37 65.066 0.069 7.18 2.45 8.29
8/19/2022 2:45:00 AM 18.28 64.904 0.069 7.18 2.45 8.3
8/19/2022 3:00:00 AM 18.2 64.76 0.069 7.17 2.51 8.32
8/19/2022 3:15:00 AM 18.13 64.634 0.069 7.16 2.53 8.34
8/19/2022 3:30:00 AM 18.07 64.526 0.069 7.17 2.53 8.35
8/19/2022 3:45:00 AM 18.01 64.418 0.069 7.18 2.49 8.35
8/19/2022 4:00:00 AM 17.94 64.292 0.069 7.15 2.45 8.37
8/19/2022 4:15:00 AM 17.87 64.166 0.069 7.16 2.69 8.38
8/19/2022 4:30:00 AM 17.8 64.04 0.069 7.15 2.51 8.39
8/19/2022 4:45:00 AM 17.74 63.932 0.069 7.17 2.57 8.41
8/19/2022 5:00:00 AM 17.68 63.824 0.069 7.16 2.48 8.42
8/19/2022 5:15:00 AM 17.61 63.698 0.069 7.16 2.41 8.43
8/19/2022 5:30:00 AM 17.55 63.59 0.069 7.17 2.47 8.45
8/19/2022 5:45:00 AM 17.48 63.464 0.069 7.15 2.37 8.46
8/19/2022 6:00:00 AM 17.41 63.338 0.069 7.15 2.45 8.5
8/19/2022 6:15:00 AM 17.34 63.212 0.069 7.19 2.54 8.5
8/19/2022 6:30:00 AM 17.25 63.05 0.069 7.17 2.45 8.52
8/19/2022 6:45:00 AM 17.18 62.924 0.069 7.15 2.39 8.55
8/19/2022 7:00:00 AM 17.11 62.798 0.069 7.17 2.4 8.58
8/19/2022 7:15:00 AM 17.05 62.69 0.069 7.17 2.41 8.61
8/19/2022 7:30:00 AM 16.99 62.582 0.068 7.2 2.45 8.66
8/19/2022 7:45:00 AM 16.95 62.51 0.068 7.2 2.44 8.71
8/19/2022 8:00:00 AM 16.92 62.456 0.068 7.19 2.4 8.75
8/19/2022 8:15:00 AM 16.91 62.438 0.068 7.2 2.37 8.79
8/19/2022 8:30:00 AM 16.92 62.456 0.068 7.22 2.39 8.81
8/19/2022 8:45:00 AM 16.94 62.492 0.068 7.21 2.33 8.84
8/19/2022 9:00:00 AM 16.99 62.582 0.068 7.23 2.34 8.89
8/19/2022 9:15:00 AM 17.05 62.69 0.067 7.22 2.35 8.89
8/19/2022 9:30:00 AM 17.11 62.798 0.067 7.23 2.33 8.9
8/19/2022 9:45:00 AM 17.18 62.924 0.067 7.23 2.32 8.91
8/19/2022 10:00:00 AM 17.25 63.05 0.067 7.23 2.25 8.91
8/19/2022 10:15:00 AM 17.35 63.23 0.067 7.24 2.32 8.91
8/19/2022 10:30:00 AM 17.45 63.41 0.067 7.24 2.55 8.92
8/19/2022 10:45:00 AM 17.57 63.626 0.067 7.23 2.26 8.9
8/19/2022 11:00:00 AM 17.7 63.86 0.066 7.25 2.38 8.89
8/19/2022 11:15:00 AM 17.86 64.148 0.066 7.26 2.31 8.91
8/19/2022 11:30:00 AM 18.06 64.508 0.066 7.27 2.3 8.92
8/19/2022 11:45:00 AM 18.29 64.922 0.066 7.29 2.46 8.92
8/19/2022 12:00:00 PM 18.51 65.318 0.066 7.3 2.36 8.88
8/19/2022 12:15:00 PM 18.73 65.714 0.066 7.3 2.32 8.86
8/19/2022 12:30:00 PM 18.97 66.146 0.066 7.32 2.33 8.84
8/19/2022 12:45:00 PM 19.26 66.668 0.065 7.33 2.3 8.82
8/19/2022 1:00:00 PM 19.61 67.298 0.065 7.34 2.29 8.8
8/19/2022 1:15:00 PM 19.91 67.838 0.065 7.35 2.39 8.75
8/19/2022 1:30:00 PM 20.2 68.36 0.065 7.35 2.27 8.7
8/19/2022 1:45:00 PM 20.56 69.008 0.065 7.34 2.44 8.65
8/19/2022 2:00:00 PM 20.87 69.566 0.064 7.31 2.28 8.58
8/19/2022 2:15:00 PM 21.24 70.232 0.064 7.31 2.32 8.49
8/19/2022 2:30:00 PM 21.61 70.898 0.064 7.32 2.31 8.4
8/19/2022 2:45:00 PM 21.98 71.564 0.064 7.31 2.31 8.34
8/19/2022 3:00:00 PM 22.33 72.194 0.064 7.32 2.33 8.27
8/19/2022 3:15:00 PM 22.63 72.734 0.064 7.34 2.33 8.22
8/19/2022 3:30:00 PM 22.79 73.022 0.064 7.35 2.29 8.18
8/19/2022 3:45:00 PM 22.92 73.256 0.064 7.32 2.29 8.15
8/19/2022 4:00:00 PM 23.14 73.652 0.064 7.32 2.29 8.13
8/19/2022 4:15:00 PM 23.2 73.76 0.064 7.31 2.24 8.06
8/19/2022 4:30:00 PM 23.29 73.922 0.064 7.32 2.36 8.04
8/19/2022 4:45:00 PM 23.35 74.03 0.065 7.31 2.24 8.04
8/19/2022 5:00:00 PM 23.37 74.066 0.065 7.3 2.29 7.99
8/19/2022 5:15:00 PM 23.27 73.886 0.065 7.28 2.34 7.91
8/19/2022 5:30:00 PM 23.16 73.688 0.065 7.27 2.23 7.86
8/19/2022 5:45:00 PM 23.19 73.742 0.065 7.26 2.28 7.9
8/19/2022 6:00:00 PM 23.23 73.814 0.065 7.26 2.16 7.89
8/19/2022 6:15:00 PM 23.16 73.688 0.065 7.25 2.37 7.85
8/19/2022 6:30:00 PM 23.05 73.49 0.065 7.24 2.33 7.77
8/19/2022 6:45:00 PM 22.93 73.274 0.065 7.24 2.29 7.71
8/19/2022 7:00:00 PM 22.84 73.112 0.066 7.24 2.28 7.68
8/19/2022 7:15:00 PM 22.75 72.95 0.066 7.21 2.32 7.65
8/19/2022 7:30:00 PM 22.64 72.752 0.066 7.2 2.3 7.62
8/19/2022 7:45:00 PM 22.54 72.57201 0.066 7.2 2.52 7.62
8/19/2022 8:00:00 PM 22.41 72.338 0.066 7.18 2.33 7.6
8/19/2022 8:15:00 PM 22.29 72.122 0.067 7.17 4.92 7.52
8/19/2022 8:30:00 PM 22.18 71.924 0.067 7.18 2.84 7.52
8/19/2022 8:45:00 PM 22.05 71.69 0.067 7.16 2.72 7.52
8/19/2022 9:00:00 PM 21.91 71.438 0.067 7.15 2.65 7.53
8/19/2022 9:15:00 PM 21.8 71.24 0.067 7.15 2.57 7.54
8/19/2022 9:30:00 PM 21.7 71.06 0.067 7.14 2.64 7.54
8/19/2022 9:45:00 PM 21.6 70.88 0.067 7.13 2.49 7.56
8/19/2022 10:00:00 PM 21.5 70.7 0.068 7.14 2.61 7.56
8/19/2022 10:15:00 PM 21.39 70.502 0.068 7.13 2.55 7.58
8/19/2022 10:30:00 PM 21.28 70.304 0.068 7.13 2.5 7.61
8/19/2022 10:45:00 PM 21.16 70.088 0.068 7.12 2.4 7.61
8/19/2022 11:00:00 PM 21.05 69.89 0.068 7.12 2.75 7.64
8/19/2022 11:15:00 PM 20.92 69.656 0.068 7.12 2.49 7.67
8/19/2022 11:30:00 PM 20.8 69.44 0.068 7.12 2.57 7.69
8/19/2022 11:45:00 PM 20.68 69.224 0.069 7.13 2.64 7.73
8/20/2022 12:00:00 AM 20.56 69.008 0.069 7.12 2.53 7.75
8/20/2022 12:15:00 AM 20.43 68.774 0.069 7.11 2.42 7.77
8/20/2022 12:30:00 AM 20.3 68.54 0.069 7.12 2.54 7.79
8/20/2022 12:45:00 AM 20.19 68.342 0.069 7.13 2.52 7.83
8/20/2022 1:00:00 AM 20.07 68.126 0.069 7.12 2.45 7.86
8/20/2022 1:15:00 AM 19.94 67.892 0.069 7.11 2.46 7.88
8/20/2022 1:30:00 AM 19.82 67.676 0.07 7.12 2.59 7.9
8/20/2022 1:45:00 AM 19.7 67.46 0.07 7.12 2.59 7.93
8/20/2022 2:00:00 AM 19.59 67.262 0.07 7.11 2.54 7.93
8/20/2022 2:15:00 AM 19.47 67.046 0.07 7.12 2.57 7.97
8/20/2022 2:30:00 AM 19.36 66.848 0.069 7.1 2.53 7.99
8/20/2022 2:45:00 AM 19.24 66.632 0.07 7.1 2.44 8.01
8/20/2022 3:00:00 AM 19.14 66.452 0.07 7.13 2.57 8.05
8/20/2022 3:15:00 AM 19.03 66.254 0.07 7.1 2.49 8.06
8/20/2022 3:30:00 AM 18.92 66.056 0.07 7.1 2.53 8.07
8/20/2022 3:45:00 AM 18.81 65.858 0.07 7.12 2.63 8.11
8/20/2022 4:00:00 AM 18.71 65.67799 0.07 7.1 2.95 8.12
8/20/2022 4:15:00 AM 18.62 65.516 0.07 7.14 2.45 8.14
8/20/2022 4:30:00 AM 18.53 65.354 0.07 7.12 2.45 8.17
8/20/2022 4:45:00 AM 18.41 65.138 0.07 7.1 2.45 8.17
8/20/2022 5:00:00 AM 18.33 64.994 0.07 7.12 2.54 8.18
8/20/2022 5:15:00 AM 18.24 64.832 0.07 7.1 2.46 8.2
8/20/2022 5:30:00 AM 18.15 64.67 0.07 7.12 2.82 8.21
8/20/2022 5:45:00 AM 18.06 64.508 0.07 7.1 2.61 8.23
8/20/2022 6:00:00 AM 17.96 64.328 0.07 7.11 2.87 8.25
8/20/2022 6:15:00 AM 17.86 64.148 0.07 7.09 2.45 8.28
8/20/2022 6:30:00 AM 17.78 64.004 0.07 7.13 2.56 8.3
8/20/2022 6:45:00 AM 17.69 63.842 0.07 7.11 2.61 8.32
8/20/2022 7:00:00 AM 17.62 63.716 0.07 7.1 2.52 8.36
8/20/2022 7:15:00 AM 17.57 63.626 0.07 7.11 2.54 8.4
8/20/2022 7:30:00 AM 17.53 63.554 0.07 7.13 2.6 8.44
8/20/2022 7:45:00 AM 17.51 63.518 0.07 7.12 2.44 8.5
8/20/2022 8:00:00 AM 17.53 63.554 0.07 7.14 2.41 8.56
8/20/2022 8:15:00 AM 17.55 63.59 0.069 7.14 2.56 8.63
8/20/2022 8:30:00 AM 17.58 63.644 0.069 7.16 2.52 8.64
8/20/2022 8:45:00 AM 17.61 63.698 0.069 7.15 2.41 8.63
8/20/2022 9:00:00 AM 17.65 63.77 0.069 7.15 2.57 8.66
8/20/2022 9:15:00 AM 17.73 63.914 0.069 7.17 2.58 8.68
8/20/2022 9:30:00 AM 17.84 64.112 0.068 7.18 2.51 8.7
8/20/2022 9:45:00 AM 17.93 64.274 0.068 7.18 2.43 8.72
8/20/2022 10:00:00 AM 18.02 64.436 0.068 7.17 2.65 8.71
8/20/2022 10:15:00 AM 18.11 64.598 0.068 7.17 2.51 8.71
8/20/2022 10:30:00 AM 18.22 64.796 0.068 7.17 2.41 8.68
8/20/2022 10:45:00 AM 18.34 65.012 0.068 7.18 2.42 8.67
8/20/2022 11:00:00 AM 18.49 65.282 0.068 7.19 2.39 8.69
8/20/2022 11:15:00 AM 18.67 65.606 0.067 7.18 2.56 8.75
8/20/2022 11:30:00 AM 18.86 65.948 0.067 7.2 2.36 8.79
8/20/2022 11:45:00 AM 19.04 66.272 0.067 7.21 2.35 8.81
8/20/2022 12:00:00 PM 19.25 66.65 0.067 7.23 2.33 8.81
8/20/2022 12:15:00 PM 19.44 66.992 0.067 7.24 2.41 8.8
8/20/2022 12:30:00 PM 19.6 67.28 0.066 7.24 2.33 8.75
8/20/2022 12:45:00 PM 19.77 67.586 0.067 7.26 2.32 8.72
8/20/2022 1:00:00 PM 20.03 68.054 0.066 7.28 2.37 8.76
8/20/2022 1:15:00 PM 20.22 68.396 0.066 7.27 2.4 8.67
8/20/2022 1:30:00 PM 20.46 68.828 0.066 7.28 2.4 8.66
8/20/2022 1:45:00 PM 20.78 69.404 0.066 7.28 2.44 8.61
8/20/2022 2:00:00 PM 21.07 69.926 0.066 7.27 2.49 8.54
8/20/2022 2:15:00 PM 21.36 70.448 0.066 7.29 2.45 8.51
8/20/2022 2:30:00 PM 21.56 70.808 0.065 7.26 2.48 8.42
8/20/2022 2:45:00 PM 21.76 71.168 0.065 7.25 2.46 8.39
8/20/2022 3:00:00 PM 21.95 71.51 0.065 7.25 2.47 8.32
8/20/2022 3:15:00 PM 22.21 71.978 0.065 7.27 2.35 8.3
8/20/2022 3:30:00 PM 22.35 72.23 0.065 7.25 2.46 8.28
8/20/2022 3:45:00 PM 22.48 72.464 0.065 7.24 2.47 8.24
8/20/2022 4:00:00 PM 22.63 72.734 0.065 7.27 2.43 8.26
8/20/2022 4:15:00 PM 22.71 72.878 0.065 7.27 2.39 8.21
8/20/2022 4:30:00 PM 22.78 73.004 0.065 7.26 2.43 8.15
8/20/2022 4:45:00 PM 22.77 72.986 0.065 7.27 2.32 8.13
8/20/2022 5:00:00 PM 22.86 73.148 0.065 7.25 2.31 8.06
8/20/2022 5:15:00 PM 22.86 73.148 0.065 7.25 2.43 8.01
8/20/2022 5:30:00 PM 22.87 73.166 0.065 7.23 2.38 7.99
8/20/2022 5:45:00 PM 22.9 73.22 0.065 7.23 2.43 7.95
8/20/2022 6:00:00 PM 22.84 73.112 0.065 7.23 2.41 7.92
8/20/2022 6:15:00 PM 22.79 73.022 0.066 7.22 2.42 7.87
8/20/2022 6:30:00 PM 22.71 72.878 0.066 7.21 2.32 7.8
8/20/2022 6:45:00 PM 22.6 72.68 0.066 7.21 2.41 7.73
8/20/2022 7:00:00 PM 22.54 72.57201 0.066 7.2 2.8 7.7
8/20/2022 7:15:00 PM 22.49 72.482 0.066 7.19 2.44 7.68
8/20/2022 7:30:00 PM 22.47 72.446 0.067 7.17 2.43 7.64
8/20/2022 7:45:00 PM 22.44 72.392 0.067 7.16 2.39 7.6
8/20/2022 8:00:00 PM 22.4 72.32 0.067 7.15 2.47 7.55
8/20/2022 8:15:00 PM 22.35 72.23 0.067 7.14 2.43 7.51
8/20/2022 8:30:00 PM 22.28 72.104 0.067 7.13 2.43 7.47
8/20/2022 8:45:00 PM 22.19 71.942 0.068 7.11 2.57 7.44
8/20/2022 9:00:00 PM 22.09 71.762 0.068 7.12 2.62 7.43
8/20/2022 9:15:00 PM 21.98 71.564 0.068 7.11 2.78 7.42
8/20/2022 9:30:00 PM 21.87 71.366 0.068 7.1 2.64 7.42
8/20/2022 9:45:00 PM 21.78 71.204 0.068 7.1 2.63 7.43
8/20/2022 10:00:00 PM 21.68 71.024 0.066 7.1 2.57 7.44
8/20/2022 10:15:00 PM 21.58 70.844 0.068 7.08 2.53 7.45
8/20/2022 10:30:00 PM 21.49 70.682 0.068 7.08 2.54 7.46
8/20/2022 10:45:00 PM 21.39 70.502 0.068 7.08 2.84 7.49
8/20/2022 11:00:00 PM 21.3 70.34 0.069 7.07 2.5 7.48
8/20/2022 11:15:00 PM 21.21 70.17799 0.069 7.07 2.56 7.5
8/20/2022 11:30:00 PM 21.11 69.998 0.069 7.06 2.61 7.52
8/20/2022 11:45:00 PM 21.01 69.818 0.069 7.07 2.59 7.52
8/21/2022 12:00:00 AM 20.92 69.656 0.069 7.08 2.51 7.54
8/21/2022 12:15:00 AM 20.82 69.476 0.069 7.07 2.54 7.57
8/21/2022 12:30:00 AM 20.73 69.314 0.069 7.07 2.56 7.58
8/21/2022 12:45:00 AM 20.63 69.134 0.069 7.07 2.68 7.61
8/21/2022 1:00:00 AM 20.53 68.954 0.07 7.08 2.51 7.64
8/21/2022 1:15:00 AM 20.44 68.792 0.07 7.08 2.49 7.64
8/21/2022 1:30:00 AM 20.34 68.612 0.07 7.06 2.48 7.66
8/21/2022 1:45:00 AM 20.26 68.468 0.07 7.06 2.57 7.69
8/21/2022 2:00:00 AM 20.16 68.288 0.07 7.07 2.71 7.69
8/21/2022 2:15:00 AM 20.06 68.108 0.07 7.07 2.77 7.7
8/21/2022 2:30:00 AM 19.99 67.982 0.07 7.06 2.63 7.72
8/21/2022 2:45:00 AM 19.91 67.838 0.071 7.06 2.64 7.73
8/21/2022 3:00:00 AM 19.83 67.694 0.071 7.06 2.54 7.76
8/21/2022 3:15:00 AM 19.76 67.568 0.071 7.04 3.1 7.74
8/21/2022 3:30:00 AM 19.7 67.46 0.071 7.08 2.68 7.79
8/21/2022 3:45:00 AM 19.64 67.352 0.071 7.08 2.58 7.81
8/21/2022 4:00:00 AM 19.57 67.226 0.071 7.06 2.52 7.81
8/21/2022 4:15:00 AM 19.5 67.1 0.071 7.05 2.54 7.8
8/21/2022 4:30:00 AM 19.44 66.992 0.071 7.05 2.45 7.81
8/21/2022 4:45:00 AM 19.39 66.902 0.071 7.05 2.58 7.82
8/21/2022 5:00:00 AM 19.34 66.812 0.071 7.05 2.6 7.84
8/21/2022 5:15:00 AM 19.29 66.722 0.071 7.05 2.43 7.86
8/21/2022 5:30:00 AM 19.24 66.632 0.071 7.05 3.15 7.86
8/21/2022 5:45:00 AM 19.18 66.524 0.071 7.05 2.81 7.86
8/21/2022 6:00:00 AM 19.13 66.434 0.071 7.05 2.51 7.86
8/21/2022 6:15:00 AM 19.08 66.344 0.071 7.05 2.64 7.89
8/21/2022 6:30:00 AM 19.03 66.254 0.071 7.04 2.65 7.91
8/21/2022 6:45:00 AM 18.99 66.182 0.071 7.05 2.5 7.92
8/21/2022 7:00:00 AM 18.95 66.11 0.071 7.04 2.63 7.92
8/21/2022 7:15:00 AM 18.92 66.056 0.071 7.04 2.56 7.94
8/21/2022 7:30:00 AM 18.91 66.038 0.071 7.05 2.69 8.01
8/21/2022 7:45:00 AM 18.91 66.038 0.071 7.09 2.48 8.08
8/21/2022 8:00:00 AM 18.92 66.056 0.071 7.07 2.58 8.13
8/21/2022 8:15:00 AM 18.92 66.056 0.07 7.09 2.55 8.15
8/21/2022 8:30:00 AM 18.92 66.056 0.07 7.09 2.53 8.2
8/21/2022 8:45:00 AM 18.95 66.11 0.07 7.1 2.48 8.24
8/21/2022 9:00:00 AM 18.99 66.182 0.07 7.1 2.5 8.32
8/21/2022 9:15:00 AM 19.06 66.308 0.07 7.11 2.56 8.32
8/21/2022 9:30:00 AM 19.1 66.38 0.069 7.11 2.58 8.35
8/21/2022 9:45:00 AM 19.16 66.488 0.069 7.12 2.48 8.33
8/21/2022 10:00:00 AM 19.24 66.632 0.069 7.14 2.37 8.39
8/21/2022 10:15:00 AM 19.38 66.884 0.069 7.16 2.49 8.47
8/21/2022 10:30:00 AM 19.53 67.154 0.069 7.15 2.35 8.48
8/21/2022 10:45:00 AM 19.67 67.406 0.068 7.15 2.44 8.47
8/21/2022 11:00:00 AM 19.75 67.55 0.068 7.14 2.48 8.42
8/21/2022 11:15:00 AM 19.83 67.694 0.068 7.14 2.49 8.44
8/21/2022 11:30:00 AM 20 68 0.068 7.17 2.41 8.49
8/21/2022 11:45:00 AM 20.19 68.342 0.067 7.18 2.44 8.52
8/21/2022 12:00:00 PM 20.4 68.72 0.068 7.21 2.48 8.54
8/21/2022 12:15:00 PM 20.57 69.026 0.068 7.22 2.39 8.53
8/21/2022 12:30:00 PM 20.7 69.26 0.067 7.23 2.47 8.54
8/21/2022 12:45:00 PM 20.86 69.548 0.067 7.24 2.49 8.55
8/21/2022 1:00:00 PM 21.02 69.836 0.067 7.25 2.47 8.54
8/21/2022 1:15:00 PM 21.12 70.016 0.067 7.25 2.48 8.45
8/21/2022 1:30:00 PM 21.11 69.998 0.067 7.24 2.56 8.31
8/21/2022 1:45:00 PM 21.04 69.872 0.067 7.24 2.56 8.18
8/21/2022 2:00:00 PM 20.96 69.728 0.067 7.21 3.04 8.08
8/21/2022 2:15:00 PM 20.9 69.62 0.066 7.21 3.22 8.03
8/21/2022 2:30:00 PM 20.86 69.548 0.066 7.21 2.64 8.03
8/21/2022 2:45:00 PM 20.87 69.566 0.066 7.21 2.74 8.04
8/21/2022 3:00:00 PM 20.94 69.692 0.066 7.23 2.43 8.18
8/21/2022 3:15:00 PM 21.07 69.926 0.066 7.25 2.44 8.29
8/21/2022 3:30:00 PM 21.21 70.17799 0.065 7.23 2.49 8.32
8/21/2022 3:45:00 PM 21.37 70.466 0.065 7.23 2.44 8.36
8/21/2022 4:00:00 PM 21.57 70.826 0.065 7.25 2.35 8.34
8/21/2022 4:15:00 PM 21.64 70.952 0.065 7.23 2.44 8.29
8/21/2022 4:30:00 PM 21.74 71.132 0.065 7.19 2.47 8.23
8/21/2022 4:45:00 PM 21.8 71.24 0.065 7.21 2.45 8.2
8/21/2022 5:00:00 PM 21.94 71.492 0.065 7.25 2.48 8.2
8/21/2022 5:15:00 PM 22.1 71.78 0.065 7.25 2.44 8.2
8/21/2022 5:30:00 PM 22.23 72.014 0.065 7.24 2.42 8.14
8/21/2022 5:45:00 PM 22.24 72.032 0.066 7.26 2.41 8.06
8/21/2022 6:00:00 PM 22.05 71.69 0.066 7.24 2.37 7.93
8/21/2022 6:15:00 PM 21.97 71.546 0.066 7.23 2.45 7.9
8/21/2022 6:30:00 PM 21.86 71.348 0.066 7.2 2.49 7.87
8/21/2022 6:45:00 PM 21.81 71.258 0.066 7.18 2.42 7.84
8/21/2022 7:00:00 PM 21.77 71.186 0.067 7.18 2.36 7.81
8/21/2022 7:15:00 PM 21.74 71.132 0.067 7.18 2.34 7.77
8/21/2022 7:30:00 PM 21.71 71.078 0.067 7.18 2.45 7.73
8/21/2022 7:45:00 PM 21.69 71.042 0.067 7.19 2.48 7.71
8/21/2022 8:00:00 PM 21.65 70.97 0.068 7.17 2.63 7.68
8/21/2022 8:15:00 PM 21.58 70.844 0.068 7.17 2.63 7.67
8/21/2022 8:30:00 PM 21.52 70.736 0.068 7.16 2.8 7.64
8/21/2022 8:45:00 PM 21.48 70.664 0.068 7.15 2.68 7.63
8/21/2022 9:00:00 PM 21.44 70.592 0.068 7.13 2.79 7.62
8/21/2022 9:15:00 PM 21.4 70.52 0.068 7.12 2.66 7.6
8/21/2022 9:30:00 PM 21.36 70.448 0.068 7.12 2.57 7.59
8/21/2022 9:45:00 PM 21.33 70.394 0.068 7.11 2.63 7.59
8/21/2022 10:00:00 PM 21.29 70.32201 0.068 7.11 2.55 7.6
8/21/2022 10:15:00 PM 21.26 70.268 0.068 7.11 2.74 7.61
8/21/2022 10:30:00 PM 21.22 70.196 0.069 7.11 2.68 7.6
8/21/2022 10:45:00 PM 21.18 70.124 0.069 7.1 2.85 7.59
8/21/2022 11:00:00 PM 21.15 70.07 0.069 7.11 2.97 7.6
8/21/2022 11:15:00 PM 21.1 69.98 0.069 7.1 2.59 7.61
8/21/2022 11:30:00 PM 21.07 69.926 0.069 7.11 2.59 7.61
8/21/2022 11:45:00 PM 21.03 69.854 0.069 7.11 2.58 7.61
8/22/2022 12:00:00 AM 20.99 69.782 0.069 7.11 2.59 7.63
8/22/2022 12:15:00 AM 20.95 69.71 0.07 7.11 2.67 7.64
8/22/2022 12:30:00 AM 20.91 69.638 0.07 7.11 2.59 7.63
8/22/2022 12:45:00 AM 20.88 69.584 0.07 7.11 2.57 7.66
8/22/2022 1:00:00 AM 20.85 69.53 0.07 7.11 2.69 7.67
8/22/2022 1:15:00 AM 20.82 69.476 0.07 7.12 2.58 7.69
8/22/2022 1:30:00 AM 20.78 69.404 0.07 7.12 2.69 7.71
8/22/2022 1:45:00 AM 20.74 69.332 0.07 7.12 2.62 7.73
8/22/2022 2:00:00 AM 20.71 69.278 0.07 7.12 2.68 7.72
8/22/2022 2:15:00 AM 20.66 69.188 0.071 7.13 2.67 7.73
8/22/2022 2:30:00 AM 20.62 69.116 0.071 7.12 2.73 7.75
8/22/2022 2:45:00 AM 20.59 69.062 0.071 7.13 2.6 7.76
8/22/2022 3:00:00 AM 20.55 68.99 0.056 7.13 2.72 7.76
8/22/2022 3:15:00 AM 20.5 68.9 0.071 7.12 2.6 7.75
8/22/2022 3:30:00 AM 20.46 68.828 0.071 7.12 2.65 7.78
8/22/2022 3:45:00 AM 20.41 68.738 0.071 7.12 2.71 7.78
8/22/2022 4:00:00 AM 20.37 68.666 0.071 7.13 2.78 7.79
8/22/2022 4:15:00 AM 20.34 68.612 0.071 7.13 2.66 7.81
8/22/2022 4:30:00 AM 20.31 68.558 0.071 7.13 2.82 7.82
8/22/2022 4:45:00 AM 20.27 68.486 0.071 7.13 2.68 7.82
8/22/2022 5:00:00 AM 20.24 68.432 0.071 7.13 2.89 7.82
8/22/2022 5:15:00 AM 20.21 68.378 0.071 7.13 2.69 7.85
8/22/2022 5:30:00 AM 20.18 68.324 0.071 7.13 2.69 7.86
8/22/2022 5:45:00 AM 20.14 68.252 0.071 7.13 2.74 7.87
8/22/2022 6:00:00 AM 20.12 68.216 0.071 7.13 2.72 7.89
8/22/2022 6:15:00 AM 20.09 68.162 0.071 7.14 2.78 7.89
8/22/2022 6:30:00 AM 20.05 68.09 0.071 7.14 2.92 7.89
8/22/2022 6:45:00 AM 20.02 68.036 0.071 7.14 2.78 7.91
8/22/2022 7:00:00 AM 19.99 67.982 0.071 7.14 2.75 7.92
8/22/2022 7:15:00 AM 19.98 67.964 0.07 7.15 2.76 7.97
8/22/2022 7:30:00 AM 19.97 67.946 0.071 7.16 2.72 8.02
8/22/2022 7:45:00 AM 19.97 67.946 0.071 7.16 2.66 8.07
8/22/2022 8:00:00 AM 19.97 67.946 0.071 7.17 2.78 8.12
8/22/2022 8:15:00 AM 19.97 67.946 0.07 7.17 2.81 8.16
8/22/2022 8:30:00 AM 20 68 0.07 7.18 2.72 8.24
8/22/2022 8:45:00 AM 20.05 68.09 0.07 7.2 2.7 8.31
8/22/2022 9:00:00 AM 20.09 68.162 0.07 7.2 2.68 8.34
8/22/2022 9:15:00 AM 20.14 68.252 0.069 7.21 2.66 8.37
8/22/2022 9:30:00 AM 20.19 68.342 0.069 7.21 2.78 8.4
8/22/2022 9:45:00 AM 20.26 68.468 0.069 7.22 2.6 8.44
8/22/2022 10:00:00 AM 20.33 68.594 0.069 7.26 2.72 8.46
8/22/2022 10:15:00 AM 20.37 68.666 0.069 7.27 2.76 8.47
8/22/2022 10:30:00 AM 20.41 68.738 0.069 7.28 2.58 8.47
8/22/2022 10:45:00 AM 20.47 68.846 0.068 7.29 2.57 8.52
8/22/2022 11:00:00 AM 20.56 69.008 0.068 7.32 2.71 8.57
8/22/2022 11:15:00 AM 20.6 69.08 0.068 7.32 2.75 8.53
8/22/2022 11:30:00 AM 20.62 69.116 0.068 7.32 2.54 8.51
8/22/2022 11:45:00 AM 20.67 69.206 0.068 7.32 2.73 8.54
8/22/2022 12:00:00 PM 20.75 69.35 0.068 7.33 2.64 8.57
8/22/2022 12:15:00 PM 20.86 69.548 0.067 7.34 2.63 8.61
8/22/2022 12:30:00 PM 21.02 69.836 0.067 7.35 2.6 8.61
8/22/2022 12:45:00 PM 21.17 70.106 0.067 7.35 2.61 8.56
8/22/2022 1:00:00 PM 21.42 70.556 0.067 7.36 2.62 8.55
8/22/2022 1:15:00 PM 21.78 71.204 0.066 7.37 4.22 8.55
8/22/2022 1:30:00 PM 22.09 71.762 0.066 7.38 2.75 8.48
8/22/2022 1:45:00 PM 22.27 72.086 0.066 7.37 2.67 8.36
8/22/2022 2:00:00 PM 22.36 72.248 0.066 7.36 2.64 8.28
8/22/2022 2:15:00 PM 22.43 72.374 0.066 7.36 2.61 8.28
8/22/2022 2:30:00 PM 22.47 72.446 0.066 7.37 2.6 8.29
8/22/2022 2:45:00 PM 22.53 72.554 0.066 7.38 2.71 8.34
8/22/2022 3:00:00 PM 22.56 72.608 0.066 7.37 2.62 8.3
8/22/2022 3:15:00 PM 22.56 72.608 0.066 7.36 2.62 8.23
8/22/2022 3:30:00 PM 22.67 72.806 0.066 7.38 2.63 8.27
8/22/2022 3:45:00 PM 22.74 72.932 0.066 7.38 2.7 8.2
8/22/2022 4:00:00 PM 22.78 73.004 0.066 7.37 2.62 8.18
8/22/2022 4:15:00 PM 22.84 73.112 0.066 7.38 2.63 8.22
8/22/2022 4:30:00 PM 23 73.4 0.066 7.37 2.69 8.17
8/22/2022 4:45:00 PM 23.09 73.562 0.066 7.38 2.55 8.14
8/22/2022 5:00:00 PM 23.11 73.598 0.066 7.37 2.62 8.09
8/22/2022 5:15:00 PM 23.12 73.616 0.066 7.36 2.66 8.07
8/22/2022 5:30:00 PM 23.09 73.562 0.065 7.34 2.69 8.01
8/22/2022 5:45:00 PM 23.07 73.526 0.066 7.34 2.61 7.98
8/22/2022 6:00:00 PM 23.12 73.616 0.066 7.33 2.6 7.98
8/22/2022 6:15:00 PM 23.11 73.598 0.066 7.33 2.59 7.9
8/22/2022 6:30:00 PM 23.06 73.508 0.066 7.31 2.6 7.84
8/22/2022 6:45:00 PM 22.99 73.382 0.066 7.28 2.62 7.75
8/22/2022 7:00:00 PM 22.93 73.274 0.067 7.27 2.57 7.66
8/22/2022 7:15:00 PM 22.87 73.166 0.067 7.25 2.69 7.6
8/22/2022 7:30:00 PM 22.77 72.986 0.067 7.24 2.75 7.57
8/22/2022 7:45:00 PM 22.65 72.77 0.067 7.24 3.53 7.54
8/22/2022 8:00:00 PM 22.51 72.518 0.067 7.23 2.96 7.54
8/22/2022 8:15:00 PM 22.39 72.302 0.067 7.22 2.76 7.53
8/22/2022 8:30:00 PM 22.27 72.086 0.068 7.2 2.76 7.52
8/22/2022 8:45:00 PM 22.15 71.87 0.068 7.2 3.04 7.52
8/22/2022 9:00:00 PM 22.03 71.654 0.068 7.2 2.99 7.53
8/22/2022 9:15:00 PM 21.94 71.492 0.068 7.2 3.05 7.55
8/22/2022 9:30:00 PM 21.84 71.312 0.068 7.19 3.03 7.58
8/22/2022 9:45:00 PM 21.72 71.096 0.069 7.18 2.89 7.6
8/22/2022 10:00:00 PM 21.62 70.916 0.069 7.18 2.89 7.6
8/22/2022 10:15:00 PM 21.51 70.718 0.069 7.15 4.17 7.61
8/22/2022 10:30:00 PM 21.39 70.502 0.069 7.13 3.02 7.6
8/22/2022 10:45:00 PM 21.3 70.34 0.069 7.15 2.86 7.62
8/22/2022 11:00:00 PM 21.23 70.214 0.069 7.14 3.11 7.65
8/22/2022 11:15:00 PM 21.16 70.088 0.066 7.17 3.92 7.69
8/22/2022 11:30:00 PM 21.08 69.944 0.067 7.17 3.88 7.71
8/22/2022 11:45:00 PM 20.99 69.782 0.07 7.17 2.93 7.73
8/23/2022 12:00:00 AM 20.91 69.638 0.07 7.18 2.91 7.76
8/23/2022 12:15:00 AM 20.83 69.494 0.069 7.16 2.95 7.78
8/23/2022 12:30:00 AM 20.75 69.35 0.067 7.2 3.77 7.8
8/23/2022 12:45:00 AM 20.69 69.242 0.064 7.17 3.01 7.82
8/23/2022 1:00:00 AM 20.63 69.134 0.07 7.19 4.03 7.84
8/23/2022 1:15:00 AM 20.56 69.008 0.07 7.2 2.95 7.86
8/23/2022 1:30:00 AM 20.49 68.882 0.071 7.21 3.23 7.88
8/23/2022 1:45:00 AM 20.46 68.828 0.071 7.28 7.17 8
8/23/2022 2:00:00 AM 20.41 68.738 0.071 7.31 6.85 8.1
8/23/2022 2:15:00 AM 20.33 68.594 0.071 7.3 5.35 8.13
8/23/2022 2:30:00 AM 20.25 68.45 0.071 7.3 5.16 8.16
8/23/2022 2:45:00 AM 20.17 68.306 0.071 7.31 4.5 8.18
8/23/2022 3:00:00 AM 20.11 68.198 0.071 7.31 4.66 8.21
8/23/2022 3:15:00 AM 20.05 68.09 0.071 7.31 4.3 8.23
8/23/2022 3:30:00 AM 20.01 68.018 0.071 7.3 4.24 8.24
8/23/2022 3:45:00 AM 19.97 67.946 0.07 7.3 4.18 8.26
8/23/2022 4:00:00 AM 19.93 67.874 0.07 7.31 4.23 8.26
8/23/2022 4:15:00 AM 19.89 67.802 0.07 7.31 4.09 8.26
8/23/2022 4:30:00 AM 19.86 67.748 0.07 7.31 4.04 8.28
8/23/2022 4:45:00 AM 19.82 67.676 0.07 7.33 4 8.28
8/23/2022 5:00:00 AM 19.79 67.622 0.07 7.31 3.95 8.28
8/23/2022 5:15:00 AM 19.76 67.568 0.069 7.3 3.81 8.29
8/23/2022 5:30:00 AM 19.72 67.496 0.069 7.29 3.99 8.3
8/23/2022 5:45:00 AM 19.68 67.424 0.069 7.32 3.91 8.3
8/23/2022 6:00:00 AM 19.63 67.334 0.069 7.3 3.98 8.31
8/23/2022 6:15:00 AM 19.6 67.28 0.069 7.31 4.05 8.31
8/23/2022 6:30:00 AM 19.57 67.226 0.068 7.29 3.88 8.31
8/23/2022 6:45:00 AM 19.56 67.208 0.068 7.29 4.03 8.31
8/23/2022 7:00:00 AM 19.53 67.154 0.068 7.3 3.96 8.33
8/23/2022 7:15:00 AM 19.51 67.118 0.068 7.29 3.69 8.36
8/23/2022 7:30:00 AM 19.5 67.1 0.068 7.3 3.63 8.4
8/23/2022 7:45:00 AM 19.5 67.1 0.068 7.3 3.58 8.46
8/23/2022 8:00:00 AM 19.52 67.136 0.067 7.33 3.49 8.51
8/23/2022 8:15:00 AM 19.53 67.154 0.067 7.33 3.59 8.52
8/23/2022 8:30:00 AM 19.55 67.19 0.067 7.35 3.84 8.55
8/23/2022 8:45:00 AM 19.58 67.244 0.067 7.34 4 8.59
8/23/2022 9:00:00 AM 19.65 67.37 0.067 7.37 3.05 8.66
8/23/2022 9:15:00 AM 19.69 67.442 0.067 7.37 3.06 8.69
8/23/2022 9:30:00 AM 19.76 67.568 0.066 7.39 2.93 8.69
8/23/2022 9:45:00 AM 19.8 67.64 0.066 7.38 2.97 8.67
8/23/2022 10:00:00 AM 19.89 67.802 0.066 7.39 2.83 8.7
8/23/2022 10:15:00 AM 19.93 67.874 0.066 7.4 2.91 8.71
8/23/2022 10:30:00 AM 20.01 68.018 0.066 7.4 2.78 8.73
8/23/2022 10:45:00 AM 20.09 68.162 0.065 7.41 2.95 8.72
8/23/2022 11:00:00 AM 20.2 68.36 0.065 7.42 2.82 8.74
8/23/2022 11:15:00 AM 20.32 68.576 0.065 7.44 2.76 8.76
8/23/2022 11:30:00 AM 20.4 68.72 0.065 7.45 2.72 8.71
8/23/2022 11:45:00 AM 20.53 68.954 0.065 7.45 2.69 8.73
8/23/2022 12:00:00 PM 20.63 69.134 0.064 7.45 2.72 8.71
8/23/2022 12:15:00 PM 20.78 69.404 0.064 7.47 2.73 8.71
8/23/2022 12:30:00 PM 20.68 69.224 0.061 7.44 3.65 8.6
8/23/2022 12:45:00 PM 20.73 69.314 0.062 7.45 3.5 8.6
8/23/2022 1:00:00 PM 20.74 69.332 0.062 7.44 3.02 8.63
8/23/2022 1:15:00 PM 20.89 69.602 0.062 7.46 2.82 8.67
8/23/2022 1:30:00 PM 21.2 70.16 0.061 7.46 2.79 8.66
8/23/2022 1:45:00 PM 21.62 70.916 0.061 7.47 2.75 8.61
8/23/2022 2:00:00 PM 21.94 71.492 0.061 7.46 2.96 8.51
8/23/2022 2:15:00 PM 22.16 71.888 0.061 7.46 2.89 8.47
8/23/2022 2:30:00 PM 22.41 72.338 0.061 7.49 2.88 8.5
8/23/2022 2:45:00 PM 22.47 72.446 0.061 7.49 2.79 8.44
8/23/2022 3:00:00 PM 22.62 72.716 0.061 7.5 2.88 8.44
8/23/2022 3:15:00 PM 22.7 72.86 0.061 7.45 2.86 8.42
8/23/2022 3:30:00 PM 22.76 72.968 0.061 7.43 2.84 8.36
8/23/2022 3:45:00 PM 22.85 73.13 0.061 7.48 2.85 8.36
8/23/2022 4:00:00 PM 22.9 73.22 0.061 7.52 2.81 8.34
8/23/2022 4:15:00 PM 22.9 73.22 0.061 7.52 2.81 8.32
8/23/2022 4:30:00 PM 22.9 73.22 0.061 7.49 2.84 8.28
8/23/2022 4:45:00 PM 22.98 73.364 0.061 7.47 2.87 8.29
8/23/2022 5:00:00 PM 22.88 73.184 0.061 7.45 2.93 8.21
8/23/2022 5:15:00 PM 22.83 73.094 0.061 7.42 2.86 8.18
8/23/2022 5:30:00 PM 22.86 73.148 0.061 7.41 2.84 8.16
8/23/2022 5:45:00 PM 22.81 73.058 0.061 7.39 2.87 8.07
8/23/2022 6:00:00 PM 22.84 73.112 0.061 7.4 2.79 8.08
8/23/2022 6:15:00 PM 22.86 73.148 0.061 7.41 2.74 8.05
8/23/2022 6:30:00 PM 22.83 73.094 0.062 7.37 2.72 8
8/23/2022 6:45:00 PM 22.8 73.04 0.062 7.38 2.67 7.96
8/23/2022 7:00:00 PM 22.75 72.95 0.062 7.34 2.66 7.91
8/23/2022 7:15:00 PM 22.69 72.842 0.062 7.34 2.67 7.87
8/23/2022 7:30:00 PM 22.63 72.734 0.062 7.32 2.72 7.83
8/23/2022 7:45:00 PM 22.54 72.57201 0.062 7.31 2.71 7.8
8/23/2022 8:00:00 PM 22.44 72.392 0.063 7.3 2.7 7.77
8/23/2022 8:15:00 PM 22.35 72.23 0.063 7.29 2.9 7.75
8/23/2022 8:30:00 PM 22.24 72.032 0.063 7.28 3.21 7.72
8/23/2022 8:45:00 PM 22.14 71.852 0.063 7.27 2.94 7.72
8/23/2022 9:00:00 PM 22.03 71.654 0.063 7.27 2.91 7.72
8/23/2022 9:15:00 PM 21.91 71.438 0.064 7.24 2.89 7.73
8/23/2022 9:30:00 PM 21.8 71.24 0.064 7.25 2.75 7.73
8/23/2022 9:45:00 PM 21.68 71.024 0.064 7.24 2.78 7.74
8/23/2022 10:00:00 PM 21.57 70.826 0.064 7.24 2.95 7.77
8/23/2022 10:15:00 PM 21.46 70.628 0.064 7.24 2.79 7.79
8/23/2022 10:30:00 PM 21.34 70.412 0.064 7.23 2.85 7.82
8/23/2022 10:45:00 PM 21.22 70.196 0.065 7.24 2.73 7.82
8/23/2022 11:00:00 PM 21.1 69.98 0.065 7.23 2.72 7.84
8/23/2022 11:15:00 PM 20.98 69.764 0.065 7.24 2.67 7.87
8/23/2022 11:30:00 PM 20.86 69.548 0.065 7.23 2.68 7.89
8/23/2022 11:45:00 PM 20.73 69.314 0.065 7.2 3.14 7.9
8/24/2022 12:00:00 AM 20.61 69.098 0.065 7.24 2.7 7.92
8/24/2022 12:15:00 AM 20.49 68.882 0.065 7.22 2.69 7.95
8/24/2022 12:30:00 AM 20.36 68.648 0.066 7.19 2.71 7.96
8/24/2022 12:45:00 AM 20.24 68.432 0.066 7.18 2.72 7.98
8/24/2022 1:00:00 AM 20.13 68.234 0.066 7.15 2.65 8
8/24/2022 1:15:00 AM 20.01 68.018 0.066 7.21 2.79 8
8/24/2022 1:30:00 AM 19.9 67.82 0.066 7.18 2.75 8.01
8/24/2022 1:45:00 AM 19.79 67.622 0.066 7.19 2.71 8.04
8/24/2022 2:00:00 AM 19.69 67.442 0.066 7.12 3.15 8.06
8/24/2022 2:15:00 AM 19.59 67.262 0.066 7.17 3.06 8.07
8/24/2022 2:30:00 AM 19.5 67.1 0.066 7.19 2.66 8.1
8/24/2022 2:45:00 AM 19.4 66.92 0.066 7.18 2.68 8.11
8/24/2022 3:00:00 AM 19.32 66.776 0.066 7.19 2.76 8.13
8/24/2022 3:15:00 AM 19.23 66.614 0.066 7.16 2.61 8.15
8/24/2022 3:30:00 AM 19.14 66.452 0.066 7.16 2.69 8.16
8/24/2022 3:45:00 AM 19.06 66.308 0.066 7.18 2.64 8.18
8/24/2022 4:00:00 AM 18.96 66.128 0.066 7.16 2.65 8.19
8/24/2022 4:15:00 AM 18.88 65.984 0.066 7.15 2.62 8.21
8/24/2022 4:30:00 AM 18.8 65.84 0.066 7.17 2.77 8.23
8/24/2022 4:45:00 AM 18.71 65.67799 0.066 7.18 2.68 8.25
8/24/2022 5:00:00 AM 18.63 65.534 0.066 7.14 2.74 8.25
8/24/2022 5:15:00 AM 18.56 65.408 0.066 7.21 2.81 8.28
8/24/2022 5:30:00 AM 18.49 65.282 0.066 7.2 2.62 8.29
8/24/2022 5:45:00 AM 18.41 65.138 0.066 7.18 2.69 8.31
8/24/2022 6:00:00 AM 18.33 64.994 0.066 7.17 2.73 8.32
8/24/2022 6:15:00 AM 18.26 64.868 0.066 7.18 2.78 8.34
8/24/2022 6:30:00 AM 18.19 64.742 0.066 7.16 2.72 8.36
8/24/2022 6:45:00 AM 18.12 64.616 0.066 7.18 2.72 8.38
8/24/2022 7:00:00 AM 18.05 64.49 0.066 7.18 2.61 8.41
8/24/2022 7:15:00 AM 17.99 64.382 0.066 7.16 2.64 8.45
8/24/2022 7:30:00 AM 17.95 64.31 0.066 7.17 2.71 8.5
8/24/2022 7:45:00 AM 17.91 64.238 0.066 7.19 3.13 8.56
8/24/2022 8:00:00 AM 17.9 64.22 0.066 7.19 2.64 8.6
8/24/2022 8:15:00 AM 17.89 64.202 0.066 7.2 2.75 8.65
8/24/2022 8:30:00 AM 17.89 64.202 0.066 7.21 2.7 8.68
8/24/2022 8:45:00 AM 17.91 64.238 0.065 7.21 2.56 8.7
8/24/2022 9:00:00 AM 17.96 64.328 0.065 7.21 2.59 8.71
8/24/2022 9:15:00 AM 18.02 64.436 0.065 7.23 2.57 8.75
8/24/2022 9:30:00 AM 18.08 64.544 0.065 7.24 2.53 8.75
8/24/2022 9:45:00 AM 18.14 64.652 0.065 7.24 2.68 8.75
8/24/2022 10:00:00 AM 18.22 64.796 0.065 7.25 2.49 8.76
8/24/2022 10:15:00 AM 18.3 64.94 0.065 7.26 2.49 8.77
8/24/2022 10:30:00 AM 18.38 65.084 0.065 7.27 2.42 8.77
8/24/2022 10:45:00 AM 18.49 65.282 0.065 7.28 2.49 8.79
8/24/2022 11:00:00 AM 18.61 65.498 0.065 7.3 2.51 8.83
8/24/2022 11:15:00 AM 18.71 65.67799 0.064 7.3 2.49 8.79
8/24/2022 11:30:00 AM 18.84 65.912 0.064 7.3 2.48 8.78
8/24/2022 11:45:00 AM 19.01 66.218 0.064 7.32 2.49 8.81
8/24/2022 12:00:00 PM 19.14 66.452 0.064 7.32 2.47 8.78
8/24/2022 12:15:00 PM 19.29 66.722 0.064 7.3 2.48 8.74
8/24/2022 12:30:00 PM 19.51 67.118 0.063 7.33 2.56 8.74
8/24/2022 12:45:00 PM 19.74 67.532 0.063 7.32 2.57 8.71
8/24/2022 1:00:00 PM 20 68 0.063 7.32 2.51 8.67
8/24/2022 1:15:00 PM 20.31 68.558 0.063 7.33 2.38 8.65
8/24/2022 1:30:00 PM 20.61 69.098 0.063 7.34 2.45 8.59
8/24/2022 1:45:00 PM 20.86 69.548 0.063 7.34 2.45 8.51
8/24/2022 2:00:00 PM 21.12 70.016 0.063 7.34 2.47 8.47
8/24/2022 2:15:00 PM 21.33 70.394 0.063 7.35 2.5 8.43
8/24/2022 2:30:00 PM 21.61 70.898 0.063 7.34 2.43 8.42
8/24/2022 2:45:00 PM 21.97 71.546 0.062 7.37 2.54 8.47
8/24/2022 3:00:00 PM 22.26 72.068 0.062 7.38 2.44 8.4
8/24/2022 3:15:00 PM 22.4 72.32 0.062 7.37 2.51 8.34
8/24/2022 3:30:00 PM 22.55 72.59 0.062 7.35 2.43 8.29
8/24/2022 3:45:00 PM 22.78 73.004 0.063 7.36 2.42 8.27
8/24/2022 4:00:00 PM 22.91 73.238 0.063 7.38 2.43 8.19
8/24/2022 4:15:00 PM 22.97 73.346 0.063 7.37 2.37 8.15
8/24/2022 4:30:00 PM 22.97 73.346 0.063 7.38 2.45 8.14
8/24/2022 4:45:00 PM 23.07 73.526 0.063 7.37 2.37 8.14
8/24/2022 5:00:00 PM 23.04 73.472 0.063 7.36 2.43 8.07
8/24/2022 5:15:00 PM 22.9 73.22 0.063 7.34 2.37 8.02
8/24/2022 5:30:00 PM 22.89 73.202 0.063 7.34 2.38 8.04
8/24/2022 5:45:00 PM 22.79 73.022 0.063 7.31 2.41 7.96
8/24/2022 6:00:00 PM 22.76 72.968 0.063 7.29 2.56 7.97
8/24/2022 6:15:00 PM 22.77 72.986 0.063 7.28 2.45 7.94
8/24/2022 6:30:00 PM 22.66 72.788 0.063 7.26 2.41 7.86
8/24/2022 6:45:00 PM 22.55 72.59 0.064 7.24 2.44 7.8
8/24/2022 7:00:00 PM 22.46 72.42799 0.064 7.23 2.39 7.77
8/24/2022 7:15:00 PM 22.36 72.248 0.064 7.23 2.48 7.76
8/24/2022 7:30:00 PM 22.25 72.05 0.064 7.23 2.49 7.74
8/24/2022 7:45:00 PM 22.12 71.816 0.065 7.22 2.45 7.72
8/24/2022 8:00:00 PM 21.98 71.564 0.065 7.22 2.47 7.72
8/24/2022 8:15:00 PM 21.85 71.33 0.065 7.21 2.47 7.7
8/24/2022 8:30:00 PM 21.71 71.078 0.065 7.21 2.63 7.7
8/24/2022 8:45:00 PM 21.57 70.826 0.066 7.2 2.73 7.7
8/24/2022 9:00:00 PM 21.44 70.592 0.066 7.19 2.65 7.71
8/24/2022 9:15:00 PM 21.32 70.376 0.066 7.19 2.67 7.71
8/24/2022 9:30:00 PM 21.21 70.17799 0.066 7.19 2.66 7.73
8/24/2022 9:45:00 PM 21.09 69.962 0.066 7.19 2.72 7.74
8/24/2022 10:00:00 PM 20.98 69.764 0.066 7.19 2.62 7.77
8/24/2022 10:15:00 PM 20.86 69.548 0.067 7.18 2.71 7.79
8/24/2022 10:30:00 PM 20.74 69.332 0.067 7.18 2.65 7.8
8/24/2022 10:45:00 PM 20.61 69.098 0.067 7.18 2.64 7.82
8/24/2022 11:00:00 PM 20.48 68.864 0.067 7.18 2.72 7.85
8/24/2022 11:15:00 PM 20.35 68.63 0.067 7.17 2.65 7.88
8/24/2022 11:30:00 PM 20.22 68.396 0.067 7.16 2.7 7.9
8/24/2022 11:45:00 PM 20.08 68.144 0.067 7.15 2.63 7.92
8/25/2022 12:00:00 AM 19.95 67.91 0.068 7.15 2.58 7.96
8/25/2022 12:15:00 AM 19.82 67.676 0.068 7.16 2.6 7.97
8/25/2022 12:30:00 AM 19.7 67.46 0.068 7.14 2.63 7.99
8/25/2022 12:45:00 AM 19.57 67.226 0.068 7.14 3.07 8.01
8/25/2022 1:00:00 AM 19.45 67.01 0.068 7.12 2.56 8.02
8/25/2022 1:15:00 AM 19.34 66.812 0.068 7.12 2.59 8.05
8/25/2022 1:30:00 AM 19.21 66.578 0.068 7.13 2.58 8.06
8/25/2022 1:45:00 AM 19.09 66.362 0.069 7.12 2.63 8.09
8/25/2022 2:00:00 AM 18.97 66.146 0.069 7.12 2.53 8.12
8/25/2022 2:15:00 AM 18.85 65.93 0.069 7.11 2.64 8.15
8/25/2022 2:30:00 AM 18.74 65.732 0.069 7.11 2.62 8.15
8/25/2022 2:45:00 AM 18.62 65.516 0.069 7.11 2.63 8.17
8/25/2022 3:00:00 AM 18.5 65.3 0.069 7.13 2.51 8.2
8/25/2022 3:15:00 AM 18.4 65.12 0.069 7.13 2.61 8.22
8/25/2022 3:30:00 AM 18.28 64.904 0.069 7.12 2.52 8.24
8/25/2022 3:45:00 AM 18.18 64.724 0.069 7.11 2.51 8.27
8/25/2022 4:00:00 AM 18.08 64.544 0.069 7.11 2.55 8.29
8/25/2022 4:15:00 AM 17.98 64.364 0.069 7.11 2.49 8.3
8/25/2022 4:30:00 AM 17.87 64.166 0.069 7.1 2.57 8.32
8/25/2022 4:45:00 AM 17.77 63.986 0.069 7.1 2.57 8.35
8/25/2022 5:00:00 AM 17.68 63.824 0.069 7.12 2.59 8.35
8/25/2022 5:15:00 AM 17.58 63.644 0.069 7.12 2.58 8.38
8/25/2022 5:30:00 AM 17.49 63.482 0.069 7.13 2.65 8.4
8/25/2022 5:45:00 AM 17.39 63.302 0.069 7.1 2.63 8.4
8/25/2022 6:00:00 AM 17.31 63.158 0.069 7.11 2.87 8.44
8/25/2022 6:15:00 AM 17.25 63.05 0.069 7.13 2.77 8.46
8/25/2022 6:30:00 AM 17.15 62.87 0.069 7.11 2.74 8.46
8/25/2022 6:45:00 AM 17.11 62.798 0.069 7.11 2.66 8.47
8/25/2022 7:00:00 AM 17.04 62.672 0.069 7.11 2.66 8.5
8/25/2022 7:15:00 AM 16.98 62.564 0.069 7.12 2.63 8.54
8/25/2022 7:30:00 AM 16.93 62.474 0.069 7.12 2.61 8.57
8/25/2022 7:45:00 AM 16.89 62.402 0.069 7.11 2.73 8.61
8/25/2022 8:00:00 AM 16.86 62.348 0.068 7.11 2.64 8.66
8/25/2022 8:15:00 AM 16.86 62.348 0.068 7.12 2.67 8.67
8/25/2022 8:30:00 AM 16.87 62.366 0.068 7.13 2.57 8.71
8/25/2022 8:45:00 AM 16.91 62.438 0.068 7.15 2.56 8.74
8/25/2022 9:00:00 AM 16.97 62.546 0.068 7.16 2.55 8.77
8/25/2022 9:15:00 AM 17.05 62.69 0.068 7.16 2.51 8.79
8/25/2022 9:30:00 AM 17.14 62.852 0.067 7.17 2.59 8.81
8/25/2022 9:45:00 AM 17.23 63.014 0.067 7.18 2.5 8.82
8/25/2022 10:00:00 AM 17.33 63.194 0.067 7.18 2.68 8.84
8/25/2022 10:15:00 AM 17.43 63.374 0.067 7.2 2.8 8.85
8/25/2022 10:30:00 AM 17.54 63.572 0.067 7.2 2.47 8.86
8/25/2022 10:45:00 AM 17.66 63.788 0.067 7.21 2.65 8.84
8/25/2022 11:00:00 AM